<?xml version="1.0" encoding="UTF-8" standalone="no" ?>
<gpx xmlns="http://www.topografix.com/GPX/1/1" xmlns:xsi="http://www.w3.org/2001/XMLSchema-instance" xsi:schemaLocation="http://www.topografix.com/GPX/1/1 http://www.topografix.com/GPX/1/1/gpx.xsd" version="1.1" creator="VisuGPX - https://www.visugpx.com">
  <metadata>
    <name>trail de la Vallée de Chevreuse 16km</name>
  </metadata>
  <trk>
    <name><![CDATA[2008-04-06 : trail de la Vallée de Chevreuse]]></name>
    <trkseg>
      <trkpt lat="48.70239" lon="1.89213">
        <ele>136.16</ele>
        <time>2008-04-06T05:17:30Z</time>
      </trkpt>
      <trkpt lat="48.70239" lon="1.89215">
        <ele>137.61</ele>
        <time>2008-04-06T05:17:33Z</time>
      </trkpt>
      <trkpt lat="48.70237" lon="1.89239">
        <ele>136.64</ele>
        <time>2008-04-06T05:17:37Z</time>
      </trkpt>
      <trkpt lat="48.70236" lon="1.89261">
        <ele>136.16</ele>
        <time>2008-04-06T05:17:41Z</time>
      </trkpt>
      <trkpt lat="48.7024" lon="1.89268">
        <ele>134.72</ele>
        <time>2008-04-06T05:17:43Z</time>
      </trkpt>
      <trkpt lat="48.70252" lon="1.8929">
        <ele>132.8</ele>
        <time>2008-04-06T05:17:49Z</time>
      </trkpt>
      <trkpt lat="48.70263" lon="1.89307">
        <ele>130.88</ele>
        <time>2008-04-06T05:17:54Z</time>
      </trkpt>
      <trkpt lat="48.70274" lon="1.89322">
        <ele>128.95</ele>
        <time>2008-04-06T05:17:59Z</time>
      </trkpt>
      <trkpt lat="48.70283" lon="1.89333">
        <ele>128.47</ele>
        <time>2008-04-06T05:18:03Z</time>
      </trkpt>
      <trkpt lat="48.70284" lon="1.89336">
        <ele>127.03</ele>
        <time>2008-04-06T05:18:04Z</time>
      </trkpt>
      <trkpt lat="48.70292" lon="1.89358">
        <ele>126.07</ele>
        <time>2008-04-06T05:18:10Z</time>
      </trkpt>
      <trkpt lat="48.70292" lon="1.89371">
        <ele>125.59</ele>
        <time>2008-04-06T05:18:13Z</time>
      </trkpt>
      <trkpt lat="48.70295" lon="1.89397">
        <ele>125.59</ele>
        <time>2008-04-06T05:18:19Z</time>
      </trkpt>
      <trkpt lat="48.70298" lon="1.89421">
        <ele>123.67</ele>
        <time>2008-04-06T05:18:24Z</time>
      </trkpt>
      <trkpt lat="48.70306" lon="1.89441">
        <ele>125.11</ele>
        <time>2008-04-06T05:18:29Z</time>
      </trkpt>
      <trkpt lat="48.70319" lon="1.8946">
        <ele>125.11</ele>
        <time>2008-04-06T05:18:35Z</time>
      </trkpt>
      <trkpt lat="48.70322" lon="1.89464">
        <ele>124.63</ele>
        <time>2008-04-06T05:18:36Z</time>
      </trkpt>
      <trkpt lat="48.70334" lon="1.89485">
        <ele>126.55</ele>
        <time>2008-04-06T05:18:42Z</time>
      </trkpt>
      <trkpt lat="48.70337" lon="1.89492">
        <ele>125.11</ele>
        <time>2008-04-06T05:18:44Z</time>
      </trkpt>
      <trkpt lat="48.70337" lon="1.89508">
        <ele>123.67</ele>
        <time>2008-04-06T05:18:48Z</time>
      </trkpt>
      <trkpt lat="48.70331" lon="1.89525">
        <ele>121.26</ele>
        <time>2008-04-06T05:18:53Z</time>
      </trkpt>
      <trkpt lat="48.70325" lon="1.89539">
        <ele>119.82</ele>
        <time>2008-04-06T05:18:57Z</time>
      </trkpt>
      <trkpt lat="48.70317" lon="1.8955">
        <ele>120.3</ele>
        <time>2008-04-06T05:19:01Z</time>
      </trkpt>
      <trkpt lat="48.70316" lon="1.89554">
        <ele>120.78</ele>
        <time>2008-04-06T05:19:02Z</time>
      </trkpt>
      <trkpt lat="48.70303" lon="1.89565">
        <ele>120.78</ele>
        <time>2008-04-06T05:19:07Z</time>
      </trkpt>
      <trkpt lat="48.70293" lon="1.8957">
        <ele>121.74</ele>
        <time>2008-04-06T05:19:11Z</time>
      </trkpt>
      <trkpt lat="48.70277" lon="1.8958">
        <ele>122.22</ele>
        <time>2008-04-06T05:19:16Z</time>
      </trkpt>
      <trkpt lat="48.70267" lon="1.89592">
        <ele>123.19</ele>
        <time>2008-04-06T05:19:21Z</time>
      </trkpt>
      <trkpt lat="48.70259" lon="1.89607">
        <ele>123.67</ele>
        <time>2008-04-06T05:19:26Z</time>
      </trkpt>
      <trkpt lat="48.70251" lon="1.89621">
        <ele>122.71</ele>
        <time>2008-04-06T05:19:30Z</time>
      </trkpt>
      <trkpt lat="48.7024" lon="1.89638">
        <ele>120.78</ele>
        <time>2008-04-06T05:19:35Z</time>
      </trkpt>
      <trkpt lat="48.7023" lon="1.89653">
        <ele>118.38</ele>
        <time>2008-04-06T05:19:40Z</time>
      </trkpt>
      <trkpt lat="48.70219" lon="1.8967">
        <ele>118.86</ele>
        <time>2008-04-06T05:19:46Z</time>
      </trkpt>
      <trkpt lat="48.70208" lon="1.89686">
        <ele>117.42</ele>
        <time>2008-04-06T05:19:52Z</time>
      </trkpt>
      <trkpt lat="48.70198" lon="1.89697">
        <ele>115.5</ele>
        <time>2008-04-06T05:19:57Z</time>
      </trkpt>
      <trkpt lat="48.70197" lon="1.89698">
        <ele>115.5</ele>
        <time>2008-04-06T05:19:58Z</time>
      </trkpt>
      <trkpt lat="48.70184" lon="1.89714">
        <ele>113.09</ele>
        <time>2008-04-06T05:20:05Z</time>
      </trkpt>
      <trkpt lat="48.70178" lon="1.89733">
        <ele>109.73</ele>
        <time>2008-04-06T05:20:10Z</time>
      </trkpt>
      <trkpt lat="48.70177" lon="1.89751">
        <ele>109.73</ele>
        <time>2008-04-06T05:20:14Z</time>
      </trkpt>
      <trkpt lat="48.70173" lon="1.89774">
        <ele>118.38</ele>
        <time>2008-04-06T05:20:20Z</time>
      </trkpt>
      <trkpt lat="48.70173" lon="1.89787">
        <ele>121.26</ele>
        <time>2008-04-06T05:20:24Z</time>
      </trkpt>
      <trkpt lat="48.70173" lon="1.89808">
        <ele>123.19</ele>
        <time>2008-04-06T05:20:31Z</time>
      </trkpt>
      <trkpt lat="48.70176" lon="1.89826">
        <ele>131.84</ele>
        <time>2008-04-06T05:20:36Z</time>
      </trkpt>
      <trkpt lat="48.70181" lon="1.8984">
        <ele>141.45</ele>
        <time>2008-04-06T05:20:41Z</time>
      </trkpt>
      <trkpt lat="48.70184" lon="1.89844">
        <ele>142.41</ele>
        <time>2008-04-06T05:20:43Z</time>
      </trkpt>
      <trkpt lat="48.7019" lon="1.89851">
        <ele>144.82</ele>
        <time>2008-04-06T05:20:47Z</time>
      </trkpt>
      <trkpt lat="48.70198" lon="1.89864">
        <ele>147.22</ele>
        <time>2008-04-06T05:20:53Z</time>
      </trkpt>
      <trkpt lat="48.70201" lon="1.89876">
        <ele>147.7</ele>
        <time>2008-04-06T05:20:57Z</time>
      </trkpt>
      <trkpt lat="48.70204" lon="1.89889">
        <ele>149.62</ele>
        <time>2008-04-06T05:21:02Z</time>
      </trkpt>
      <trkpt lat="48.70208" lon="1.89901">
        <ele>151.54</ele>
        <time>2008-04-06T05:21:07Z</time>
      </trkpt>
      <trkpt lat="48.70208" lon="1.89904">
        <ele>152.03</ele>
        <time>2008-04-06T05:21:08Z</time>
      </trkpt>
      <trkpt lat="48.7021" lon="1.89912">
        <ele>154.43</ele>
        <time>2008-04-06T05:21:11Z</time>
      </trkpt>
      <trkpt lat="48.70216" lon="1.89927">
        <ele>156.35</ele>
        <time>2008-04-06T05:21:17Z</time>
      </trkpt>
      <trkpt lat="48.70218" lon="1.89937">
        <ele>157.31</ele>
        <time>2008-04-06T05:21:21Z</time>
      </trkpt>
      <trkpt lat="48.70219" lon="1.89943">
        <ele>157.79</ele>
        <time>2008-04-06T05:21:23Z</time>
      </trkpt>
      <trkpt lat="48.70226" lon="1.89959">
        <ele>162.12</ele>
        <time>2008-04-06T05:21:29Z</time>
      </trkpt>
      <trkpt lat="48.70229" lon="1.89971">
        <ele>163.08</ele>
        <time>2008-04-06T05:21:34Z</time>
      </trkpt>
      <trkpt lat="48.70234" lon="1.89979">
        <ele>163.56</ele>
        <time>2008-04-06T05:21:39Z</time>
      </trkpt>
      <trkpt lat="48.70239" lon="1.89986">
        <ele>166.45</ele>
        <time>2008-04-06T05:21:44Z</time>
      </trkpt>
      <trkpt lat="48.70243" lon="1.89994">
        <ele>169.33</ele>
        <time>2008-04-06T05:21:51Z</time>
      </trkpt>
      <trkpt lat="48.70247" lon="1.9">
        <ele>169.33</ele>
        <time>2008-04-06T05:21:55Z</time>
      </trkpt>
      <trkpt lat="48.7025" lon="1.9001">
        <ele>168.85</ele>
        <time>2008-04-06T05:22:00Z</time>
      </trkpt>
      <trkpt lat="48.70259" lon="1.90017">
        <ele>172.69</ele>
        <time>2008-04-06T05:22:05Z</time>
      </trkpt>
      <trkpt lat="48.70261" lon="1.90022">
        <ele>172.21</ele>
        <time>2008-04-06T05:22:07Z</time>
      </trkpt>
      <trkpt lat="48.70266" lon="1.90038">
        <ele>170.77</ele>
        <time>2008-04-06T05:22:13Z</time>
      </trkpt>
      <trkpt lat="48.70274" lon="1.90053">
        <ele>171.25</ele>
        <time>2008-04-06T05:22:18Z</time>
      </trkpt>
      <trkpt lat="48.70283" lon="1.90068">
        <ele>174.14</ele>
        <time>2008-04-06T05:22:23Z</time>
      </trkpt>
      <trkpt lat="48.70287" lon="1.90078">
        <ele>173.66</ele>
        <time>2008-04-06T05:22:26Z</time>
      </trkpt>
      <trkpt lat="48.70294" lon="1.90095">
        <ele>172.21</ele>
        <time>2008-04-06T05:22:31Z</time>
      </trkpt>
      <trkpt lat="48.70302" lon="1.90114">
        <ele>175.1</ele>
        <time>2008-04-06T05:22:37Z</time>
      </trkpt>
      <trkpt lat="48.70308" lon="1.90131">
        <ele>174.62</ele>
        <time>2008-04-06T05:22:42Z</time>
      </trkpt>
      <trkpt lat="48.7031" lon="1.90147">
        <ele>173.17</ele>
        <time>2008-04-06T05:22:46Z</time>
      </trkpt>
      <trkpt lat="48.70311" lon="1.90168">
        <ele>170.29</ele>
        <time>2008-04-06T05:22:53Z</time>
      </trkpt>
      <trkpt lat="48.70307" lon="1.90183">
        <ele>166.93</ele>
        <time>2008-04-06T05:22:59Z</time>
      </trkpt>
      <trkpt lat="48.70304" lon="1.90199">
        <ele>163.08</ele>
        <time>2008-04-06T05:23:04Z</time>
      </trkpt>
      <trkpt lat="48.70299" lon="1.90222">
        <ele>163.08</ele>
        <time>2008-04-06T05:23:10Z</time>
      </trkpt>
      <trkpt lat="48.70296" lon="1.90232">
        <ele>162.12</ele>
        <time>2008-04-06T05:23:13Z</time>
      </trkpt>
      <trkpt lat="48.70292" lon="1.90247">
        <ele>160.68</ele>
        <time>2008-04-06T05:23:18Z</time>
      </trkpt>
      <trkpt lat="48.70292" lon="1.90257">
        <ele>159.72</ele>
        <time>2008-04-06T05:23:23Z</time>
      </trkpt>
      <trkpt lat="48.70293" lon="1.90264">
        <ele>164.04</ele>
        <time>2008-04-06T05:23:30Z</time>
      </trkpt>
      <trkpt lat="48.70295" lon="1.90271">
        <ele>168.85</ele>
        <time>2008-04-06T05:23:35Z</time>
      </trkpt>
      <trkpt lat="48.70294" lon="1.90281">
        <ele>168.85</ele>
        <time>2008-04-06T05:23:40Z</time>
      </trkpt>
      <trkpt lat="48.70289" lon="1.90294">
        <ele>165.48</ele>
        <time>2008-04-06T05:23:45Z</time>
      </trkpt>
      <trkpt lat="48.70285" lon="1.90306">
        <ele>168.37</ele>
        <time>2008-04-06T05:23:49Z</time>
      </trkpt>
      <trkpt lat="48.70285" lon="1.90309">
        <ele>168.37</ele>
        <time>2008-04-06T05:23:51Z</time>
      </trkpt>
      <trkpt lat="48.70282" lon="1.90326">
        <ele>162.6</ele>
        <time>2008-04-06T05:23:56Z</time>
      </trkpt>
      <trkpt lat="48.70278" lon="1.90339">
        <ele>159.72</ele>
        <time>2008-04-06T05:24:01Z</time>
      </trkpt>
      <trkpt lat="48.70278" lon="1.90342">
        <ele>159.24</ele>
        <time>2008-04-06T05:24:02Z</time>
      </trkpt>
      <trkpt lat="48.70273" lon="1.90359">
        <ele>154.43</ele>
        <time>2008-04-06T05:24:09Z</time>
      </trkpt>
      <trkpt lat="48.70272" lon="1.90361">
        <ele>153.95</ele>
        <time>2008-04-06T05:24:10Z</time>
      </trkpt>
      <trkpt lat="48.70269" lon="1.90367">
        <ele>151.54</ele>
        <time>2008-04-06T05:24:13Z</time>
      </trkpt>
      <trkpt lat="48.70267" lon="1.90383">
        <ele>145.78</ele>
        <time>2008-04-06T05:24:18Z</time>
      </trkpt>
      <trkpt lat="48.70261" lon="1.90399">
        <ele>142.41</ele>
        <time>2008-04-06T05:24:22Z</time>
      </trkpt>
      <trkpt lat="48.70256" lon="1.90419">
        <ele>145.78</ele>
        <time>2008-04-06T05:24:27Z</time>
      </trkpt>
      <trkpt lat="48.70254" lon="1.9043">
        <ele>146.26</ele>
        <time>2008-04-06T05:24:30Z</time>
      </trkpt>
      <trkpt lat="48.70248" lon="1.90445">
        <ele>146.26</ele>
        <time>2008-04-06T05:24:34Z</time>
      </trkpt>
      <trkpt lat="48.70246" lon="1.90463">
        <ele>147.7</ele>
        <time>2008-04-06T05:24:39Z</time>
      </trkpt>
      <trkpt lat="48.70246" lon="1.90479">
        <ele>149.14</ele>
        <time>2008-04-06T05:24:43Z</time>
      </trkpt>
      <trkpt lat="48.70246" lon="1.90484">
        <ele>150.1</ele>
        <time>2008-04-06T05:24:44Z</time>
      </trkpt>
      <trkpt lat="48.70246" lon="1.90505">
        <ele>156.35</ele>
        <time>2008-04-06T05:24:49Z</time>
      </trkpt>
      <trkpt lat="48.70244" lon="1.90523">
        <ele>160.2</ele>
        <time>2008-04-06T05:24:54Z</time>
      </trkpt>
      <trkpt lat="48.70244" lon="1.90529">
        <ele>160.68</ele>
        <time>2008-04-06T05:24:56Z</time>
      </trkpt>
      <trkpt lat="48.70242" lon="1.90557">
        <ele>168.37</ele>
        <time>2008-04-06T05:25:02Z</time>
      </trkpt>
      <trkpt lat="48.70244" lon="1.90571">
        <ele>169.81</ele>
        <time>2008-04-06T05:25:06Z</time>
      </trkpt>
      <trkpt lat="48.70242" lon="1.9058">
        <ele>166.93</ele>
        <time>2008-04-06T05:25:09Z</time>
      </trkpt>
      <trkpt lat="48.70243" lon="1.90598">
        <ele>165.96</ele>
        <time>2008-04-06T05:25:14Z</time>
      </trkpt>
      <trkpt lat="48.70241" lon="1.90613">
        <ele>165.96</ele>
        <time>2008-04-06T05:25:18Z</time>
      </trkpt>
      <trkpt lat="48.70238" lon="1.90632">
        <ele>161.64</ele>
        <time>2008-04-06T05:25:24Z</time>
      </trkpt>
      <trkpt lat="48.70236" lon="1.9065">
        <ele>160.2</ele>
        <time>2008-04-06T05:25:29Z</time>
      </trkpt>
      <trkpt lat="48.70236" lon="1.90668">
        <ele>158.27</ele>
        <time>2008-04-06T05:25:34Z</time>
      </trkpt>
      <trkpt lat="48.70236" lon="1.90682">
        <ele>152.99</ele>
        <time>2008-04-06T05:25:39Z</time>
      </trkpt>
      <trkpt lat="48.70233" lon="1.90697">
        <ele>153.95</ele>
        <time>2008-04-06T05:25:43Z</time>
      </trkpt>
      <trkpt lat="48.70231" lon="1.90709">
        <ele>154.43</ele>
        <time>2008-04-06T05:25:46Z</time>
      </trkpt>
      <trkpt lat="48.70225" lon="1.9073">
        <ele>155.39</ele>
        <time>2008-04-06T05:25:51Z</time>
      </trkpt>
      <trkpt lat="48.70221" lon="1.90745">
        <ele>156.83</ele>
        <time>2008-04-06T05:25:55Z</time>
      </trkpt>
      <trkpt lat="48.70215" lon="1.9077">
        <ele>156.83</ele>
        <time>2008-04-06T05:26:01Z</time>
      </trkpt>
      <trkpt lat="48.70209" lon="1.90789">
        <ele>158.75</ele>
        <time>2008-04-06T05:26:06Z</time>
      </trkpt>
      <trkpt lat="48.70208" lon="1.9081">
        <ele>163.08</ele>
        <time>2008-04-06T05:26:11Z</time>
      </trkpt>
      <trkpt lat="48.70204" lon="1.90826">
        <ele>162.6</ele>
        <time>2008-04-06T05:26:15Z</time>
      </trkpt>
      <trkpt lat="48.702" lon="1.9084">
        <ele>163.56</ele>
        <time>2008-04-06T05:26:19Z</time>
      </trkpt>
      <trkpt lat="48.70191" lon="1.90859">
        <ele>164.04</ele>
        <time>2008-04-06T05:26:25Z</time>
      </trkpt>
      <trkpt lat="48.70184" lon="1.90876">
        <ele>166.45</ele>
        <time>2008-04-06T05:26:30Z</time>
      </trkpt>
      <trkpt lat="48.70177" lon="1.90898">
        <ele>165.96</ele>
        <time>2008-04-06T05:26:36Z</time>
      </trkpt>
      <trkpt lat="48.70174" lon="1.90917">
        <ele>166.45</ele>
        <time>2008-04-06T05:26:41Z</time>
      </trkpt>
      <trkpt lat="48.70166" lon="1.90944">
        <ele>165.48</ele>
        <time>2008-04-06T05:26:48Z</time>
      </trkpt>
      <trkpt lat="48.70158" lon="1.90969">
        <ele>164.04</ele>
        <time>2008-04-06T05:26:55Z</time>
      </trkpt>
      <trkpt lat="48.70153" lon="1.90993">
        <ele>164.04</ele>
        <time>2008-04-06T05:27:01Z</time>
      </trkpt>
      <trkpt lat="48.70149" lon="1.91014">
        <ele>165.48</ele>
        <time>2008-04-06T05:27:06Z</time>
      </trkpt>
      <trkpt lat="48.70141" lon="1.9104">
        <ele>165.48</ele>
        <time>2008-04-06T05:27:13Z</time>
      </trkpt>
      <trkpt lat="48.7014" lon="1.91044">
        <ele>166.93</ele>
        <time>2008-04-06T05:27:14Z</time>
      </trkpt>
      <trkpt lat="48.70136" lon="1.91052">
        <ele>167.41</ele>
        <time>2008-04-06T05:27:19Z</time>
      </trkpt>
      <trkpt lat="48.70135" lon="1.91053">
        <ele>166.45</ele>
        <time>2008-04-06T05:27:20Z</time>
      </trkpt>
      <trkpt lat="48.70132" lon="1.91069">
        <ele>164.04</ele>
        <time>2008-04-06T05:27:25Z</time>
      </trkpt>
      <trkpt lat="48.70131" lon="1.91075">
        <ele>164.52</ele>
        <time>2008-04-06T05:27:27Z</time>
      </trkpt>
      <trkpt lat="48.70127" lon="1.91098">
        <ele>162.12</ele>
        <time>2008-04-06T05:27:34Z</time>
      </trkpt>
      <trkpt lat="48.70122" lon="1.91116">
        <ele>157.31</ele>
        <time>2008-04-06T05:27:39Z</time>
      </trkpt>
      <trkpt lat="48.70121" lon="1.91123">
        <ele>154.91</ele>
        <time>2008-04-06T05:27:41Z</time>
      </trkpt>
      <trkpt lat="48.70121" lon="1.9113">
        <ele>153.95</ele>
        <time>2008-04-06T05:27:43Z</time>
      </trkpt>
      <trkpt lat="48.70115" lon="1.91156">
        <ele>146.26</ele>
        <time>2008-04-06T05:27:50Z</time>
      </trkpt>
      <trkpt lat="48.70118" lon="1.91178">
        <ele>147.7</ele>
        <time>2008-04-06T05:27:55Z</time>
      </trkpt>
      <trkpt lat="48.70108" lon="1.91197">
        <ele>144.34</ele>
        <time>2008-04-06T05:28:02Z</time>
      </trkpt>
      <trkpt lat="48.70105" lon="1.91203">
        <ele>141.45</ele>
        <time>2008-04-06T05:28:04Z</time>
      </trkpt>
      <trkpt lat="48.70095" lon="1.91205">
        <ele>140.49</ele>
        <time>2008-04-06T05:28:08Z</time>
      </trkpt>
      <trkpt lat="48.70079" lon="1.91194">
        <ele>140.49</ele>
        <time>2008-04-06T05:28:14Z</time>
      </trkpt>
      <trkpt lat="48.70068" lon="1.91185">
        <ele>141.93</ele>
        <time>2008-04-06T05:28:19Z</time>
      </trkpt>
      <trkpt lat="48.70057" lon="1.91179">
        <ele>140.01</ele>
        <time>2008-04-06T05:28:23Z</time>
      </trkpt>
      <trkpt lat="48.70041" lon="1.91171">
        <ele>141.45</ele>
        <time>2008-04-06T05:28:29Z</time>
      </trkpt>
      <trkpt lat="48.70029" lon="1.91166">
        <ele>143.85</ele>
        <time>2008-04-06T05:28:34Z</time>
      </trkpt>
      <trkpt lat="48.70023" lon="1.91154">
        <ele>148.18</ele>
        <time>2008-04-06T05:28:39Z</time>
      </trkpt>
      <trkpt lat="48.70016" lon="1.91143">
        <ele>149.14</ele>
        <time>2008-04-06T05:28:43Z</time>
      </trkpt>
      <trkpt lat="48.70014" lon="1.91139">
        <ele>150.58</ele>
        <time>2008-04-06T05:28:45Z</time>
      </trkpt>
      <trkpt lat="48.70007" lon="1.91128">
        <ele>152.03</ele>
        <time>2008-04-06T05:28:50Z</time>
      </trkpt>
      <trkpt lat="48.7" lon="1.91116">
        <ele>152.51</ele>
        <time>2008-04-06T05:28:54Z</time>
      </trkpt>
      <trkpt lat="48.69999" lon="1.91113">
        <ele>152.51</ele>
        <time>2008-04-06T05:28:55Z</time>
      </trkpt>
      <trkpt lat="48.69992" lon="1.91096">
        <ele>152.03</ele>
        <time>2008-04-06T05:29:00Z</time>
      </trkpt>
      <trkpt lat="48.69991" lon="1.91081">
        <ele>150.58</ele>
        <time>2008-04-06T05:29:04Z</time>
      </trkpt>
      <trkpt lat="48.69987" lon="1.91067">
        <ele>149.14</ele>
        <time>2008-04-06T05:29:08Z</time>
      </trkpt>
      <trkpt lat="48.69985" lon="1.9106">
        <ele>147.7</ele>
        <time>2008-04-06T05:29:10Z</time>
      </trkpt>
      <trkpt lat="48.69972" lon="1.91046">
        <ele>144.34</ele>
        <time>2008-04-06T05:29:16Z</time>
      </trkpt>
      <trkpt lat="48.69962" lon="1.91035">
        <ele>141.45</ele>
        <time>2008-04-06T05:29:20Z</time>
      </trkpt>
      <trkpt lat="48.69952" lon="1.91015">
        <ele>138.57</ele>
        <time>2008-04-06T05:29:26Z</time>
      </trkpt>
      <trkpt lat="48.69942" lon="1.9102">
        <ele>132.8</ele>
        <time>2008-04-06T05:29:31Z</time>
      </trkpt>
      <trkpt lat="48.6994" lon="1.91032">
        <ele>129.43</ele>
        <time>2008-04-06T05:29:34Z</time>
      </trkpt>
      <trkpt lat="48.69935" lon="1.91066">
        <ele>123.19</ele>
        <time>2008-04-06T05:29:41Z</time>
      </trkpt>
      <trkpt lat="48.69933" lon="1.91089">
        <ele>122.22</ele>
        <time>2008-04-06T05:29:46Z</time>
      </trkpt>
      <trkpt lat="48.69931" lon="1.91113">
        <ele>122.22</ele>
        <time>2008-04-06T05:29:51Z</time>
      </trkpt>
      <trkpt lat="48.69936" lon="1.91134">
        <ele>116.46</ele>
        <time>2008-04-06T05:29:56Z</time>
      </trkpt>
      <trkpt lat="48.69938" lon="1.91154">
        <ele>112.61</ele>
        <time>2008-04-06T05:30:01Z</time>
      </trkpt>
      <trkpt lat="48.69943" lon="1.9117">
        <ele>116.94</ele>
        <time>2008-04-06T05:30:06Z</time>
      </trkpt>
      <trkpt lat="48.69949" lon="1.9118">
        <ele>120.78</ele>
        <time>2008-04-06T05:30:11Z</time>
      </trkpt>
      <trkpt lat="48.69958" lon="1.91189">
        <ele>127.99</ele>
        <time>2008-04-06T05:30:17Z</time>
      </trkpt>
      <trkpt lat="48.69971" lon="1.91196">
        <ele>137.13</ele>
        <time>2008-04-06T05:30:23Z</time>
      </trkpt>
      <trkpt lat="48.69976" lon="1.912">
        <ele>146.26</ele>
        <time>2008-04-06T05:30:30Z</time>
      </trkpt>
      <trkpt lat="48.69982" lon="1.91207">
        <ele>146.74</ele>
        <time>2008-04-06T05:30:36Z</time>
      </trkpt>
      <trkpt lat="48.69981" lon="1.91213">
        <ele>142.89</ele>
        <time>2008-04-06T05:30:43Z</time>
      </trkpt>
      <trkpt lat="48.6998" lon="1.91218">
        <ele>143.85</ele>
        <time>2008-04-06T05:30:49Z</time>
      </trkpt>
      <trkpt lat="48.69983" lon="1.91225">
        <ele>142.41</ele>
        <time>2008-04-06T05:30:57Z</time>
      </trkpt>
      <trkpt lat="48.69984" lon="1.91233">
        <ele>139.53</ele>
        <time>2008-04-06T05:31:03Z</time>
      </trkpt>
      <trkpt lat="48.69985" lon="1.91235">
        <ele>140.49</ele>
        <time>2008-04-06T05:31:04Z</time>
      </trkpt>
      <trkpt lat="48.69982" lon="1.91242">
        <ele>142.41</ele>
        <time>2008-04-06T05:31:11Z</time>
      </trkpt>
      <trkpt lat="48.69976" lon="1.91245">
        <ele>140.97</ele>
        <time>2008-04-06T05:31:16Z</time>
      </trkpt>
      <trkpt lat="48.69976" lon="1.91246">
        <ele>140.97</ele>
        <time>2008-04-06T05:31:17Z</time>
      </trkpt>
      <trkpt lat="48.69972" lon="1.91252">
        <ele>141.45</ele>
        <time>2008-04-06T05:31:21Z</time>
      </trkpt>
      <trkpt lat="48.69968" lon="1.91263">
        <ele>139.05</ele>
        <time>2008-04-06T05:31:25Z</time>
      </trkpt>
      <trkpt lat="48.69963" lon="1.91273">
        <ele>137.13</ele>
        <time>2008-04-06T05:31:29Z</time>
      </trkpt>
      <trkpt lat="48.69956" lon="1.91285">
        <ele>135.68</ele>
        <time>2008-04-06T05:31:34Z</time>
      </trkpt>
      <trkpt lat="48.69955" lon="1.91287">
        <ele>135.2</ele>
        <time>2008-04-06T05:31:35Z</time>
      </trkpt>
      <trkpt lat="48.69951" lon="1.91302">
        <ele>138.57</ele>
        <time>2008-04-06T05:31:40Z</time>
      </trkpt>
      <trkpt lat="48.69952" lon="1.91308">
        <ele>140.97</ele>
        <time>2008-04-06T05:31:42Z</time>
      </trkpt>
      <trkpt lat="48.69952" lon="1.9132">
        <ele>140.01</ele>
        <time>2008-04-06T05:31:47Z</time>
      </trkpt>
      <trkpt lat="48.69955" lon="1.91334">
        <ele>137.13</ele>
        <time>2008-04-06T05:31:53Z</time>
      </trkpt>
      <trkpt lat="48.6995" lon="1.91345">
        <ele>134.72</ele>
        <time>2008-04-06T05:31:59Z</time>
      </trkpt>
      <trkpt lat="48.69948" lon="1.9135">
        <ele>132.8</ele>
        <time>2008-04-06T05:32:02Z</time>
      </trkpt>
      <trkpt lat="48.69939" lon="1.91361">
        <ele>123.19</ele>
        <time>2008-04-06T05:32:09Z</time>
      </trkpt>
      <trkpt lat="48.69933" lon="1.91369">
        <ele>125.11</ele>
        <time>2008-04-06T05:32:13Z</time>
      </trkpt>
      <trkpt lat="48.69928" lon="1.91371">
        <ele>127.51</ele>
        <time>2008-04-06T05:32:16Z</time>
      </trkpt>
      <trkpt lat="48.69921" lon="1.91367">
        <ele>130.88</ele>
        <time>2008-04-06T05:32:22Z</time>
      </trkpt>
      <trkpt lat="48.6992" lon="1.91365">
        <ele>131.36</ele>
        <time>2008-04-06T05:32:23Z</time>
      </trkpt>
      <trkpt lat="48.69918" lon="1.91364">
        <ele>130.4</ele>
        <time>2008-04-06T05:32:26Z</time>
      </trkpt>
      <trkpt lat="48.69913" lon="1.9136">
        <ele>131.84</ele>
        <time>2008-04-06T05:32:29Z</time>
      </trkpt>
      <trkpt lat="48.69909" lon="1.9136">
        <ele>134.24</ele>
        <time>2008-04-06T05:32:34Z</time>
      </trkpt>
      <trkpt lat="48.69906" lon="1.91364">
        <ele>133.76</ele>
        <time>2008-04-06T05:32:38Z</time>
      </trkpt>
      <trkpt lat="48.69906" lon="1.91377">
        <ele>134.24</ele>
        <time>2008-04-06T05:32:44Z</time>
      </trkpt>
      <trkpt lat="48.69907" lon="1.9139">
        <ele>137.13</ele>
        <time>2008-04-06T05:32:49Z</time>
      </trkpt>
      <trkpt lat="48.69909" lon="1.91402">
        <ele>141.93</ele>
        <time>2008-04-06T05:32:55Z</time>
      </trkpt>
      <trkpt lat="48.69909" lon="1.91411">
        <ele>144.82</ele>
        <time>2008-04-06T05:32:59Z</time>
      </trkpt>
      <trkpt lat="48.69913" lon="1.91423">
        <ele>145.78</ele>
        <time>2008-04-06T05:33:04Z</time>
      </trkpt>
      <trkpt lat="48.69915" lon="1.91426">
        <ele>146.74</ele>
        <time>2008-04-06T05:33:06Z</time>
      </trkpt>
      <trkpt lat="48.6992" lon="1.91431">
        <ele>147.22</ele>
        <time>2008-04-06T05:33:09Z</time>
      </trkpt>
      <trkpt lat="48.69923" lon="1.91444">
        <ele>148.66</ele>
        <time>2008-04-06T05:33:14Z</time>
      </trkpt>
      <trkpt lat="48.69928" lon="1.91451">
        <ele>149.14</ele>
        <time>2008-04-06T05:33:18Z</time>
      </trkpt>
      <trkpt lat="48.69936" lon="1.9146">
        <ele>152.03</ele>
        <time>2008-04-06T05:33:23Z</time>
      </trkpt>
      <trkpt lat="48.69938" lon="1.91463">
        <ele>151.54</ele>
        <time>2008-04-06T05:33:24Z</time>
      </trkpt>
      <trkpt lat="48.69944" lon="1.91466">
        <ele>151.06</ele>
        <time>2008-04-06T05:33:28Z</time>
      </trkpt>
      <trkpt lat="48.69955" lon="1.91471">
        <ele>152.03</ele>
        <time>2008-04-06T05:33:35Z</time>
      </trkpt>
      <trkpt lat="48.69962" lon="1.91476">
        <ele>155.87</ele>
        <time>2008-04-06T05:33:40Z</time>
      </trkpt>
      <trkpt lat="48.69968" lon="1.91478">
        <ele>160.2</ele>
        <time>2008-04-06T05:33:43Z</time>
      </trkpt>
      <trkpt lat="48.69976" lon="1.91484">
        <ele>163.56</ele>
        <time>2008-04-06T05:33:50Z</time>
      </trkpt>
      <trkpt lat="48.69978" lon="1.91485">
        <ele>163.56</ele>
        <time>2008-04-06T05:33:51Z</time>
      </trkpt>
      <trkpt lat="48.69982" lon="1.91487">
        <ele>166.93</ele>
        <time>2008-04-06T05:33:55Z</time>
      </trkpt>
      <trkpt lat="48.69984" lon="1.91492">
        <ele>166.93</ele>
        <time>2008-04-06T05:34:01Z</time>
      </trkpt>
      <trkpt lat="48.69984" lon="1.91495">
        <ele>167.41</ele>
        <time>2008-04-06T05:34:02Z</time>
      </trkpt>
      <trkpt lat="48.69983" lon="1.91509">
        <ele>164.52</ele>
        <time>2008-04-06T05:34:08Z</time>
      </trkpt>
      <trkpt lat="48.69983" lon="1.91513">
        <ele>164.52</ele>
        <time>2008-04-06T05:34:09Z</time>
      </trkpt>
      <trkpt lat="48.69984" lon="1.91533">
        <ele>164.04</ele>
        <time>2008-04-06T05:34:15Z</time>
      </trkpt>
      <trkpt lat="48.69982" lon="1.91549">
        <ele>168.37</ele>
        <time>2008-04-06T05:34:19Z</time>
      </trkpt>
      <trkpt lat="48.69979" lon="1.91564">
        <ele>165.96</ele>
        <time>2008-04-06T05:34:24Z</time>
      </trkpt>
      <trkpt lat="48.6997" lon="1.91569">
        <ele>165.48</ele>
        <time>2008-04-06T05:34:29Z</time>
      </trkpt>
      <trkpt lat="48.69963" lon="1.91576">
        <ele>170.29</ele>
        <time>2008-04-06T05:34:33Z</time>
      </trkpt>
      <trkpt lat="48.69959" lon="1.91585">
        <ele>162.6</ele>
        <time>2008-04-06T05:34:38Z</time>
      </trkpt>
      <trkpt lat="48.69952" lon="1.91593">
        <ele>152.03</ele>
        <time>2008-04-06T05:34:44Z</time>
      </trkpt>
      <trkpt lat="48.6995" lon="1.91596">
        <ele>148.18</ele>
        <time>2008-04-06T05:34:46Z</time>
      </trkpt>
      <trkpt lat="48.69947" lon="1.91599">
        <ele>144.82</ele>
        <time>2008-04-06T05:34:48Z</time>
      </trkpt>
      <trkpt lat="48.69941" lon="1.91608">
        <ele>137.13</ele>
        <time>2008-04-06T05:34:53Z</time>
      </trkpt>
      <trkpt lat="48.69938" lon="1.91613">
        <ele>134.72</ele>
        <time>2008-04-06T05:34:55Z</time>
      </trkpt>
      <trkpt lat="48.69929" lon="1.91621">
        <ele>131.36</ele>
        <time>2008-04-06T05:34:59Z</time>
      </trkpt>
      <trkpt lat="48.69924" lon="1.91635">
        <ele>132.8</ele>
        <time>2008-04-06T05:35:05Z</time>
      </trkpt>
      <trkpt lat="48.69917" lon="1.91646">
        <ele>136.64</ele>
        <time>2008-04-06T05:35:12Z</time>
      </trkpt>
      <trkpt lat="48.69916" lon="1.91652">
        <ele>140.49</ele>
        <time>2008-04-06T05:35:14Z</time>
      </trkpt>
      <trkpt lat="48.69914" lon="1.91671">
        <ele>149.14</ele>
        <time>2008-04-06T05:35:22Z</time>
      </trkpt>
      <trkpt lat="48.69913" lon="1.91679">
        <ele>152.99</ele>
        <time>2008-04-06T05:35:27Z</time>
      </trkpt>
      <trkpt lat="48.6991" lon="1.91687">
        <ele>154.91</ele>
        <time>2008-04-06T05:35:32Z</time>
      </trkpt>
      <trkpt lat="48.69911" lon="1.91703">
        <ele>157.79</ele>
        <time>2008-04-06T05:35:41Z</time>
      </trkpt>
      <trkpt lat="48.69915" lon="1.91717">
        <ele>160.2</ele>
        <time>2008-04-06T05:35:49Z</time>
      </trkpt>
      <trkpt lat="48.69918" lon="1.91737">
        <ele>162.12</ele>
        <time>2008-04-06T05:35:56Z</time>
      </trkpt>
      <trkpt lat="48.69919" lon="1.91748">
        <ele>163.08</ele>
        <time>2008-04-06T05:35:59Z</time>
      </trkpt>
      <trkpt lat="48.6991" lon="1.9176">
        <ele>162.6</ele>
        <time>2008-04-06T05:36:05Z</time>
      </trkpt>
      <trkpt lat="48.69889" lon="1.91768">
        <ele>157.31</ele>
        <time>2008-04-06T05:36:13Z</time>
      </trkpt>
      <trkpt lat="48.6988" lon="1.9177">
        <ele>152.51</ele>
        <time>2008-04-06T05:36:17Z</time>
      </trkpt>
      <trkpt lat="48.69864" lon="1.91765">
        <ele>149.62</ele>
        <time>2008-04-06T05:36:23Z</time>
      </trkpt>
      <trkpt lat="48.69863" lon="1.91753">
        <ele>152.03</ele>
        <time>2008-04-06T05:36:27Z</time>
      </trkpt>
      <trkpt lat="48.69868" lon="1.91743">
        <ele>151.06</ele>
        <time>2008-04-06T05:36:31Z</time>
      </trkpt>
      <trkpt lat="48.69876" lon="1.91729">
        <ele>149.62</ele>
        <time>2008-04-06T05:36:36Z</time>
      </trkpt>
      <trkpt lat="48.69884" lon="1.91709">
        <ele>146.74</ele>
        <time>2008-04-06T05:36:42Z</time>
      </trkpt>
      <trkpt lat="48.69888" lon="1.91689">
        <ele>143.85</ele>
        <time>2008-04-06T05:36:47Z</time>
      </trkpt>
      <trkpt lat="48.69891" lon="1.91683">
        <ele>142.41</ele>
        <time>2008-04-06T05:36:49Z</time>
      </trkpt>
      <trkpt lat="48.69894" lon="1.91669">
        <ele>138.57</ele>
        <time>2008-04-06T05:36:53Z</time>
      </trkpt>
      <trkpt lat="48.699" lon="1.91653">
        <ele>134.24</ele>
        <time>2008-04-06T05:36:58Z</time>
      </trkpt>
      <trkpt lat="48.699" lon="1.91643">
        <ele>132.8</ele>
        <time>2008-04-06T05:37:00Z</time>
      </trkpt>
      <trkpt lat="48.69896" lon="1.91615">
        <ele>127.99</ele>
        <time>2008-04-06T05:37:06Z</time>
      </trkpt>
      <trkpt lat="48.69892" lon="1.91591">
        <ele>124.15</ele>
        <time>2008-04-06T05:37:11Z</time>
      </trkpt>
      <trkpt lat="48.69882" lon="1.91569">
        <ele>123.67</ele>
        <time>2008-04-06T05:37:16Z</time>
      </trkpt>
      <trkpt lat="48.6988" lon="1.91563">
        <ele>123.19</ele>
        <time>2008-04-06T05:37:18Z</time>
      </trkpt>
      <trkpt lat="48.6987" lon="1.91553">
        <ele>122.22</ele>
        <time>2008-04-06T05:37:22Z</time>
      </trkpt>
      <trkpt lat="48.69855" lon="1.91546">
        <ele>120.3</ele>
        <time>2008-04-06T05:37:27Z</time>
      </trkpt>
      <trkpt lat="48.69841" lon="1.9154">
        <ele>115.01</ele>
        <time>2008-04-06T05:37:33Z</time>
      </trkpt>
      <trkpt lat="48.69839" lon="1.91541">
        <ele>113.09</ele>
        <time>2008-04-06T05:37:34Z</time>
      </trkpt>
      <trkpt lat="48.69837" lon="1.91544">
        <ele>111.65</ele>
        <time>2008-04-06T05:37:37Z</time>
      </trkpt>
      <trkpt lat="48.69835" lon="1.91548">
        <ele>119.34</ele>
        <time>2008-04-06T05:37:45Z</time>
      </trkpt>
      <trkpt lat="48.69831" lon="1.91551">
        <ele>120.78</ele>
        <time>2008-04-06T05:37:50Z</time>
      </trkpt>
      <trkpt lat="48.69823" lon="1.91563">
        <ele>122.71</ele>
        <time>2008-04-06T05:37:56Z</time>
      </trkpt>
      <trkpt lat="48.69814" lon="1.91563">
        <ele>128.95</ele>
        <time>2008-04-06T05:38:05Z</time>
      </trkpt>
      <trkpt lat="48.6981" lon="1.91562">
        <ele>134.24</ele>
        <time>2008-04-06T05:38:12Z</time>
      </trkpt>
      <trkpt lat="48.69812" lon="1.91563">
        <ele>135.2</ele>
        <time>2008-04-06T05:38:15Z</time>
      </trkpt>
      <trkpt lat="48.6981" lon="1.91565">
        <ele>135.24</ele>
        <time>2008-04-06T05:38:16Z</time>
      </trkpt>
      <trkpt lat="48.69119" lon="1.92403">
        <ele>160.68</ele>
        <time>2008-04-06T05:50:40Z</time>
      </trkpt>
      <trkpt lat="48.69121" lon="1.92413">
        <ele>161.64</ele>
        <time>2008-04-06T05:50:43Z</time>
      </trkpt>
      <trkpt lat="48.69128" lon="1.92429">
        <ele>162.12</ele>
        <time>2008-04-06T05:50:48Z</time>
      </trkpt>
      <trkpt lat="48.69139" lon="1.92441">
        <ele>162.12</ele>
        <time>2008-04-06T05:50:54Z</time>
      </trkpt>
      <trkpt lat="48.69146" lon="1.92448">
        <ele>162.6</ele>
        <time>2008-04-06T05:50:58Z</time>
      </trkpt>
      <trkpt lat="48.69158" lon="1.92452">
        <ele>163.56</ele>
        <time>2008-04-06T05:51:04Z</time>
      </trkpt>
      <trkpt lat="48.6917" lon="1.9245">
        <ele>164.04</ele>
        <time>2008-04-06T05:51:08Z</time>
      </trkpt>
      <trkpt lat="48.69184" lon="1.92451">
        <ele>163.56</ele>
        <time>2008-04-06T05:51:15Z</time>
      </trkpt>
      <trkpt lat="48.69199" lon="1.92448">
        <ele>167.41</ele>
        <time>2008-04-06T05:51:20Z</time>
      </trkpt>
      <trkpt lat="48.69211" lon="1.92436">
        <ele>166.93</ele>
        <time>2008-04-06T05:51:24Z</time>
      </trkpt>
      <trkpt lat="48.69214" lon="1.92429">
        <ele>167.41</ele>
        <time>2008-04-06T05:51:26Z</time>
      </trkpt>
      <trkpt lat="48.69222" lon="1.92415">
        <ele>165.96</ele>
        <time>2008-04-06T05:51:31Z</time>
      </trkpt>
      <trkpt lat="48.69231" lon="1.92412">
        <ele>165</ele>
        <time>2008-04-06T05:51:35Z</time>
      </trkpt>
      <trkpt lat="48.69235" lon="1.92416">
        <ele>164.04</ele>
        <time>2008-04-06T05:51:37Z</time>
      </trkpt>
      <trkpt lat="48.69242" lon="1.92432">
        <ele>160.68</ele>
        <time>2008-04-06T05:51:43Z</time>
      </trkpt>
      <trkpt lat="48.69248" lon="1.92445">
        <ele>160.2</ele>
        <time>2008-04-06T05:51:47Z</time>
      </trkpt>
      <trkpt lat="48.69249" lon="1.92469">
        <ele>161.16</ele>
        <time>2008-04-06T05:51:53Z</time>
      </trkpt>
      <trkpt lat="48.69252" lon="1.92485">
        <ele>164.04</ele>
        <time>2008-04-06T05:51:57Z</time>
      </trkpt>
      <trkpt lat="48.69257" lon="1.92498">
        <ele>166.45</ele>
        <time>2008-04-06T05:52:01Z</time>
      </trkpt>
      <trkpt lat="48.69267" lon="1.92524">
        <ele>169.81</ele>
        <time>2008-04-06T05:52:08Z</time>
      </trkpt>
      <trkpt lat="48.69277" lon="1.92542">
        <ele>169.81</ele>
        <time>2008-04-06T05:52:13Z</time>
      </trkpt>
      <trkpt lat="48.69283" lon="1.92554">
        <ele>171.73</ele>
        <time>2008-04-06T05:52:16Z</time>
      </trkpt>
      <trkpt lat="48.69288" lon="1.9258">
        <ele>171.25</ele>
        <time>2008-04-06T05:52:22Z</time>
      </trkpt>
      <trkpt lat="48.69298" lon="1.92593">
        <ele>171.25</ele>
        <time>2008-04-06T05:52:27Z</time>
      </trkpt>
      <trkpt lat="48.69308" lon="1.92601">
        <ele>169.81</ele>
        <time>2008-04-06T05:52:31Z</time>
      </trkpt>
      <trkpt lat="48.69317" lon="1.92616">
        <ele>169.33</ele>
        <time>2008-04-06T05:52:35Z</time>
      </trkpt>
      <trkpt lat="48.6932" lon="1.92632">
        <ele>167.89</ele>
        <time>2008-04-06T05:52:39Z</time>
      </trkpt>
      <trkpt lat="48.69322" lon="1.92649">
        <ele>164.04</ele>
        <time>2008-04-06T05:52:44Z</time>
      </trkpt>
      <trkpt lat="48.69322" lon="1.92652">
        <ele>163.08</ele>
        <time>2008-04-06T05:52:45Z</time>
      </trkpt>
      <trkpt lat="48.69326" lon="1.92673">
        <ele>165.48</ele>
        <time>2008-04-06T05:52:51Z</time>
      </trkpt>
      <trkpt lat="48.6933" lon="1.92683">
        <ele>165.48</ele>
        <time>2008-04-06T05:52:54Z</time>
      </trkpt>
      <trkpt lat="48.6933" lon="1.92713">
        <ele>161.16</ele>
        <time>2008-04-06T05:53:01Z</time>
      </trkpt>
      <trkpt lat="48.69331" lon="1.92722">
        <ele>160.2</ele>
        <time>2008-04-06T05:53:03Z</time>
      </trkpt>
      <trkpt lat="48.69324" lon="1.92738">
        <ele>157.79</ele>
        <time>2008-04-06T05:53:07Z</time>
      </trkpt>
      <trkpt lat="48.69322" lon="1.92747">
        <ele>155.87</ele>
        <time>2008-04-06T05:53:10Z</time>
      </trkpt>
      <trkpt lat="48.69315" lon="1.92754">
        <ele>145.3</ele>
        <time>2008-04-06T05:53:15Z</time>
      </trkpt>
      <trkpt lat="48.6931" lon="1.92767">
        <ele>139.53</ele>
        <time>2008-04-06T05:53:20Z</time>
      </trkpt>
      <trkpt lat="48.69308" lon="1.92774">
        <ele>138.57</ele>
        <time>2008-04-06T05:53:23Z</time>
      </trkpt>
      <trkpt lat="48.69297" lon="1.92794">
        <ele>131.36</ele>
        <time>2008-04-06T05:53:30Z</time>
      </trkpt>
      <trkpt lat="48.69296" lon="1.92797">
        <ele>131.84</ele>
        <time>2008-04-06T05:53:31Z</time>
      </trkpt>
      <trkpt lat="48.69289" lon="1.92804">
        <ele>129.92</ele>
        <time>2008-04-06T05:53:35Z</time>
      </trkpt>
      <trkpt lat="48.69287" lon="1.92813">
        <ele>127.99</ele>
        <time>2008-04-06T05:53:39Z</time>
      </trkpt>
      <trkpt lat="48.69284" lon="1.92819">
        <ele>136.64</ele>
        <time>2008-04-06T05:53:42Z</time>
      </trkpt>
      <trkpt lat="48.69277" lon="1.92825">
        <ele>135.68</ele>
        <time>2008-04-06T05:53:47Z</time>
      </trkpt>
      <trkpt lat="48.69264" lon="1.92838">
        <ele>129.43</ele>
        <time>2008-04-06T05:53:54Z</time>
      </trkpt>
      <trkpt lat="48.69258" lon="1.92854">
        <ele>125.59</ele>
        <time>2008-04-06T05:53:59Z</time>
      </trkpt>
      <trkpt lat="48.69252" lon="1.92872">
        <ele>125.59</ele>
        <time>2008-04-06T05:54:04Z</time>
      </trkpt>
      <trkpt lat="48.69248" lon="1.92878">
        <ele>126.55</ele>
        <time>2008-04-06T05:54:06Z</time>
      </trkpt>
      <trkpt lat="48.69241" lon="1.92894">
        <ele>130.4</ele>
        <time>2008-04-06T05:54:11Z</time>
      </trkpt>
      <trkpt lat="48.69234" lon="1.92907">
        <ele>130.88</ele>
        <time>2008-04-06T05:54:15Z</time>
      </trkpt>
      <trkpt lat="48.69228" lon="1.92919">
        <ele>130.88</ele>
        <time>2008-04-06T05:54:18Z</time>
      </trkpt>
      <trkpt lat="48.69225" lon="1.92942">
        <ele>133.76</ele>
        <time>2008-04-06T05:54:23Z</time>
      </trkpt>
      <trkpt lat="48.69212" lon="1.92964">
        <ele>135.2</ele>
        <time>2008-04-06T05:54:30Z</time>
      </trkpt>
      <trkpt lat="48.69204" lon="1.92973">
        <ele>135.68</ele>
        <time>2008-04-06T05:54:34Z</time>
      </trkpt>
      <trkpt lat="48.69201" lon="1.92976">
        <ele>135.68</ele>
        <time>2008-04-06T05:54:35Z</time>
      </trkpt>
      <trkpt lat="48.69186" lon="1.9298">
        <ele>134.24</ele>
        <time>2008-04-06T05:54:41Z</time>
      </trkpt>
      <trkpt lat="48.6917" lon="1.92985">
        <ele>135.2</ele>
        <time>2008-04-06T05:54:47Z</time>
      </trkpt>
      <trkpt lat="48.69158" lon="1.92991">
        <ele>135.2</ele>
        <time>2008-04-06T05:54:51Z</time>
      </trkpt>
      <trkpt lat="48.69149" lon="1.92998">
        <ele>131.84</ele>
        <time>2008-04-06T05:54:55Z</time>
      </trkpt>
      <trkpt lat="48.69133" lon="1.93003">
        <ele>127.99</ele>
        <time>2008-04-06T05:55:01Z</time>
      </trkpt>
      <trkpt lat="48.69122" lon="1.93005">
        <ele>122.71</ele>
        <time>2008-04-06T05:55:05Z</time>
      </trkpt>
      <trkpt lat="48.69116" lon="1.93005">
        <ele>119.82</ele>
        <time>2008-04-06T05:55:07Z</time>
      </trkpt>
      <trkpt lat="48.69104" lon="1.93005">
        <ele>106.36</ele>
        <time>2008-04-06T05:55:12Z</time>
      </trkpt>
      <trkpt lat="48.6909" lon="1.93">
        <ele>98.19</ele>
        <time>2008-04-06T05:55:17Z</time>
      </trkpt>
      <trkpt lat="48.69078" lon="1.92994">
        <ele>88.58</ele>
        <time>2008-04-06T05:55:22Z</time>
      </trkpt>
      <trkpt lat="48.69073" lon="1.92991">
        <ele>86.66</ele>
        <time>2008-04-06T05:55:24Z</time>
      </trkpt>
      <trkpt lat="48.69063" lon="1.92993">
        <ele>93.39</ele>
        <time>2008-04-06T05:55:29Z</time>
      </trkpt>
      <trkpt lat="48.69052" lon="1.92983">
        <ele>96.27</ele>
        <time>2008-04-06T05:55:35Z</time>
      </trkpt>
      <trkpt lat="48.69049" lon="1.92981">
        <ele>108.77</ele>
        <time>2008-04-06T05:55:39Z</time>
      </trkpt>
      <trkpt lat="48.69046" lon="1.92983">
        <ele>116.94</ele>
        <time>2008-04-06T05:55:42Z</time>
      </trkpt>
      <trkpt lat="48.69035" lon="1.92982">
        <ele>125.11</ele>
        <time>2008-04-06T05:55:47Z</time>
      </trkpt>
      <trkpt lat="48.6902" lon="1.92979">
        <ele>129.43</ele>
        <time>2008-04-06T05:55:53Z</time>
      </trkpt>
      <trkpt lat="48.69017" lon="1.92979">
        <ele>131.84</ele>
        <time>2008-04-06T05:55:54Z</time>
      </trkpt>
      <trkpt lat="48.69007" lon="1.92974">
        <ele>138.09</ele>
        <time>2008-04-06T05:55:58Z</time>
      </trkpt>
      <trkpt lat="48.69001" lon="1.9297">
        <ele>138.57</ele>
        <time>2008-04-06T05:56:01Z</time>
      </trkpt>
      <trkpt lat="48.68987" lon="1.92964">
        <ele>139.05</ele>
        <time>2008-04-06T05:56:06Z</time>
      </trkpt>
      <trkpt lat="48.68976" lon="1.92958">
        <ele>145.3</ele>
        <time>2008-04-06T05:56:11Z</time>
      </trkpt>
      <trkpt lat="48.68972" lon="1.92943">
        <ele>143.85</ele>
        <time>2008-04-06T05:56:17Z</time>
      </trkpt>
      <trkpt lat="48.68978" lon="1.9293">
        <ele>144.34</ele>
        <time>2008-04-06T05:56:21Z</time>
      </trkpt>
      <trkpt lat="48.68974" lon="1.92913">
        <ele>148.66</ele>
        <time>2008-04-06T05:56:27Z</time>
      </trkpt>
      <trkpt lat="48.6897" lon="1.92904">
        <ele>147.7</ele>
        <time>2008-04-06T05:56:30Z</time>
      </trkpt>
      <trkpt lat="48.68966" lon="1.92891">
        <ele>146.74</ele>
        <time>2008-04-06T05:56:34Z</time>
      </trkpt>
      <trkpt lat="48.68953" lon="1.92867">
        <ele>148.66</ele>
        <time>2008-04-06T05:56:40Z</time>
      </trkpt>
      <trkpt lat="48.68942" lon="1.92852">
        <ele>147.7</ele>
        <time>2008-04-06T05:56:44Z</time>
      </trkpt>
      <trkpt lat="48.68924" lon="1.92842">
        <ele>147.22</ele>
        <time>2008-04-06T05:56:49Z</time>
      </trkpt>
      <trkpt lat="48.68914" lon="1.92852">
        <ele>145.78</ele>
        <time>2008-04-06T05:56:54Z</time>
      </trkpt>
      <trkpt lat="48.68911" lon="1.92862">
        <ele>144.82</ele>
        <time>2008-04-06T05:56:58Z</time>
      </trkpt>
      <trkpt lat="48.68908" lon="1.92879">
        <ele>143.37</ele>
        <time>2008-04-06T05:57:05Z</time>
      </trkpt>
      <trkpt lat="48.68908" lon="1.92881">
        <ele>142.41</ele>
        <time>2008-04-06T05:57:06Z</time>
      </trkpt>
      <trkpt lat="48.68907" lon="1.92886">
        <ele>141.93</ele>
        <time>2008-04-06T05:57:08Z</time>
      </trkpt>
      <trkpt lat="48.68905" lon="1.92897">
        <ele>141.45</ele>
        <time>2008-04-06T05:57:13Z</time>
      </trkpt>
      <trkpt lat="48.68902" lon="1.92912">
        <ele>140.97</ele>
        <time>2008-04-06T05:57:18Z</time>
      </trkpt>
      <trkpt lat="48.68903" lon="1.92923">
        <ele>140.49</ele>
        <time>2008-04-06T05:57:22Z</time>
      </trkpt>
      <trkpt lat="48.68902" lon="1.92937">
        <ele>140.01</ele>
        <time>2008-04-06T05:57:28Z</time>
      </trkpt>
      <trkpt lat="48.68901" lon="1.92944">
        <ele>140.01</ele>
        <time>2008-04-06T05:57:31Z</time>
      </trkpt>
      <trkpt lat="48.689" lon="1.92957">
        <ele>141.45</ele>
        <time>2008-04-06T05:57:37Z</time>
      </trkpt>
      <trkpt lat="48.689" lon="1.92965">
        <ele>139.05</ele>
        <time>2008-04-06T05:57:41Z</time>
      </trkpt>
      <trkpt lat="48.68902" lon="1.92975">
        <ele>143.37</ele>
        <time>2008-04-06T05:57:47Z</time>
      </trkpt>
      <trkpt lat="48.68901" lon="1.92983">
        <ele>145.78</ele>
        <time>2008-04-06T05:57:52Z</time>
      </trkpt>
      <trkpt lat="48.68904" lon="1.9299">
        <ele>147.22</ele>
        <time>2008-04-06T05:57:56Z</time>
      </trkpt>
      <trkpt lat="48.68905" lon="1.92994">
        <ele>147.7</ele>
        <time>2008-04-06T05:57:59Z</time>
      </trkpt>
      <trkpt lat="48.68907" lon="1.93004">
        <ele>152.99</ele>
        <time>2008-04-06T05:58:05Z</time>
      </trkpt>
      <trkpt lat="48.68905" lon="1.93012">
        <ele>153.47</ele>
        <time>2008-04-06T05:58:09Z</time>
      </trkpt>
      <trkpt lat="48.68905" lon="1.93022">
        <ele>155.87</ele>
        <time>2008-04-06T05:58:14Z</time>
      </trkpt>
      <trkpt lat="48.68903" lon="1.93032">
        <ele>155.87</ele>
        <time>2008-04-06T05:58:19Z</time>
      </trkpt>
      <trkpt lat="48.68902" lon="1.93038">
        <ele>155.87</ele>
        <time>2008-04-06T05:58:22Z</time>
      </trkpt>
      <trkpt lat="48.68902" lon="1.93044">
        <ele>157.31</ele>
        <time>2008-04-06T05:58:26Z</time>
      </trkpt>
      <trkpt lat="48.68894" lon="1.93054">
        <ele>155.39</ele>
        <time>2008-04-06T05:58:33Z</time>
      </trkpt>
      <trkpt lat="48.68893" lon="1.93055">
        <ele>153.95</ele>
        <time>2008-04-06T05:58:34Z</time>
      </trkpt>
      <trkpt lat="48.68883" lon="1.93063">
        <ele>151.06</ele>
        <time>2008-04-06T05:58:41Z</time>
      </trkpt>
      <trkpt lat="48.68882" lon="1.93064">
        <ele>151.54</ele>
        <time>2008-04-06T05:58:42Z</time>
      </trkpt>
      <trkpt lat="48.68866" lon="1.93073">
        <ele>148.18</ele>
        <time>2008-04-06T05:58:49Z</time>
      </trkpt>
      <trkpt lat="48.68855" lon="1.93082">
        <ele>146.26</ele>
        <time>2008-04-06T05:58:54Z</time>
      </trkpt>
      <trkpt lat="48.68848" lon="1.93092">
        <ele>146.74</ele>
        <time>2008-04-06T05:58:58Z</time>
      </trkpt>
      <trkpt lat="48.68839" lon="1.931">
        <ele>147.22</ele>
        <time>2008-04-06T05:59:02Z</time>
      </trkpt>
      <trkpt lat="48.68827" lon="1.93115">
        <ele>143.37</ele>
        <time>2008-04-06T05:59:08Z</time>
      </trkpt>
      <trkpt lat="48.68817" lon="1.93141">
        <ele>147.22</ele>
        <time>2008-04-06T05:59:15Z</time>
      </trkpt>
      <trkpt lat="48.6881" lon="1.93163">
        <ele>148.66</ele>
        <time>2008-04-06T05:59:20Z</time>
      </trkpt>
      <trkpt lat="48.68805" lon="1.93181">
        <ele>147.22</ele>
        <time>2008-04-06T05:59:25Z</time>
      </trkpt>
      <trkpt lat="48.68801" lon="1.93203">
        <ele>147.7</ele>
        <time>2008-04-06T05:59:30Z</time>
      </trkpt>
      <trkpt lat="48.688" lon="1.93222">
        <ele>149.14</ele>
        <time>2008-04-06T05:59:34Z</time>
      </trkpt>
      <trkpt lat="48.68802" lon="1.93242">
        <ele>151.06</ele>
        <time>2008-04-06T05:59:39Z</time>
      </trkpt>
      <trkpt lat="48.688" lon="1.93269">
        <ele>153.95</ele>
        <time>2008-04-06T05:59:45Z</time>
      </trkpt>
      <trkpt lat="48.68798" lon="1.93288">
        <ele>155.39</ele>
        <time>2008-04-06T05:59:50Z</time>
      </trkpt>
      <trkpt lat="48.68798" lon="1.93291">
        <ele>154.91</ele>
        <time>2008-04-06T05:59:51Z</time>
      </trkpt>
      <trkpt lat="48.688" lon="1.93306">
        <ele>152.51</ele>
        <time>2008-04-06T05:59:55Z</time>
      </trkpt>
      <trkpt lat="48.68798" lon="1.93312">
        <ele>150.1</ele>
        <time>2008-04-06T05:59:57Z</time>
      </trkpt>
      <trkpt lat="48.6879" lon="1.93324">
        <ele>142.41</ele>
        <time>2008-04-06T06:00:03Z</time>
      </trkpt>
      <trkpt lat="48.68783" lon="1.9333">
        <ele>141.93</ele>
        <time>2008-04-06T06:00:07Z</time>
      </trkpt>
      <trkpt lat="48.68784" lon="1.93333">
        <ele>140.01</ele>
        <time>2008-04-06T06:00:09Z</time>
      </trkpt>
      <trkpt lat="48.68778" lon="1.93341">
        <ele>134.72</ele>
        <time>2008-04-06T06:00:14Z</time>
      </trkpt>
      <trkpt lat="48.68767" lon="1.93347">
        <ele>128.47</ele>
        <time>2008-04-06T06:00:20Z</time>
      </trkpt>
      <trkpt lat="48.68762" lon="1.93352">
        <ele>128.95</ele>
        <time>2008-04-06T06:00:22Z</time>
      </trkpt>
      <trkpt lat="48.68755" lon="1.93361">
        <ele>127.51</ele>
        <time>2008-04-06T06:00:27Z</time>
      </trkpt>
      <trkpt lat="48.68754" lon="1.93366">
        <ele>128.95</ele>
        <time>2008-04-06T06:00:32Z</time>
      </trkpt>
      <trkpt lat="48.6875" lon="1.93374">
        <ele>131.36</ele>
        <time>2008-04-06T06:00:37Z</time>
      </trkpt>
      <trkpt lat="48.68749" lon="1.93377">
        <ele>131.36</ele>
        <time>2008-04-06T06:00:38Z</time>
      </trkpt>
      <trkpt lat="48.68749" lon="1.9339">
        <ele>134.72</ele>
        <time>2008-04-06T06:00:44Z</time>
      </trkpt>
      <trkpt lat="48.6875" lon="1.93401">
        <ele>142.41</ele>
        <time>2008-04-06T06:00:51Z</time>
      </trkpt>
      <trkpt lat="48.68751" lon="1.93406">
        <ele>144.82</ele>
        <time>2008-04-06T06:00:54Z</time>
      </trkpt>
      <trkpt lat="48.6875" lon="1.93418">
        <ele>149.62</ele>
        <time>2008-04-06T06:00:59Z</time>
      </trkpt>
      <trkpt lat="48.68745" lon="1.93424">
        <ele>148.66</ele>
        <time>2008-04-06T06:01:03Z</time>
      </trkpt>
      <trkpt lat="48.6874" lon="1.93431">
        <ele>146.26</ele>
        <time>2008-04-06T06:01:08Z</time>
      </trkpt>
      <trkpt lat="48.68734" lon="1.93438">
        <ele>145.3</ele>
        <time>2008-04-06T06:01:12Z</time>
      </trkpt>
      <trkpt lat="48.68723" lon="1.93445">
        <ele>144.34</ele>
        <time>2008-04-06T06:01:16Z</time>
      </trkpt>
      <trkpt lat="48.68715" lon="1.93458">
        <ele>140.97</ele>
        <time>2008-04-06T06:01:21Z</time>
      </trkpt>
      <trkpt lat="48.68712" lon="1.93459">
        <ele>140.01</ele>
        <time>2008-04-06T06:01:22Z</time>
      </trkpt>
      <trkpt lat="48.68701" lon="1.93463">
        <ele>138.09</ele>
        <time>2008-04-06T06:01:27Z</time>
      </trkpt>
      <trkpt lat="48.68696" lon="1.93463">
        <ele>141.45</ele>
        <time>2008-04-06T06:01:29Z</time>
      </trkpt>
      <trkpt lat="48.68687" lon="1.93473">
        <ele>135.68</ele>
        <time>2008-04-06T06:01:34Z</time>
      </trkpt>
      <trkpt lat="48.68686" lon="1.93489">
        <ele>131.36</ele>
        <time>2008-04-06T06:01:39Z</time>
      </trkpt>
      <trkpt lat="48.68687" lon="1.93492">
        <ele>130.88</ele>
        <time>2008-04-06T06:01:40Z</time>
      </trkpt>
      <trkpt lat="48.68694" lon="1.93508">
        <ele>133.76</ele>
        <time>2008-04-06T06:01:46Z</time>
      </trkpt>
      <trkpt lat="48.68699" lon="1.93513">
        <ele>137.61</ele>
        <time>2008-04-06T06:01:49Z</time>
      </trkpt>
      <trkpt lat="48.68701" lon="1.93524">
        <ele>139.53</ele>
        <time>2008-04-06T06:01:53Z</time>
      </trkpt>
      <trkpt lat="48.68698" lon="1.93546">
        <ele>140.01</ele>
        <time>2008-04-06T06:01:59Z</time>
      </trkpt>
      <trkpt lat="48.68697" lon="1.93562">
        <ele>142.41</ele>
        <time>2008-04-06T06:02:04Z</time>
      </trkpt>
      <trkpt lat="48.68697" lon="1.93565">
        <ele>142.89</ele>
        <time>2008-04-06T06:02:05Z</time>
      </trkpt>
      <trkpt lat="48.68699" lon="1.93582">
        <ele>146.74</ele>
        <time>2008-04-06T06:02:10Z</time>
      </trkpt>
      <trkpt lat="48.68698" lon="1.9359">
        <ele>144.82</ele>
        <time>2008-04-06T06:02:12Z</time>
      </trkpt>
      <trkpt lat="48.68702" lon="1.93605">
        <ele>143.85</ele>
        <time>2008-04-06T06:02:17Z</time>
      </trkpt>
      <trkpt lat="48.68702" lon="1.93612">
        <ele>141.93</ele>
        <time>2008-04-06T06:02:20Z</time>
      </trkpt>
      <trkpt lat="48.68705" lon="1.93619">
        <ele>142.89</ele>
        <time>2008-04-06T06:02:24Z</time>
      </trkpt>
      <trkpt lat="48.68707" lon="1.9363">
        <ele>143.37</ele>
        <time>2008-04-06T06:02:29Z</time>
      </trkpt>
      <trkpt lat="48.68706" lon="1.93634">
        <ele>144.82</ele>
        <time>2008-04-06T06:02:31Z</time>
      </trkpt>
      <trkpt lat="48.6871" lon="1.93646">
        <ele>140.49</ele>
        <time>2008-04-06T06:02:37Z</time>
      </trkpt>
      <trkpt lat="48.68716" lon="1.93662">
        <ele>135.68</ele>
        <time>2008-04-06T06:02:43Z</time>
      </trkpt>
      <trkpt lat="48.68719" lon="1.93671">
        <ele>135.2</ele>
        <time>2008-04-06T06:02:46Z</time>
      </trkpt>
      <trkpt lat="48.68715" lon="1.93677">
        <ele>132.32</ele>
        <time>2008-04-06T06:02:50Z</time>
      </trkpt>
      <trkpt lat="48.68708" lon="1.93682">
        <ele>132.8</ele>
        <time>2008-04-06T06:02:56Z</time>
      </trkpt>
      <trkpt lat="48.68706" lon="1.93684">
        <ele>130.88</ele>
        <time>2008-04-06T06:02:58Z</time>
      </trkpt>
      <trkpt lat="48.68702" lon="1.93694">
        <ele>130.88</ele>
        <time>2008-04-06T06:03:07Z</time>
      </trkpt>
      <trkpt lat="48.68701" lon="1.937">
        <ele>134.24</ele>
        <time>2008-04-06T06:03:13Z</time>
      </trkpt>
      <trkpt lat="48.68697" lon="1.9371">
        <ele>133.28</ele>
        <time>2008-04-06T06:03:20Z</time>
      </trkpt>
      <trkpt lat="48.68691" lon="1.93722">
        <ele>132.8</ele>
        <time>2008-04-06T06:03:26Z</time>
      </trkpt>
      <trkpt lat="48.68689" lon="1.93733">
        <ele>136.16</ele>
        <time>2008-04-06T06:03:31Z</time>
      </trkpt>
      <trkpt lat="48.68685" lon="1.93754">
        <ele>140.49</ele>
        <time>2008-04-06T06:03:36Z</time>
      </trkpt>
      <trkpt lat="48.68684" lon="1.93758">
        <ele>140.97</ele>
        <time>2008-04-06T06:03:37Z</time>
      </trkpt>
      <trkpt lat="48.68681" lon="1.93786">
        <ele>144.82</ele>
        <time>2008-04-06T06:03:43Z</time>
      </trkpt>
      <trkpt lat="48.68681" lon="1.9379">
        <ele>145.3</ele>
        <time>2008-04-06T06:03:44Z</time>
      </trkpt>
      <trkpt lat="48.68674" lon="1.93799">
        <ele>145.78</ele>
        <time>2008-04-06T06:03:49Z</time>
      </trkpt>
      <trkpt lat="48.68672" lon="1.93806">
        <ele>146.74</ele>
        <time>2008-04-06T06:03:52Z</time>
      </trkpt>
      <trkpt lat="48.6867" lon="1.93817">
        <ele>146.74</ele>
        <time>2008-04-06T06:03:55Z</time>
      </trkpt>
      <trkpt lat="48.6866" lon="1.93824">
        <ele>143.37</ele>
        <time>2008-04-06T06:04:00Z</time>
      </trkpt>
      <trkpt lat="48.6865" lon="1.93826">
        <ele>140.01</ele>
        <time>2008-04-06T06:04:04Z</time>
      </trkpt>
      <trkpt lat="48.68642" lon="1.93828">
        <ele>137.13</ele>
        <time>2008-04-06T06:04:08Z</time>
      </trkpt>
      <trkpt lat="48.68634" lon="1.93831">
        <ele>141.93</ele>
        <time>2008-04-06T06:04:12Z</time>
      </trkpt>
      <trkpt lat="48.68625" lon="1.93835">
        <ele>139.53</ele>
        <time>2008-04-06T06:04:17Z</time>
      </trkpt>
      <trkpt lat="48.6862" lon="1.93838">
        <ele>140.49</ele>
        <time>2008-04-06T06:04:21Z</time>
      </trkpt>
      <trkpt lat="48.68618" lon="1.93852">
        <ele>144.34</ele>
        <time>2008-04-06T06:04:28Z</time>
      </trkpt>
      <trkpt lat="48.68618" lon="1.93855">
        <ele>145.3</ele>
        <time>2008-04-06T06:04:30Z</time>
      </trkpt>
      <trkpt lat="48.68619" lon="1.93862">
        <ele>147.7</ele>
        <time>2008-04-06T06:04:34Z</time>
      </trkpt>
      <trkpt lat="48.68621" lon="1.93866">
        <ele>148.18</ele>
        <time>2008-04-06T06:04:37Z</time>
      </trkpt>
      <trkpt lat="48.68622" lon="1.9387">
        <ele>150.1</ele>
        <time>2008-04-06T06:04:39Z</time>
      </trkpt>
      <trkpt lat="48.68623" lon="1.9388">
        <ele>152.51</ele>
        <time>2008-04-06T06:04:45Z</time>
      </trkpt>
      <trkpt lat="48.68621" lon="1.93888">
        <ele>150.58</ele>
        <time>2008-04-06T06:04:48Z</time>
      </trkpt>
      <trkpt lat="48.6862" lon="1.9391">
        <ele>150.1</ele>
        <time>2008-04-06T06:04:54Z</time>
      </trkpt>
      <trkpt lat="48.68623" lon="1.93926">
        <ele>148.66</ele>
        <time>2008-04-06T06:04:59Z</time>
      </trkpt>
      <trkpt lat="48.68623" lon="1.93929">
        <ele>147.7</ele>
        <time>2008-04-06T06:05:00Z</time>
      </trkpt>
      <trkpt lat="48.68623" lon="1.93947">
        <ele>144.82</ele>
        <time>2008-04-06T06:05:06Z</time>
      </trkpt>
      <trkpt lat="48.68622" lon="1.93956">
        <ele>141.93</ele>
        <time>2008-04-06T06:05:11Z</time>
      </trkpt>
      <trkpt lat="48.68616" lon="1.93964">
        <ele>138.09</ele>
        <time>2008-04-06T06:05:15Z</time>
      </trkpt>
      <trkpt lat="48.68613" lon="1.93982">
        <ele>134.72</ele>
        <time>2008-04-06T06:05:20Z</time>
      </trkpt>
      <trkpt lat="48.6861" lon="1.93999">
        <ele>133.28</ele>
        <time>2008-04-06T06:05:24Z</time>
      </trkpt>
      <trkpt lat="48.68603" lon="1.94009">
        <ele>131.36</ele>
        <time>2008-04-06T06:05:28Z</time>
      </trkpt>
      <trkpt lat="48.68595" lon="1.94023">
        <ele>124.63</ele>
        <time>2008-04-06T06:05:34Z</time>
      </trkpt>
      <trkpt lat="48.68591" lon="1.9403">
        <ele>122.22</ele>
        <time>2008-04-06T06:05:37Z</time>
      </trkpt>
      <trkpt lat="48.68581" lon="1.94038">
        <ele>118.38</ele>
        <time>2008-04-06T06:05:41Z</time>
      </trkpt>
      <trkpt lat="48.68573" lon="1.94042">
        <ele>121.26</ele>
        <time>2008-04-06T06:05:45Z</time>
      </trkpt>
      <trkpt lat="48.68556" lon="1.94056">
        <ele>117.9</ele>
        <time>2008-04-06T06:05:53Z</time>
      </trkpt>
      <trkpt lat="48.68547" lon="1.9407">
        <ele>115.5</ele>
        <time>2008-04-06T06:05:57Z</time>
      </trkpt>
      <trkpt lat="48.68539" lon="1.94076">
        <ele>119.34</ele>
        <time>2008-04-06T06:06:01Z</time>
      </trkpt>
      <trkpt lat="48.6853" lon="1.94092">
        <ele>117.9</ele>
        <time>2008-04-06T06:06:07Z</time>
      </trkpt>
      <trkpt lat="48.68525" lon="1.94103">
        <ele>117.9</ele>
        <time>2008-04-06T06:06:10Z</time>
      </trkpt>
      <trkpt lat="48.68517" lon="1.94115">
        <ele>114.05</ele>
        <time>2008-04-06T06:06:15Z</time>
      </trkpt>
      <trkpt lat="48.68515" lon="1.94133">
        <ele>112.61</ele>
        <time>2008-04-06T06:06:20Z</time>
      </trkpt>
      <trkpt lat="48.6851" lon="1.94145">
        <ele>110.69</ele>
        <time>2008-04-06T06:06:25Z</time>
      </trkpt>
      <trkpt lat="48.68509" lon="1.94147">
        <ele>110.21</ele>
        <time>2008-04-06T06:06:26Z</time>
      </trkpt>
      <trkpt lat="48.68505" lon="1.94157">
        <ele>110.21</ele>
        <time>2008-04-06T06:06:31Z</time>
      </trkpt>
      <trkpt lat="48.68499" lon="1.94161">
        <ele>109.25</ele>
        <time>2008-04-06T06:06:35Z</time>
      </trkpt>
      <trkpt lat="48.68491" lon="1.94174">
        <ele>106.84</ele>
        <time>2008-04-06T06:06:42Z</time>
      </trkpt>
      <trkpt lat="48.68491" lon="1.94185">
        <ele>104.44</ele>
        <time>2008-04-06T06:06:46Z</time>
      </trkpt>
      <trkpt lat="48.68479" lon="1.94195">
        <ele>105.4</ele>
        <time>2008-04-06T06:06:50Z</time>
      </trkpt>
      <trkpt lat="48.68476" lon="1.94198">
        <ele>105.4</ele>
        <time>2008-04-06T06:06:51Z</time>
      </trkpt>
      <trkpt lat="48.68464" lon="1.94212">
        <ele>107.81</ele>
        <time>2008-04-06T06:06:56Z</time>
      </trkpt>
      <trkpt lat="48.68461" lon="1.94215">
        <ele>107.81</ele>
        <time>2008-04-06T06:06:57Z</time>
      </trkpt>
      <trkpt lat="48.68453" lon="1.94234">
        <ele>111.17</ele>
        <time>2008-04-06T06:07:02Z</time>
      </trkpt>
      <trkpt lat="48.68448" lon="1.94252">
        <ele>115.98</ele>
        <time>2008-04-06T06:07:07Z</time>
      </trkpt>
      <trkpt lat="48.68449" lon="1.94262">
        <ele>117.42</ele>
        <time>2008-04-06T06:07:11Z</time>
      </trkpt>
      <trkpt lat="48.68446" lon="1.94272">
        <ele>118.38</ele>
        <time>2008-04-06T06:07:15Z</time>
      </trkpt>
      <trkpt lat="48.68443" lon="1.94283">
        <ele>117.42</ele>
        <time>2008-04-06T06:07:18Z</time>
      </trkpt>
      <trkpt lat="48.68441" lon="1.94303">
        <ele>120.3</ele>
        <time>2008-04-06T06:07:24Z</time>
      </trkpt>
      <trkpt lat="48.68438" lon="1.94317">
        <ele>121.74</ele>
        <time>2008-04-06T06:07:28Z</time>
      </trkpt>
      <trkpt lat="48.68433" lon="1.94327">
        <ele>119.82</ele>
        <time>2008-04-06T06:07:32Z</time>
      </trkpt>
      <trkpt lat="48.68432" lon="1.94329">
        <ele>119.82</ele>
        <time>2008-04-06T06:07:33Z</time>
      </trkpt>
      <trkpt lat="48.68429" lon="1.94335">
        <ele>119.34</ele>
        <time>2008-04-06T06:07:36Z</time>
      </trkpt>
      <trkpt lat="48.68419" lon="1.94345">
        <ele>121.74</ele>
        <time>2008-04-06T06:07:42Z</time>
      </trkpt>
      <trkpt lat="48.68413" lon="1.94346">
        <ele>122.22</ele>
        <time>2008-04-06T06:07:45Z</time>
      </trkpt>
      <trkpt lat="48.684" lon="1.94351">
        <ele>114.53</ele>
        <time>2008-04-06T06:07:52Z</time>
      </trkpt>
      <trkpt lat="48.68391" lon="1.94358">
        <ele>111.65</ele>
        <time>2008-04-06T06:07:56Z</time>
      </trkpt>
      <trkpt lat="48.68385" lon="1.94377">
        <ele>110.69</ele>
        <time>2008-04-06T06:08:03Z</time>
      </trkpt>
      <trkpt lat="48.68384" lon="1.94385">
        <ele>110.69</ele>
        <time>2008-04-06T06:08:07Z</time>
      </trkpt>
      <trkpt lat="48.68383" lon="1.94395">
        <ele>115.01</ele>
        <time>2008-04-06T06:08:12Z</time>
      </trkpt>
      <trkpt lat="48.68377" lon="1.94406">
        <ele>123.67</ele>
        <time>2008-04-06T06:08:20Z</time>
      </trkpt>
      <trkpt lat="48.68373" lon="1.94409">
        <ele>122.22</ele>
        <time>2008-04-06T06:08:23Z</time>
      </trkpt>
      <trkpt lat="48.68366" lon="1.94422">
        <ele>122.71</ele>
        <time>2008-04-06T06:08:31Z</time>
      </trkpt>
      <trkpt lat="48.68365" lon="1.94431">
        <ele>126.55</ele>
        <time>2008-04-06T06:08:36Z</time>
      </trkpt>
      <trkpt lat="48.68364" lon="1.94436">
        <ele>126.55</ele>
        <time>2008-04-06T06:08:40Z</time>
      </trkpt>
      <trkpt lat="48.68361" lon="1.94448">
        <ele>125.59</ele>
        <time>2008-04-06T06:08:45Z</time>
      </trkpt>
      <trkpt lat="48.68358" lon="1.94456">
        <ele>124.15</ele>
        <time>2008-04-06T06:08:49Z</time>
      </trkpt>
      <trkpt lat="48.68355" lon="1.94469">
        <ele>124.15</ele>
        <time>2008-04-06T06:08:56Z</time>
      </trkpt>
      <trkpt lat="48.68351" lon="1.94476">
        <ele>123.19</ele>
        <time>2008-04-06T06:09:01Z</time>
      </trkpt>
      <trkpt lat="48.68349" lon="1.94478">
        <ele>124.63</ele>
        <time>2008-04-06T06:09:03Z</time>
      </trkpt>
      <trkpt lat="48.68346" lon="1.94482">
        <ele>124.63</ele>
        <time>2008-04-06T06:09:06Z</time>
      </trkpt>
      <trkpt lat="48.6834" lon="1.94485">
        <ele>124.63</ele>
        <time>2008-04-06T06:09:12Z</time>
      </trkpt>
      <trkpt lat="48.68335" lon="1.94489">
        <ele>128.95</ele>
        <time>2008-04-06T06:09:21Z</time>
      </trkpt>
      <trkpt lat="48.68332" lon="1.94489">
        <ele>132.32</ele>
        <time>2008-04-06T06:09:26Z</time>
      </trkpt>
      <trkpt lat="48.68329" lon="1.9449">
        <ele>136.16</ele>
        <time>2008-04-06T06:09:31Z</time>
      </trkpt>
      <trkpt lat="48.68325" lon="1.94495">
        <ele>140.97</ele>
        <time>2008-04-06T06:09:39Z</time>
      </trkpt>
      <trkpt lat="48.68323" lon="1.94497">
        <ele>143.85</ele>
        <time>2008-04-06T06:09:44Z</time>
      </trkpt>
      <trkpt lat="48.6832" lon="1.945">
        <ele>148.18</ele>
        <time>2008-04-06T06:09:50Z</time>
      </trkpt>
      <trkpt lat="48.68316" lon="1.94505">
        <ele>150.58</ele>
        <time>2008-04-06T06:09:55Z</time>
      </trkpt>
      <trkpt lat="48.68316" lon="1.94511">
        <ele>151.54</ele>
        <time>2008-04-06T06:09:58Z</time>
      </trkpt>
      <trkpt lat="48.68309" lon="1.94527">
        <ele>151.06</ele>
        <time>2008-04-06T06:10:03Z</time>
      </trkpt>
      <trkpt lat="48.68306" lon="1.94545">
        <ele>150.58</ele>
        <time>2008-04-06T06:10:08Z</time>
      </trkpt>
      <trkpt lat="48.68306" lon="1.94561">
        <ele>149.14</ele>
        <time>2008-04-06T06:10:13Z</time>
      </trkpt>
      <trkpt lat="48.68312" lon="1.94568">
        <ele>152.99</ele>
        <time>2008-04-06T06:10:18Z</time>
      </trkpt>
      <trkpt lat="48.68314" lon="1.94575">
        <ele>152.03</ele>
        <time>2008-04-06T06:10:23Z</time>
      </trkpt>
      <trkpt lat="48.68316" lon="1.94579">
        <ele>151.06</ele>
        <time>2008-04-06T06:10:26Z</time>
      </trkpt>
      <trkpt lat="48.6832" lon="1.94582">
        <ele>148.66</ele>
        <time>2008-04-06T06:10:29Z</time>
      </trkpt>
      <trkpt lat="48.68327" lon="1.94587">
        <ele>147.22</ele>
        <time>2008-04-06T06:10:35Z</time>
      </trkpt>
      <trkpt lat="48.68335" lon="1.94594">
        <ele>144.34</ele>
        <time>2008-04-06T06:10:41Z</time>
      </trkpt>
      <trkpt lat="48.68335" lon="1.94598">
        <ele>144.34</ele>
        <time>2008-04-06T06:10:45Z</time>
      </trkpt>
      <trkpt lat="48.68339" lon="1.94608">
        <ele>140.97</ele>
        <time>2008-04-06T06:10:50Z</time>
      </trkpt>
      <trkpt lat="48.68342" lon="1.94619">
        <ele>141.93</ele>
        <time>2008-04-06T06:10:55Z</time>
      </trkpt>
      <trkpt lat="48.68341" lon="1.94622">
        <ele>142.41</ele>
        <time>2008-04-06T06:10:57Z</time>
      </trkpt>
      <trkpt lat="48.68344" lon="1.94629">
        <ele>142.41</ele>
        <time>2008-04-06T06:11:03Z</time>
      </trkpt>
      <trkpt lat="48.68345" lon="1.94631">
        <ele>142.41</ele>
        <time>2008-04-06T06:11:04Z</time>
      </trkpt>
      <trkpt lat="48.68346" lon="1.94633">
        <ele>142.41</ele>
        <time>2008-04-06T06:11:06Z</time>
      </trkpt>
      <trkpt lat="48.6835" lon="1.94644">
        <ele>140.97</ele>
        <time>2008-04-06T06:11:12Z</time>
      </trkpt>
      <trkpt lat="48.6835" lon="1.94647">
        <ele>141.45</ele>
        <time>2008-04-06T06:11:14Z</time>
      </trkpt>
      <trkpt lat="48.68351" lon="1.94654">
        <ele>141.93</ele>
        <time>2008-04-06T06:11:18Z</time>
      </trkpt>
      <trkpt lat="48.68349" lon="1.94665">
        <ele>140.97</ele>
        <time>2008-04-06T06:11:24Z</time>
      </trkpt>
      <trkpt lat="48.68348" lon="1.94668">
        <ele>140.01</ele>
        <time>2008-04-06T06:11:25Z</time>
      </trkpt>
      <trkpt lat="48.6835" lon="1.94683">
        <ele>140.01</ele>
        <time>2008-04-06T06:11:33Z</time>
      </trkpt>
      <trkpt lat="48.68354" lon="1.94687">
        <ele>143.37</ele>
        <time>2008-04-06T06:11:39Z</time>
      </trkpt>
      <trkpt lat="48.68356" lon="1.94689">
        <ele>144.82</ele>
        <time>2008-04-06T06:11:41Z</time>
      </trkpt>
      <trkpt lat="48.68356" lon="1.94694">
        <ele>145.3</ele>
        <time>2008-04-06T06:11:44Z</time>
      </trkpt>
      <trkpt lat="48.68357" lon="1.94702">
        <ele>149.14</ele>
        <time>2008-04-06T06:11:48Z</time>
      </trkpt>
      <trkpt lat="48.68361" lon="1.9471">
        <ele>150.58</ele>
        <time>2008-04-06T06:11:54Z</time>
      </trkpt>
      <trkpt lat="48.68361" lon="1.94711">
        <ele>151.06</ele>
        <time>2008-04-06T06:11:55Z</time>
      </trkpt>
      <trkpt lat="48.68358" lon="1.94736">
        <ele>151.54</ele>
        <time>2008-04-06T06:12:02Z</time>
      </trkpt>
      <trkpt lat="48.68357" lon="1.9474">
        <ele>152.99</ele>
        <time>2008-04-06T06:12:03Z</time>
      </trkpt>
      <trkpt lat="48.68349" lon="1.94764">
        <ele>155.39</ele>
        <time>2008-04-06T06:12:09Z</time>
      </trkpt>
      <trkpt lat="48.68347" lon="1.94769">
        <ele>156.83</ele>
        <time>2008-04-06T06:12:10Z</time>
      </trkpt>
      <trkpt lat="48.68339" lon="1.94792">
        <ele>158.27</ele>
        <time>2008-04-06T06:12:16Z</time>
      </trkpt>
      <trkpt lat="48.68332" lon="1.94812">
        <ele>160.2</ele>
        <time>2008-04-06T06:12:21Z</time>
      </trkpt>
      <trkpt lat="48.6833" lon="1.94826">
        <ele>160.68</ele>
        <time>2008-04-06T06:12:25Z</time>
      </trkpt>
      <trkpt lat="48.68336" lon="1.94831">
        <ele>159.72</ele>
        <time>2008-04-06T06:12:29Z</time>
      </trkpt>
      <trkpt lat="48.68349" lon="1.94843">
        <ele>161.16</ele>
        <time>2008-04-06T06:12:35Z</time>
      </trkpt>
      <trkpt lat="48.68356" lon="1.94849">
        <ele>161.16</ele>
        <time>2008-04-06T06:12:38Z</time>
      </trkpt>
      <trkpt lat="48.68366" lon="1.94859">
        <ele>161.64</ele>
        <time>2008-04-06T06:12:43Z</time>
      </trkpt>
      <trkpt lat="48.68374" lon="1.94864">
        <ele>163.08</ele>
        <time>2008-04-06T06:12:47Z</time>
      </trkpt>
      <trkpt lat="48.68383" lon="1.94862">
        <ele>165</ele>
        <time>2008-04-06T06:12:50Z</time>
      </trkpt>
      <trkpt lat="48.68395" lon="1.94863">
        <ele>165</ele>
        <time>2008-04-06T06:12:54Z</time>
      </trkpt>
      <trkpt lat="48.68408" lon="1.94855">
        <ele>166.93</ele>
        <time>2008-04-06T06:13:00Z</time>
      </trkpt>
      <trkpt lat="48.6842" lon="1.94851">
        <ele>166.93</ele>
        <time>2008-04-06T06:13:05Z</time>
      </trkpt>
      <trkpt lat="48.68431" lon="1.94847">
        <ele>166.45</ele>
        <time>2008-04-06T06:13:10Z</time>
      </trkpt>
      <trkpt lat="48.68436" lon="1.94847">
        <ele>166.45</ele>
        <time>2008-04-06T06:13:12Z</time>
      </trkpt>
      <trkpt lat="48.68447" lon="1.94858">
        <ele>164.04</ele>
        <time>2008-04-06T06:13:18Z</time>
      </trkpt>
      <trkpt lat="48.68448" lon="1.9487">
        <ele>157.31</ele>
        <time>2008-04-06T06:13:24Z</time>
      </trkpt>
      <trkpt lat="48.68448" lon="1.94874">
        <ele>156.35</ele>
        <time>2008-04-06T06:13:26Z</time>
      </trkpt>
      <trkpt lat="48.68449" lon="1.94876">
        <ele>155.39</ele>
        <time>2008-04-06T06:13:28Z</time>
      </trkpt>
      <trkpt lat="48.68449" lon="1.94882">
        <ele>152.99</ele>
        <time>2008-04-06T06:13:31Z</time>
      </trkpt>
      <trkpt lat="48.68451" lon="1.94893">
        <ele>150.1</ele>
        <time>2008-04-06T06:13:35Z</time>
      </trkpt>
      <trkpt lat="48.68457" lon="1.94917">
        <ele>145.3</ele>
        <time>2008-04-06T06:13:41Z</time>
      </trkpt>
      <trkpt lat="48.68456" lon="1.9493">
        <ele>143.85</ele>
        <time>2008-04-06T06:13:44Z</time>
      </trkpt>
      <trkpt lat="48.68452" lon="1.94945">
        <ele>144.82</ele>
        <time>2008-04-06T06:13:50Z</time>
      </trkpt>
      <trkpt lat="48.68446" lon="1.94957">
        <ele>146.26</ele>
        <time>2008-04-06T06:13:59Z</time>
      </trkpt>
      <trkpt lat="48.68442" lon="1.94963">
        <ele>145.78</ele>
        <time>2008-04-06T06:14:05Z</time>
      </trkpt>
      <trkpt lat="48.68439" lon="1.9497">
        <ele>146.26</ele>
        <time>2008-04-06T06:14:10Z</time>
      </trkpt>
      <trkpt lat="48.68433" lon="1.94983">
        <ele>149.62</ele>
        <time>2008-04-06T06:14:18Z</time>
      </trkpt>
      <trkpt lat="48.68431" lon="1.94987">
        <ele>148.66</ele>
        <time>2008-04-06T06:14:20Z</time>
      </trkpt>
      <trkpt lat="48.68424" lon="1.95002">
        <ele>153.47</ele>
        <time>2008-04-06T06:14:26Z</time>
      </trkpt>
      <trkpt lat="48.68423" lon="1.95006">
        <ele>154.91</ele>
        <time>2008-04-06T06:14:27Z</time>
      </trkpt>
      <trkpt lat="48.68422" lon="1.95024">
        <ele>155.87</ele>
        <time>2008-04-06T06:14:32Z</time>
      </trkpt>
      <trkpt lat="48.68422" lon="1.95027">
        <ele>156.35</ele>
        <time>2008-04-06T06:14:33Z</time>
      </trkpt>
      <trkpt lat="48.68422" lon="1.95036">
        <ele>156.35</ele>
        <time>2008-04-06T06:14:35Z</time>
      </trkpt>
      <trkpt lat="48.68417" lon="1.95054">
        <ele>158.27</ele>
        <time>2008-04-06T06:14:42Z</time>
      </trkpt>
      <trkpt lat="48.68414" lon="1.95064">
        <ele>159.24</ele>
        <time>2008-04-06T06:14:45Z</time>
      </trkpt>
      <trkpt lat="48.68409" lon="1.95083">
        <ele>161.16</ele>
        <time>2008-04-06T06:14:50Z</time>
      </trkpt>
      <trkpt lat="48.68408" lon="1.95096">
        <ele>159.72</ele>
        <time>2008-04-06T06:14:54Z</time>
      </trkpt>
      <trkpt lat="48.68408" lon="1.9511">
        <ele>157.79</ele>
        <time>2008-04-06T06:14:58Z</time>
      </trkpt>
      <trkpt lat="48.68414" lon="1.95128">
        <ele>157.31</ele>
        <time>2008-04-06T06:15:04Z</time>
      </trkpt>
      <trkpt lat="48.68417" lon="1.95143">
        <ele>159.24</ele>
        <time>2008-04-06T06:15:08Z</time>
      </trkpt>
      <trkpt lat="48.68425" lon="1.95162">
        <ele>161.16</ele>
        <time>2008-04-06T06:15:13Z</time>
      </trkpt>
      <trkpt lat="48.68428" lon="1.95176">
        <ele>158.75</ele>
        <time>2008-04-06T06:15:17Z</time>
      </trkpt>
      <trkpt lat="48.68435" lon="1.95192">
        <ele>156.35</ele>
        <time>2008-04-06T06:15:21Z</time>
      </trkpt>
      <trkpt lat="48.68438" lon="1.95212">
        <ele>150.58</ele>
        <time>2008-04-06T06:15:26Z</time>
      </trkpt>
      <trkpt lat="48.68439" lon="1.95232">
        <ele>145.78</ele>
        <time>2008-04-06T06:15:31Z</time>
      </trkpt>
      <trkpt lat="48.6844" lon="1.95255">
        <ele>146.26</ele>
        <time>2008-04-06T06:15:35Z</time>
      </trkpt>
      <trkpt lat="48.68436" lon="1.9527">
        <ele>148.18</ele>
        <time>2008-04-06T06:15:39Z</time>
      </trkpt>
      <trkpt lat="48.68425" lon="1.95284">
        <ele>148.66</ele>
        <time>2008-04-06T06:15:43Z</time>
      </trkpt>
      <trkpt lat="48.68419" lon="1.95299">
        <ele>147.7</ele>
        <time>2008-04-06T06:15:47Z</time>
      </trkpt>
      <trkpt lat="48.6841" lon="1.9532">
        <ele>145.3</ele>
        <time>2008-04-06T06:15:53Z</time>
      </trkpt>
      <trkpt lat="48.68405" lon="1.95337">
        <ele>145.78</ele>
        <time>2008-04-06T06:15:58Z</time>
      </trkpt>
      <trkpt lat="48.68398" lon="1.95366">
        <ele>144.34</ele>
        <time>2008-04-06T06:16:05Z</time>
      </trkpt>
      <trkpt lat="48.68393" lon="1.95385">
        <ele>146.26</ele>
        <time>2008-04-06T06:16:10Z</time>
      </trkpt>
      <trkpt lat="48.68392" lon="1.95406">
        <ele>149.14</ele>
        <time>2008-04-06T06:16:15Z</time>
      </trkpt>
      <trkpt lat="48.68388" lon="1.95424">
        <ele>147.7</ele>
        <time>2008-04-06T06:16:20Z</time>
      </trkpt>
      <trkpt lat="48.68386" lon="1.95438">
        <ele>147.7</ele>
        <time>2008-04-06T06:16:26Z</time>
      </trkpt>
      <trkpt lat="48.68387" lon="1.95441">
        <ele>147.7</ele>
        <time>2008-04-06T06:16:28Z</time>
      </trkpt>
      <trkpt lat="48.68382" lon="1.9546">
        <ele>147.7</ele>
        <time>2008-04-06T06:16:35Z</time>
      </trkpt>
      <trkpt lat="48.68381" lon="1.95463">
        <ele>147.22</ele>
        <time>2008-04-06T06:16:36Z</time>
      </trkpt>
      <trkpt lat="48.68381" lon="1.95469">
        <ele>150.1</ele>
        <time>2008-04-06T06:16:42Z</time>
      </trkpt>
      <trkpt lat="48.68381" lon="1.95471">
        <ele>151.06</ele>
        <time>2008-04-06T06:16:45Z</time>
      </trkpt>
      <trkpt lat="48.68377" lon="1.95479">
        <ele>151.54</ele>
        <time>2008-04-06T06:16:52Z</time>
      </trkpt>
      <trkpt lat="48.68375" lon="1.95484">
        <ele>152.51</ele>
        <time>2008-04-06T06:16:58Z</time>
      </trkpt>
      <trkpt lat="48.6837" lon="1.9549">
        <ele>153.47</ele>
        <time>2008-04-06T06:17:03Z</time>
      </trkpt>
      <trkpt lat="48.68367" lon="1.95495">
        <ele>152.99</ele>
        <time>2008-04-06T06:17:05Z</time>
      </trkpt>
      <trkpt lat="48.68365" lon="1.95514">
        <ele>153.47</ele>
        <time>2008-04-06T06:17:10Z</time>
      </trkpt>
      <trkpt lat="48.68369" lon="1.9553">
        <ele>155.39</ele>
        <time>2008-04-06T06:17:14Z</time>
      </trkpt>
      <trkpt lat="48.68369" lon="1.95538">
        <ele>156.35</ele>
        <time>2008-04-06T06:17:16Z</time>
      </trkpt>
      <trkpt lat="48.68365" lon="1.95554">
        <ele>158.27</ele>
        <time>2008-04-06T06:17:21Z</time>
      </trkpt>
      <trkpt lat="48.68359" lon="1.95562">
        <ele>160.2</ele>
        <time>2008-04-06T06:17:24Z</time>
      </trkpt>
      <trkpt lat="48.68356" lon="1.95581">
        <ele>163.56</ele>
        <time>2008-04-06T06:17:29Z</time>
      </trkpt>
      <trkpt lat="48.68353" lon="1.956">
        <ele>166.45</ele>
        <time>2008-04-06T06:17:33Z</time>
      </trkpt>
      <trkpt lat="48.68341" lon="1.95629">
        <ele>171.25</ele>
        <time>2008-04-06T06:17:40Z</time>
      </trkpt>
      <trkpt lat="48.68335" lon="1.9565">
        <ele>175.58</ele>
        <time>2008-04-06T06:17:45Z</time>
      </trkpt>
      <trkpt lat="48.68326" lon="1.95671">
        <ele>176.54</ele>
        <time>2008-04-06T06:17:51Z</time>
      </trkpt>
      <trkpt lat="48.68318" lon="1.95694">
        <ele>175.1</ele>
        <time>2008-04-06T06:17:57Z</time>
      </trkpt>
      <trkpt lat="48.6831" lon="1.95705">
        <ele>171.73</ele>
        <time>2008-04-06T06:18:01Z</time>
      </trkpt>
      <trkpt lat="48.68298" lon="1.9573">
        <ele>173.17</ele>
        <time>2008-04-06T06:18:08Z</time>
      </trkpt>
      <trkpt lat="48.68291" lon="1.95744">
        <ele>172.69</ele>
        <time>2008-04-06T06:18:12Z</time>
      </trkpt>
      <trkpt lat="48.68283" lon="1.9576">
        <ele>170.29</ele>
        <time>2008-04-06T06:18:17Z</time>
      </trkpt>
      <trkpt lat="48.68272" lon="1.95781">
        <ele>165</ele>
        <time>2008-04-06T06:18:23Z</time>
      </trkpt>
      <trkpt lat="48.68269" lon="1.95797">
        <ele>163.08</ele>
        <time>2008-04-06T06:18:27Z</time>
      </trkpt>
      <trkpt lat="48.68267" lon="1.95806">
        <ele>162.6</ele>
        <time>2008-04-06T06:18:29Z</time>
      </trkpt>
      <trkpt lat="48.68259" lon="1.9581">
        <ele>163.56</ele>
        <time>2008-04-06T06:18:34Z</time>
      </trkpt>
      <trkpt lat="48.68241" lon="1.95805">
        <ele>158.75</ele>
        <time>2008-04-06T06:18:42Z</time>
      </trkpt>
      <trkpt lat="48.68223" lon="1.95804">
        <ele>156.35</ele>
        <time>2008-04-06T06:18:47Z</time>
      </trkpt>
      <trkpt lat="48.68206" lon="1.95799">
        <ele>153.47</ele>
        <time>2008-04-06T06:18:53Z</time>
      </trkpt>
      <trkpt lat="48.68195" lon="1.95788">
        <ele>154.91</ele>
        <time>2008-04-06T06:18:58Z</time>
      </trkpt>
      <trkpt lat="48.68185" lon="1.95779">
        <ele>155.39</ele>
        <time>2008-04-06T06:19:02Z</time>
      </trkpt>
      <trkpt lat="48.68171" lon="1.95776">
        <ele>155.39</ele>
        <time>2008-04-06T06:19:07Z</time>
      </trkpt>
      <trkpt lat="48.68156" lon="1.95772">
        <ele>155.87</ele>
        <time>2008-04-06T06:19:12Z</time>
      </trkpt>
      <trkpt lat="48.6814" lon="1.95761">
        <ele>157.79</ele>
        <time>2008-04-06T06:19:18Z</time>
      </trkpt>
      <trkpt lat="48.68128" lon="1.95758">
        <ele>158.27</ele>
        <time>2008-04-06T06:19:23Z</time>
      </trkpt>
      <trkpt lat="48.68116" lon="1.95755">
        <ele>159.72</ele>
        <time>2008-04-06T06:19:29Z</time>
      </trkpt>
      <trkpt lat="48.6811" lon="1.95753">
        <ele>160.68</ele>
        <time>2008-04-06T06:19:33Z</time>
      </trkpt>
      <trkpt lat="48.68106" lon="1.95753">
        <ele>159.72</ele>
        <time>2008-04-06T06:19:37Z</time>
      </trkpt>
      <trkpt lat="48.68095" lon="1.95752">
        <ele>162.6</ele>
        <time>2008-04-06T06:19:44Z</time>
      </trkpt>
      <trkpt lat="48.68088" lon="1.95749">
        <ele>164.52</ele>
        <time>2008-04-06T06:19:49Z</time>
      </trkpt>
      <trkpt lat="48.68084" lon="1.9575">
        <ele>165.96</ele>
        <time>2008-04-06T06:19:53Z</time>
      </trkpt>
      <trkpt lat="48.68077" lon="1.95748">
        <ele>169.33</ele>
        <time>2008-04-06T06:19:59Z</time>
      </trkpt>
      <trkpt lat="48.6807" lon="1.95743">
        <ele>171.25</ele>
        <time>2008-04-06T06:20:04Z</time>
      </trkpt>
      <trkpt lat="48.68065" lon="1.95729">
        <ele>172.69</ele>
        <time>2008-04-06T06:20:08Z</time>
      </trkpt>
      <trkpt lat="48.6806" lon="1.95709">
        <ele>175.1</ele>
        <time>2008-04-06T06:20:12Z</time>
      </trkpt>
      <trkpt lat="48.68059" lon="1.95694">
        <ele>177.02</ele>
        <time>2008-04-06T06:20:15Z</time>
      </trkpt>
      <trkpt lat="48.68058" lon="1.95669">
        <ele>180.87</ele>
        <time>2008-04-06T06:20:21Z</time>
      </trkpt>
      <trkpt lat="48.68057" lon="1.95641">
        <ele>181.83</ele>
        <time>2008-04-06T06:20:26Z</time>
      </trkpt>
      <trkpt lat="48.68056" lon="1.95622">
        <ele>187.59</ele>
        <time>2008-04-06T06:20:30Z</time>
      </trkpt>
      <trkpt lat="48.68051" lon="1.95617">
        <ele>184.71</ele>
        <time>2008-04-06T06:20:35Z</time>
      </trkpt>
      <trkpt lat="48.6805" lon="1.95618">
        <ele>183.27</ele>
        <time>2008-04-06T06:20:36Z</time>
      </trkpt>
      <trkpt lat="48.68037" lon="1.95628">
        <ele>170.77</ele>
        <time>2008-04-06T06:20:42Z</time>
      </trkpt>
      <trkpt lat="48.68028" lon="1.95633">
        <ele>163.08</ele>
        <time>2008-04-06T06:20:46Z</time>
      </trkpt>
      <trkpt lat="48.68026" lon="1.95636">
        <ele>162.6</ele>
        <time>2008-04-06T06:20:47Z</time>
      </trkpt>
      <trkpt lat="48.68018" lon="1.95657">
        <ele>158.27</ele>
        <time>2008-04-06T06:20:53Z</time>
      </trkpt>
      <trkpt lat="48.68013" lon="1.95662">
        <ele>155.87</ele>
        <time>2008-04-06T06:20:55Z</time>
      </trkpt>
      <trkpt lat="48.68001" lon="1.95654">
        <ele>154.43</ele>
        <time>2008-04-06T06:21:01Z</time>
      </trkpt>
      <trkpt lat="48.67988" lon="1.95643">
        <ele>152.99</ele>
        <time>2008-04-06T06:21:07Z</time>
      </trkpt>
      <trkpt lat="48.67991" lon="1.95627">
        <ele>154.43</ele>
        <time>2008-04-06T06:21:12Z</time>
      </trkpt>
      <trkpt lat="48.67997" lon="1.95611">
        <ele>155.39</ele>
        <time>2008-04-06T06:21:16Z</time>
      </trkpt>
      <trkpt lat="48.67997" lon="1.95607">
        <ele>156.35</ele>
        <time>2008-04-06T06:21:17Z</time>
      </trkpt>
      <trkpt lat="48.67998" lon="1.9558">
        <ele>163.56</ele>
        <time>2008-04-06T06:21:22Z</time>
      </trkpt>
      <trkpt lat="48.68" lon="1.95567">
        <ele>166.93</ele>
        <time>2008-04-06T06:21:25Z</time>
      </trkpt>
      <trkpt lat="48.67997" lon="1.95557">
        <ele>165</ele>
        <time>2008-04-06T06:21:31Z</time>
      </trkpt>
      <trkpt lat="48.67994" lon="1.95559">
        <ele>163.56</ele>
        <time>2008-04-06T06:21:33Z</time>
      </trkpt>
      <trkpt lat="48.67982" lon="1.95576">
        <ele>158.27</ele>
        <time>2008-04-06T06:21:38Z</time>
      </trkpt>
      <trkpt lat="48.67973" lon="1.95589">
        <ele>155.39</ele>
        <time>2008-04-06T06:21:43Z</time>
      </trkpt>
      <trkpt lat="48.67962" lon="1.95605">
        <ele>152.51</ele>
        <time>2008-04-06T06:21:47Z</time>
      </trkpt>
      <trkpt lat="48.67952" lon="1.95623">
        <ele>149.14</ele>
        <time>2008-04-06T06:21:52Z</time>
      </trkpt>
      <trkpt lat="48.6794" lon="1.95636">
        <ele>147.22</ele>
        <time>2008-04-06T06:21:57Z</time>
      </trkpt>
      <trkpt lat="48.67926" lon="1.95653">
        <ele>141.93</ele>
        <time>2008-04-06T06:22:03Z</time>
      </trkpt>
      <trkpt lat="48.67917" lon="1.95673">
        <ele>137.61</ele>
        <time>2008-04-06T06:22:08Z</time>
      </trkpt>
      <trkpt lat="48.67909" lon="1.95682">
        <ele>135.2</ele>
        <time>2008-04-06T06:22:12Z</time>
      </trkpt>
      <trkpt lat="48.67903" lon="1.9569">
        <ele>131.84</ele>
        <time>2008-04-06T06:22:15Z</time>
      </trkpt>
      <trkpt lat="48.67896" lon="1.9569">
        <ele>130.4</ele>
        <time>2008-04-06T06:22:19Z</time>
      </trkpt>
      <trkpt lat="48.67879" lon="1.95676">
        <ele>128.95</ele>
        <time>2008-04-06T06:22:26Z</time>
      </trkpt>
      <trkpt lat="48.6787" lon="1.95667">
        <ele>126.07</ele>
        <time>2008-04-06T06:22:31Z</time>
      </trkpt>
      <trkpt lat="48.67859" lon="1.95654">
        <ele>124.15</ele>
        <time>2008-04-06T06:22:36Z</time>
      </trkpt>
      <trkpt lat="48.6785" lon="1.9565">
        <ele>123.19</ele>
        <time>2008-04-06T06:22:40Z</time>
      </trkpt>
      <trkpt lat="48.67847" lon="1.95634">
        <ele>119.34</ele>
        <time>2008-04-06T06:22:46Z</time>
      </trkpt>
      <trkpt lat="48.67841" lon="1.95626">
        <ele>119.82</ele>
        <time>2008-04-06T06:22:50Z</time>
      </trkpt>
      <trkpt lat="48.67844" lon="1.95609">
        <ele>120.78</ele>
        <time>2008-04-06T06:22:55Z</time>
      </trkpt>
      <trkpt lat="48.67844" lon="1.95605">
        <ele>122.22</ele>
        <time>2008-04-06T06:22:56Z</time>
      </trkpt>
      <trkpt lat="48.67846" lon="1.95582">
        <ele>122.71</ele>
        <time>2008-04-06T06:23:01Z</time>
      </trkpt>
      <trkpt lat="48.67848" lon="1.95559">
        <ele>124.15</ele>
        <time>2008-04-06T06:23:06Z</time>
      </trkpt>
      <trkpt lat="48.6785" lon="1.95534">
        <ele>126.07</ele>
        <time>2008-04-06T06:23:11Z</time>
      </trkpt>
      <trkpt lat="48.67852" lon="1.95522">
        <ele>125.11</ele>
        <time>2008-04-06T06:23:14Z</time>
      </trkpt>
      <trkpt lat="48.67858" lon="1.95495">
        <ele>119.34</ele>
        <time>2008-04-06T06:23:21Z</time>
      </trkpt>
      <trkpt lat="48.67857" lon="1.95469">
        <ele>119.82</ele>
        <time>2008-04-06T06:23:26Z</time>
      </trkpt>
      <trkpt lat="48.67854" lon="1.95446">
        <ele>124.63</ele>
        <time>2008-04-06T06:23:31Z</time>
      </trkpt>
      <trkpt lat="48.67856" lon="1.95426">
        <ele>127.03</ele>
        <time>2008-04-06T06:23:36Z</time>
      </trkpt>
      <trkpt lat="48.67864" lon="1.95399">
        <ele>127.99</ele>
        <time>2008-04-06T06:23:43Z</time>
      </trkpt>
      <trkpt lat="48.67865" lon="1.95394">
        <ele>128.47</ele>
        <time>2008-04-06T06:23:44Z</time>
      </trkpt>
      <trkpt lat="48.67868" lon="1.95371">
        <ele>132.8</ele>
        <time>2008-04-06T06:23:50Z</time>
      </trkpt>
      <trkpt lat="48.67875" lon="1.95355">
        <ele>130.4</ele>
        <time>2008-04-06T06:23:54Z</time>
      </trkpt>
      <trkpt lat="48.67886" lon="1.95334">
        <ele>125.59</ele>
        <time>2008-04-06T06:24:00Z</time>
      </trkpt>
      <trkpt lat="48.67886" lon="1.9533">
        <ele>126.07</ele>
        <time>2008-04-06T06:24:01Z</time>
      </trkpt>
      <trkpt lat="48.67889" lon="1.95325">
        <ele>127.03</ele>
        <time>2008-04-06T06:24:03Z</time>
      </trkpt>
      <trkpt lat="48.67896" lon="1.95313">
        <ele>126.55</ele>
        <time>2008-04-06T06:24:07Z</time>
      </trkpt>
      <trkpt lat="48.67913" lon="1.95298">
        <ele>117.9</ele>
        <time>2008-04-06T06:24:13Z</time>
      </trkpt>
      <trkpt lat="48.67921" lon="1.95283">
        <ele>116.46</ele>
        <time>2008-04-06T06:24:17Z</time>
      </trkpt>
      <trkpt lat="48.67927" lon="1.95274">
        <ele>117.42</ele>
        <time>2008-04-06T06:24:20Z</time>
      </trkpt>
      <trkpt lat="48.67933" lon="1.95252">
        <ele>118.86</ele>
        <time>2008-04-06T06:24:26Z</time>
      </trkpt>
      <trkpt lat="48.67931" lon="1.95227">
        <ele>123.19</ele>
        <time>2008-04-06T06:24:31Z</time>
      </trkpt>
      <trkpt lat="48.67932" lon="1.9521">
        <ele>125.59</ele>
        <time>2008-04-06T06:24:35Z</time>
      </trkpt>
      <trkpt lat="48.67937" lon="1.95192">
        <ele>128.95</ele>
        <time>2008-04-06T06:24:40Z</time>
      </trkpt>
      <trkpt lat="48.67939" lon="1.95176">
        <ele>129.92</ele>
        <time>2008-04-06T06:24:45Z</time>
      </trkpt>
      <trkpt lat="48.67947" lon="1.9515">
        <ele>118.38</ele>
        <time>2008-04-06T06:24:52Z</time>
      </trkpt>
      <trkpt lat="48.67952" lon="1.95136">
        <ele>109.73</ele>
        <time>2008-04-06T06:24:56Z</time>
      </trkpt>
      <trkpt lat="48.67952" lon="1.95131">
        <ele>109.73</ele>
        <time>2008-04-06T06:24:57Z</time>
      </trkpt>
      <trkpt lat="48.6796" lon="1.95107">
        <ele>111.17</ele>
        <time>2008-04-06T06:25:04Z</time>
      </trkpt>
      <trkpt lat="48.67967" lon="1.95087">
        <ele>118.38</ele>
        <time>2008-04-06T06:25:09Z</time>
      </trkpt>
      <trkpt lat="48.6797" lon="1.95079">
        <ele>121.26</ele>
        <time>2008-04-06T06:25:11Z</time>
      </trkpt>
      <trkpt lat="48.67973" lon="1.95056">
        <ele>122.71</ele>
        <time>2008-04-06T06:25:16Z</time>
      </trkpt>
      <trkpt lat="48.67974" lon="1.95041">
        <ele>122.71</ele>
        <time>2008-04-06T06:25:19Z</time>
      </trkpt>
      <trkpt lat="48.67983" lon="1.95021">
        <ele>126.07</ele>
        <time>2008-04-06T06:25:25Z</time>
      </trkpt>
      <trkpt lat="48.67991" lon="1.95007">
        <ele>128.47</ele>
        <time>2008-04-06T06:25:29Z</time>
      </trkpt>
      <trkpt lat="48.68004" lon="1.94995">
        <ele>128.95</ele>
        <time>2008-04-06T06:25:34Z</time>
      </trkpt>
      <trkpt lat="48.68018" lon="1.94982">
        <ele>129.43</ele>
        <time>2008-04-06T06:25:39Z</time>
      </trkpt>
      <trkpt lat="48.68031" lon="1.94973">
        <ele>132.32</ele>
        <time>2008-04-06T06:25:44Z</time>
      </trkpt>
      <trkpt lat="48.68048" lon="1.94969">
        <ele>132.32</ele>
        <time>2008-04-06T06:25:50Z</time>
      </trkpt>
      <trkpt lat="48.68063" lon="1.94959">
        <ele>134.24</ele>
        <time>2008-04-06T06:25:55Z</time>
      </trkpt>
      <trkpt lat="48.68071" lon="1.94942">
        <ele>134.24</ele>
        <time>2008-04-06T06:26:01Z</time>
      </trkpt>
      <trkpt lat="48.6808" lon="1.94933">
        <ele>134.72</ele>
        <time>2008-04-06T06:26:05Z</time>
      </trkpt>
      <trkpt lat="48.68085" lon="1.94929">
        <ele>132.32</ele>
        <time>2008-04-06T06:26:07Z</time>
      </trkpt>
      <trkpt lat="48.68086" lon="1.94925">
        <ele>130.88</ele>
        <time>2008-04-06T06:26:09Z</time>
      </trkpt>
      <trkpt lat="48.68085" lon="1.94912">
        <ele>127.03</ele>
        <time>2008-04-06T06:26:13Z</time>
      </trkpt>
      <trkpt lat="48.68079" lon="1.94891">
        <ele>128.47</ele>
        <time>2008-04-06T06:26:18Z</time>
      </trkpt>
      <trkpt lat="48.68077" lon="1.94881">
        <ele>129.43</ele>
        <time>2008-04-06T06:26:20Z</time>
      </trkpt>
      <trkpt lat="48.68082" lon="1.94852">
        <ele>135.68</ele>
        <time>2008-04-06T06:26:27Z</time>
      </trkpt>
      <trkpt lat="48.68091" lon="1.94836">
        <ele>135.2</ele>
        <time>2008-04-06T06:26:32Z</time>
      </trkpt>
      <trkpt lat="48.68096" lon="1.94824">
        <ele>135.68</ele>
        <time>2008-04-06T06:26:36Z</time>
      </trkpt>
      <trkpt lat="48.68099" lon="1.94818">
        <ele>136.64</ele>
        <time>2008-04-06T06:26:38Z</time>
      </trkpt>
      <trkpt lat="48.6811" lon="1.94817">
        <ele>135.2</ele>
        <time>2008-04-06T06:26:42Z</time>
      </trkpt>
      <trkpt lat="48.68117" lon="1.9482">
        <ele>135.2</ele>
        <time>2008-04-06T06:26:45Z</time>
      </trkpt>
      <trkpt lat="48.68125" lon="1.9482">
        <ele>135.2</ele>
        <time>2008-04-06T06:26:49Z</time>
      </trkpt>
      <trkpt lat="48.68127" lon="1.94822">
        <ele>136.16</ele>
        <time>2008-04-06T06:26:51Z</time>
      </trkpt>
      <trkpt lat="48.68129" lon="1.94826">
        <ele>133.28</ele>
        <time>2008-04-06T06:26:55Z</time>
      </trkpt>
      <trkpt lat="48.68134" lon="1.94827">
        <ele>133.76</ele>
        <time>2008-04-06T06:26:59Z</time>
      </trkpt>
      <trkpt lat="48.68138" lon="1.94825">
        <ele>131.84</ele>
        <time>2008-04-06T06:27:06Z</time>
      </trkpt>
      <trkpt lat="48.6814" lon="1.9482">
        <ele>130.88</ele>
        <time>2008-04-06T06:27:09Z</time>
      </trkpt>
      <trkpt lat="48.68148" lon="1.94822">
        <ele>129.92</ele>
        <time>2008-04-06T06:27:16Z</time>
      </trkpt>
      <trkpt lat="48.68153" lon="1.94821">
        <ele>129.43</ele>
        <time>2008-04-06T06:27:24Z</time>
      </trkpt>
      <trkpt lat="48.68156" lon="1.94813">
        <ele>131.36</ele>
        <time>2008-04-06T06:27:31Z</time>
      </trkpt>
      <trkpt lat="48.68156" lon="1.94814">
        <ele>131.36</ele>
        <time>2008-04-06T06:27:32Z</time>
      </trkpt>
      <trkpt lat="48.68164" lon="1.94814">
        <ele>131.84</ele>
        <time>2008-04-06T06:27:38Z</time>
      </trkpt>
      <trkpt lat="48.6817" lon="1.94812">
        <ele>132.8</ele>
        <time>2008-04-06T06:27:45Z</time>
      </trkpt>
      <trkpt lat="48.68169" lon="1.94808">
        <ele>139.05</ele>
        <time>2008-04-06T06:27:49Z</time>
      </trkpt>
      <trkpt lat="48.68171" lon="1.94806">
        <ele>139.05</ele>
        <time>2008-04-06T06:27:52Z</time>
      </trkpt>
      <trkpt lat="48.68179" lon="1.94803">
        <ele>143.37</ele>
        <time>2008-04-06T06:28:00Z</time>
      </trkpt>
      <trkpt lat="48.6818" lon="1.94798">
        <ele>144.82</ele>
        <time>2008-04-06T06:28:04Z</time>
      </trkpt>
      <trkpt lat="48.68179" lon="1.94789">
        <ele>149.14</ele>
        <time>2008-04-06T06:28:11Z</time>
      </trkpt>
      <trkpt lat="48.68182" lon="1.94786">
        <ele>149.14</ele>
        <time>2008-04-06T06:28:16Z</time>
      </trkpt>
      <trkpt lat="48.68187" lon="1.94784">
        <ele>147.7</ele>
        <time>2008-04-06T06:28:21Z</time>
      </trkpt>
      <trkpt lat="48.6819" lon="1.94781">
        <ele>150.58</ele>
        <time>2008-04-06T06:28:27Z</time>
      </trkpt>
      <trkpt lat="48.68191" lon="1.94781">
        <ele>151.06</ele>
        <time>2008-04-06T06:28:28Z</time>
      </trkpt>
      <trkpt lat="48.68192" lon="1.94775">
        <ele>151.06</ele>
        <time>2008-04-06T06:28:32Z</time>
      </trkpt>
      <trkpt lat="48.68195" lon="1.94772">
        <ele>151.54</ele>
        <time>2008-04-06T06:28:36Z</time>
      </trkpt>
      <trkpt lat="48.68201" lon="1.94769">
        <ele>153.95</ele>
        <time>2008-04-06T06:28:44Z</time>
      </trkpt>
      <trkpt lat="48.68204" lon="1.94766">
        <ele>157.31</ele>
        <time>2008-04-06T06:28:49Z</time>
      </trkpt>
      <trkpt lat="48.68208" lon="1.94769">
        <ele>155.87</ele>
        <time>2008-04-06T06:28:56Z</time>
      </trkpt>
      <trkpt lat="48.68211" lon="1.94773">
        <ele>153.47</ele>
        <time>2008-04-06T06:29:00Z</time>
      </trkpt>
      <trkpt lat="48.68216" lon="1.94773">
        <ele>153.47</ele>
        <time>2008-04-06T06:29:06Z</time>
      </trkpt>
      <trkpt lat="48.68227" lon="1.94769">
        <ele>158.27</ele>
        <time>2008-04-06T06:29:11Z</time>
      </trkpt>
      <trkpt lat="48.68229" lon="1.94768">
        <ele>158.27</ele>
        <time>2008-04-06T06:29:12Z</time>
      </trkpt>
      <trkpt lat="48.68236" lon="1.94756">
        <ele>158.27</ele>
        <time>2008-04-06T06:29:16Z</time>
      </trkpt>
      <trkpt lat="48.68246" lon="1.94741">
        <ele>163.56</ele>
        <time>2008-04-06T06:29:21Z</time>
      </trkpt>
      <trkpt lat="48.68254" lon="1.94739">
        <ele>167.41</ele>
        <time>2008-04-06T06:29:24Z</time>
      </trkpt>
      <trkpt lat="48.6826" lon="1.94729">
        <ele>170.29</ele>
        <time>2008-04-06T06:29:28Z</time>
      </trkpt>
      <trkpt lat="48.68264" lon="1.94724">
        <ele>169.81</ele>
        <time>2008-04-06T06:29:31Z</time>
      </trkpt>
      <trkpt lat="48.68257" lon="1.94716">
        <ele>167.89</ele>
        <time>2008-04-06T06:29:35Z</time>
      </trkpt>
      <trkpt lat="48.68245" lon="1.94707">
        <ele>167.89</ele>
        <time>2008-04-06T06:29:39Z</time>
      </trkpt>
      <trkpt lat="48.68243" lon="1.94707">
        <ele>167.41</ele>
        <time>2008-04-06T06:29:40Z</time>
      </trkpt>
      <trkpt lat="48.68237" lon="1.947">
        <ele>165.96</ele>
        <time>2008-04-06T06:29:46Z</time>
      </trkpt>
      <trkpt lat="48.68235" lon="1.94689">
        <ele>164.52</ele>
        <time>2008-04-06T06:29:50Z</time>
      </trkpt>
      <trkpt lat="48.68237" lon="1.94677">
        <ele>161.16</ele>
        <time>2008-04-06T06:29:54Z</time>
      </trkpt>
      <trkpt lat="48.68241" lon="1.94666">
        <ele>162.6</ele>
        <time>2008-04-06T06:29:58Z</time>
      </trkpt>
      <trkpt lat="48.68245" lon="1.94653">
        <ele>159.72</ele>
        <time>2008-04-06T06:30:02Z</time>
      </trkpt>
      <trkpt lat="48.68247" lon="1.94636">
        <ele>156.83</ele>
        <time>2008-04-06T06:30:06Z</time>
      </trkpt>
      <trkpt lat="48.68256" lon="1.94621">
        <ele>155.87</ele>
        <time>2008-04-06T06:30:11Z</time>
      </trkpt>
      <trkpt lat="48.6827" lon="1.94603">
        <ele>153.95</ele>
        <time>2008-04-06T06:30:18Z</time>
      </trkpt>
      <trkpt lat="48.68272" lon="1.946">
        <ele>153.47</ele>
        <time>2008-04-06T06:30:19Z</time>
      </trkpt>
      <trkpt lat="48.68279" lon="1.94585">
        <ele>152.51</ele>
        <time>2008-04-06T06:30:23Z</time>
      </trkpt>
      <trkpt lat="48.68286" lon="1.94568">
        <ele>152.51</ele>
        <time>2008-04-06T06:30:28Z</time>
      </trkpt>
      <trkpt lat="48.68285" lon="1.94548">
        <ele>151.54</ele>
        <time>2008-04-06T06:30:34Z</time>
      </trkpt>
      <trkpt lat="48.68285" lon="1.94544">
        <ele>150.58</ele>
        <time>2008-04-06T06:30:35Z</time>
      </trkpt>
      <trkpt lat="48.68289" lon="1.94535">
        <ele>145.78</ele>
        <time>2008-04-06T06:30:39Z</time>
      </trkpt>
      <trkpt lat="48.68288" lon="1.94525">
        <ele>142.89</ele>
        <time>2008-04-06T06:30:42Z</time>
      </trkpt>
      <trkpt lat="48.68278" lon="1.94509">
        <ele>140.97</ele>
        <time>2008-04-06T06:30:47Z</time>
      </trkpt>
      <trkpt lat="48.68277" lon="1.94501">
        <ele>140.01</ele>
        <time>2008-04-06T06:30:49Z</time>
      </trkpt>
      <trkpt lat="48.68282" lon="1.94484">
        <ele>135.2</ele>
        <time>2008-04-06T06:30:55Z</time>
      </trkpt>
      <trkpt lat="48.68284" lon="1.94469">
        <ele>132.32</ele>
        <time>2008-04-06T06:30:59Z</time>
      </trkpt>
      <trkpt lat="48.68289" lon="1.94456">
        <ele>130.88</ele>
        <time>2008-04-06T06:31:02Z</time>
      </trkpt>
      <trkpt lat="48.68294" lon="1.94448">
        <ele>128.47</ele>
        <time>2008-04-06T06:31:05Z</time>
      </trkpt>
      <trkpt lat="48.68291" lon="1.94431">
        <ele>129.43</ele>
        <time>2008-04-06T06:31:10Z</time>
      </trkpt>
      <trkpt lat="48.68286" lon="1.94421">
        <ele>128.47</ele>
        <time>2008-04-06T06:31:14Z</time>
      </trkpt>
      <trkpt lat="48.68286" lon="1.94418">
        <ele>127.99</ele>
        <time>2008-04-06T06:31:15Z</time>
      </trkpt>
      <trkpt lat="48.68289" lon="1.94403">
        <ele>124.15</ele>
        <time>2008-04-06T06:31:20Z</time>
      </trkpt>
      <trkpt lat="48.683" lon="1.94391">
        <ele>122.22</ele>
        <time>2008-04-06T06:31:26Z</time>
      </trkpt>
      <trkpt lat="48.68303" lon="1.94387">
        <ele>120.78</ele>
        <time>2008-04-06T06:31:28Z</time>
      </trkpt>
      <trkpt lat="48.6831" lon="1.94377">
        <ele>118.86</ele>
        <time>2008-04-06T06:31:32Z</time>
      </trkpt>
      <trkpt lat="48.68315" lon="1.94373">
        <ele>121.26</ele>
        <time>2008-04-06T06:31:36Z</time>
      </trkpt>
      <trkpt lat="48.6832" lon="1.94369">
        <ele>122.22</ele>
        <time>2008-04-06T06:31:41Z</time>
      </trkpt>
      <trkpt lat="48.68325" lon="1.9436">
        <ele>123.19</ele>
        <time>2008-04-06T06:31:46Z</time>
      </trkpt>
      <trkpt lat="48.68331" lon="1.94354">
        <ele>127.51</ele>
        <time>2008-04-06T06:31:51Z</time>
      </trkpt>
      <trkpt lat="48.68335" lon="1.94348">
        <ele>127.51</ele>
        <time>2008-04-06T06:31:55Z</time>
      </trkpt>
      <trkpt lat="48.68339" lon="1.94339">
        <ele>130.4</ele>
        <time>2008-04-06T06:31:59Z</time>
      </trkpt>
      <trkpt lat="48.68345" lon="1.94329">
        <ele>130.4</ele>
        <time>2008-04-06T06:32:04Z</time>
      </trkpt>
      <trkpt lat="48.6835" lon="1.94318">
        <ele>128.47</ele>
        <time>2008-04-06T06:32:08Z</time>
      </trkpt>
      <trkpt lat="48.68352" lon="1.9431">
        <ele>126.07</ele>
        <time>2008-04-06T06:32:12Z</time>
      </trkpt>
      <trkpt lat="48.68355" lon="1.94294">
        <ele>122.22</ele>
        <time>2008-04-06T06:32:17Z</time>
      </trkpt>
      <trkpt lat="48.68356" lon="1.94282">
        <ele>128.47</ele>
        <time>2008-04-06T06:32:21Z</time>
      </trkpt>
      <trkpt lat="48.68368" lon="1.94272">
        <ele>125.59</ele>
        <time>2008-04-06T06:32:26Z</time>
      </trkpt>
      <trkpt lat="48.68376" lon="1.94263">
        <ele>125.59</ele>
        <time>2008-04-06T06:32:29Z</time>
      </trkpt>
      <trkpt lat="48.68379" lon="1.94257">
        <ele>127.03</ele>
        <time>2008-04-06T06:32:31Z</time>
      </trkpt>
      <trkpt lat="48.68378" lon="1.94244">
        <ele>126.55</ele>
        <time>2008-04-06T06:32:36Z</time>
      </trkpt>
      <trkpt lat="48.68382" lon="1.94237">
        <ele>125.59</ele>
        <time>2008-04-06T06:32:39Z</time>
      </trkpt>
      <trkpt lat="48.68385" lon="1.94217">
        <ele>128.47</ele>
        <time>2008-04-06T06:32:46Z</time>
      </trkpt>
      <trkpt lat="48.6839" lon="1.94202">
        <ele>128.95</ele>
        <time>2008-04-06T06:32:52Z</time>
      </trkpt>
      <trkpt lat="48.68391" lon="1.94195">
        <ele>131.84</ele>
        <time>2008-04-06T06:32:54Z</time>
      </trkpt>
      <trkpt lat="48.68387" lon="1.9418">
        <ele>130.4</ele>
        <time>2008-04-06T06:32:59Z</time>
      </trkpt>
      <trkpt lat="48.68385" lon="1.94176">
        <ele>129.92</ele>
        <time>2008-04-06T06:33:00Z</time>
      </trkpt>
      <trkpt lat="48.68386" lon="1.94161">
        <ele>131.36</ele>
        <time>2008-04-06T06:33:05Z</time>
      </trkpt>
      <trkpt lat="48.68388" lon="1.9416">
        <ele>131.84</ele>
        <time>2008-04-06T06:33:06Z</time>
      </trkpt>
      <trkpt lat="48.68393" lon="1.94155">
        <ele>131.84</ele>
        <time>2008-04-06T06:33:09Z</time>
      </trkpt>
      <trkpt lat="48.68398" lon="1.94144">
        <ele>136.64</ele>
        <time>2008-04-06T06:33:15Z</time>
      </trkpt>
      <trkpt lat="48.68401" lon="1.94142">
        <ele>137.13</ele>
        <time>2008-04-06T06:33:17Z</time>
      </trkpt>
      <trkpt lat="48.68404" lon="1.9414">
        <ele>138.57</ele>
        <time>2008-04-06T06:33:19Z</time>
      </trkpt>
      <trkpt lat="48.68409" lon="1.94137">
        <ele>138.57</ele>
        <time>2008-04-06T06:33:23Z</time>
      </trkpt>
      <trkpt lat="48.68416" lon="1.94131">
        <ele>140.49</ele>
        <time>2008-04-06T06:33:31Z</time>
      </trkpt>
      <trkpt lat="48.68421" lon="1.94126">
        <ele>140.01</ele>
        <time>2008-04-06T06:33:37Z</time>
      </trkpt>
      <trkpt lat="48.68427" lon="1.94125">
        <ele>140.01</ele>
        <time>2008-04-06T06:33:43Z</time>
      </trkpt>
      <trkpt lat="48.68435" lon="1.94124">
        <ele>140.01</ele>
        <time>2008-04-06T06:33:51Z</time>
      </trkpt>
      <trkpt lat="48.68441" lon="1.94126">
        <ele>138.57</ele>
        <time>2008-04-06T06:33:57Z</time>
      </trkpt>
      <trkpt lat="48.68448" lon="1.94125">
        <ele>140.49</ele>
        <time>2008-04-06T06:34:04Z</time>
      </trkpt>
      <trkpt lat="48.68452" lon="1.94124">
        <ele>141.93</ele>
        <time>2008-04-06T06:34:09Z</time>
      </trkpt>
      <trkpt lat="48.68456" lon="1.94118">
        <ele>144.82</ele>
        <time>2008-04-06T06:34:14Z</time>
      </trkpt>
      <trkpt lat="48.68457" lon="1.94116">
        <ele>147.7</ele>
        <time>2008-04-06T06:34:16Z</time>
      </trkpt>
      <trkpt lat="48.68458" lon="1.94107">
        <ele>152.03</ele>
        <time>2008-04-06T06:34:21Z</time>
      </trkpt>
      <trkpt lat="48.68459" lon="1.94103">
        <ele>154.43</ele>
        <time>2008-04-06T06:34:24Z</time>
      </trkpt>
      <trkpt lat="48.68459" lon="1.94096">
        <ele>156.83</ele>
        <time>2008-04-06T06:34:28Z</time>
      </trkpt>
      <trkpt lat="48.68461" lon="1.94091">
        <ele>159.24</ele>
        <time>2008-04-06T06:34:34Z</time>
      </trkpt>
      <trkpt lat="48.68464" lon="1.94083">
        <ele>158.75</ele>
        <time>2008-04-06T06:34:41Z</time>
      </trkpt>
      <trkpt lat="48.68465" lon="1.94079">
        <ele>158.75</ele>
        <time>2008-04-06T06:34:43Z</time>
      </trkpt>
      <trkpt lat="48.68469" lon="1.94063">
        <ele>157.31</ele>
        <time>2008-04-06T06:34:49Z</time>
      </trkpt>
      <trkpt lat="48.68474" lon="1.94052">
        <ele>156.35</ele>
        <time>2008-04-06T06:34:54Z</time>
      </trkpt>
      <trkpt lat="48.68479" lon="1.94038">
        <ele>155.39</ele>
        <time>2008-04-06T06:34:58Z</time>
      </trkpt>
      <trkpt lat="48.68482" lon="1.94016">
        <ele>152.03</ele>
        <time>2008-04-06T06:35:04Z</time>
      </trkpt>
      <trkpt lat="48.68484" lon="1.9401">
        <ele>150.1</ele>
        <time>2008-04-06T06:35:06Z</time>
      </trkpt>
      <trkpt lat="48.68478" lon="1.94">
        <ele>148.66</ele>
        <time>2008-04-06T06:35:11Z</time>
      </trkpt>
      <trkpt lat="48.68472" lon="1.94001">
        <ele>146.74</ele>
        <time>2008-04-06T06:35:15Z</time>
      </trkpt>
      <trkpt lat="48.68469" lon="1.94003">
        <ele>146.26</ele>
        <time>2008-04-06T06:35:17Z</time>
      </trkpt>
      <trkpt lat="48.68466" lon="1.93997">
        <ele>142.89</ele>
        <time>2008-04-06T06:35:23Z</time>
      </trkpt>
      <trkpt lat="48.68461" lon="1.93993">
        <ele>140.01</ele>
        <time>2008-04-06T06:35:27Z</time>
      </trkpt>
      <trkpt lat="48.68455" lon="1.93988">
        <ele>137.13</ele>
        <time>2008-04-06T06:35:32Z</time>
      </trkpt>
      <trkpt lat="48.68459" lon="1.93979">
        <ele>132.32</ele>
        <time>2008-04-06T06:35:37Z</time>
      </trkpt>
      <trkpt lat="48.68461" lon="1.93971">
        <ele>126.07</ele>
        <time>2008-04-06T06:35:42Z</time>
      </trkpt>
      <trkpt lat="48.68462" lon="1.9397">
        <ele>124.63</ele>
        <time>2008-04-06T06:35:43Z</time>
      </trkpt>
      <trkpt lat="48.68469" lon="1.93957">
        <ele>114.53</ele>
        <time>2008-04-06T06:35:50Z</time>
      </trkpt>
      <trkpt lat="48.68476" lon="1.93947">
        <ele>111.17</ele>
        <time>2008-04-06T06:35:55Z</time>
      </trkpt>
      <trkpt lat="48.68478" lon="1.93945">
        <ele>110.21</ele>
        <time>2008-04-06T06:35:56Z</time>
      </trkpt>
      <trkpt lat="48.68487" lon="1.93937">
        <ele>110.21</ele>
        <time>2008-04-06T06:36:01Z</time>
      </trkpt>
      <trkpt lat="48.68496" lon="1.93921">
        <ele>109.73</ele>
        <time>2008-04-06T06:36:07Z</time>
      </trkpt>
      <trkpt lat="48.68501" lon="1.93917">
        <ele>110.21</ele>
        <time>2008-04-06T06:36:09Z</time>
      </trkpt>
      <trkpt lat="48.68511" lon="1.93913">
        <ele>112.13</ele>
        <time>2008-04-06T06:36:14Z</time>
      </trkpt>
      <trkpt lat="48.6852" lon="1.93915">
        <ele>112.61</ele>
        <time>2008-04-06T06:36:18Z</time>
      </trkpt>
      <trkpt lat="48.6853" lon="1.9391">
        <ele>112.61</ele>
        <time>2008-04-06T06:36:22Z</time>
      </trkpt>
      <trkpt lat="48.6853" lon="1.93906">
        <ele>114.53</ele>
        <time>2008-04-06T06:36:23Z</time>
      </trkpt>
      <trkpt lat="48.68535" lon="1.9389">
        <ele>126.55</ele>
        <time>2008-04-06T06:36:29Z</time>
      </trkpt>
      <trkpt lat="48.68543" lon="1.93875">
        <ele>128.47</ele>
        <time>2008-04-06T06:36:34Z</time>
      </trkpt>
      <trkpt lat="48.68547" lon="1.93867">
        <ele>129.43</ele>
        <time>2008-04-06T06:36:38Z</time>
      </trkpt>
      <trkpt lat="48.68547" lon="1.93857">
        <ele>132.8</ele>
        <time>2008-04-06T06:36:40Z</time>
      </trkpt>
      <trkpt lat="48.68548" lon="1.93834">
        <ele>137.61</ele>
        <time>2008-04-06T06:36:45Z</time>
      </trkpt>
      <trkpt lat="48.68552" lon="1.93825">
        <ele>141.93</ele>
        <time>2008-04-06T06:36:49Z</time>
      </trkpt>
      <trkpt lat="48.68554" lon="1.93819">
        <ele>145.78</ele>
        <time>2008-04-06T06:36:53Z</time>
      </trkpt>
      <trkpt lat="48.68564" lon="1.93807">
        <ele>146.74</ele>
        <time>2008-04-06T06:36:58Z</time>
      </trkpt>
      <trkpt lat="48.68571" lon="1.938">
        <ele>145.78</ele>
        <time>2008-04-06T06:37:01Z</time>
      </trkpt>
      <trkpt lat="48.68583" lon="1.93793">
        <ele>143.85</ele>
        <time>2008-04-06T06:37:06Z</time>
      </trkpt>
      <trkpt lat="48.68598" lon="1.93782">
        <ele>142.41</ele>
        <time>2008-04-06T06:37:12Z</time>
      </trkpt>
      <trkpt lat="48.68607" lon="1.93776">
        <ele>145.3</ele>
        <time>2008-04-06T06:37:17Z</time>
      </trkpt>
      <trkpt lat="48.68608" lon="1.93775">
        <ele>146.26</ele>
        <time>2008-04-06T06:37:18Z</time>
      </trkpt>
      <trkpt lat="48.68613" lon="1.93773">
        <ele>146.74</ele>
        <time>2008-04-06T06:37:22Z</time>
      </trkpt>
      <trkpt lat="48.6862" lon="1.9377">
        <ele>149.62</ele>
        <time>2008-04-06T06:37:29Z</time>
      </trkpt>
      <trkpt lat="48.68624" lon="1.93769">
        <ele>151.54</ele>
        <time>2008-04-06T06:37:35Z</time>
      </trkpt>
      <trkpt lat="48.6863" lon="1.93768">
        <ele>151.54</ele>
        <time>2008-04-06T06:37:42Z</time>
      </trkpt>
      <trkpt lat="48.68633" lon="1.93768">
        <ele>153.95</ele>
        <time>2008-04-06T06:37:47Z</time>
      </trkpt>
      <trkpt lat="48.68635" lon="1.93763">
        <ele>157.79</ele>
        <time>2008-04-06T06:37:52Z</time>
      </trkpt>
      <trkpt lat="48.68641" lon="1.93761">
        <ele>157.79</ele>
        <time>2008-04-06T06:38:00Z</time>
      </trkpt>
      <trkpt lat="48.68643" lon="1.93755">
        <ele>160.2</ele>
        <time>2008-04-06T06:38:07Z</time>
      </trkpt>
      <trkpt lat="48.68645" lon="1.93747">
        <ele>158.75</ele>
        <time>2008-04-06T06:38:12Z</time>
      </trkpt>
      <trkpt lat="48.68644" lon="1.93744">
        <ele>159.24</ele>
        <time>2008-04-06T06:38:13Z</time>
      </trkpt>
      <trkpt lat="48.68642" lon="1.93735">
        <ele>159.72</ele>
        <time>2008-04-06T06:38:16Z</time>
      </trkpt>
      <trkpt lat="48.68634" lon="1.93726">
        <ele>156.35</ele>
        <time>2008-04-06T06:38:22Z</time>
      </trkpt>
      <trkpt lat="48.6863" lon="1.93722">
        <ele>152.03</ele>
        <time>2008-04-06T06:38:25Z</time>
      </trkpt>
      <trkpt lat="48.68631" lon="1.93706">
        <ele>146.26</ele>
        <time>2008-04-06T06:38:30Z</time>
      </trkpt>
      <trkpt lat="48.68629" lon="1.93703">
        <ele>145.3</ele>
        <time>2008-04-06T06:38:32Z</time>
      </trkpt>
      <trkpt lat="48.6862" lon="1.93697">
        <ele>141.45</ele>
        <time>2008-04-06T06:38:37Z</time>
      </trkpt>
      <trkpt lat="48.68619" lon="1.93696">
        <ele>140.49</ele>
        <time>2008-04-06T06:38:38Z</time>
      </trkpt>
      <trkpt lat="48.68611" lon="1.93685">
        <ele>137.61</ele>
        <time>2008-04-06T06:38:43Z</time>
      </trkpt>
      <trkpt lat="48.68602" lon="1.93675">
        <ele>135.2</ele>
        <time>2008-04-06T06:38:48Z</time>
      </trkpt>
      <trkpt lat="48.68589" lon="1.93663">
        <ele>131.36</ele>
        <time>2008-04-06T06:38:54Z</time>
      </trkpt>
      <trkpt lat="48.68579" lon="1.93655">
        <ele>129.92</ele>
        <time>2008-04-06T06:38:59Z</time>
      </trkpt>
      <trkpt lat="48.68573" lon="1.9365">
        <ele>127.51</ele>
        <time>2008-04-06T06:39:02Z</time>
      </trkpt>
      <trkpt lat="48.68566" lon="1.93642">
        <ele>124.63</ele>
        <time>2008-04-06T06:39:06Z</time>
      </trkpt>
      <trkpt lat="48.68566" lon="1.93636">
        <ele>124.15</ele>
        <time>2008-04-06T06:39:08Z</time>
      </trkpt>
      <trkpt lat="48.68574" lon="1.93624">
        <ele>119.82</ele>
        <time>2008-04-06T06:39:12Z</time>
      </trkpt>
      <trkpt lat="48.68586" lon="1.93608">
        <ele>120.3</ele>
        <time>2008-04-06T06:39:19Z</time>
      </trkpt>
      <trkpt lat="48.68592" lon="1.93602">
        <ele>122.22</ele>
        <time>2008-04-06T06:39:22Z</time>
      </trkpt>
      <trkpt lat="48.68594" lon="1.93592">
        <ele>127.03</ele>
        <time>2008-04-06T06:39:27Z</time>
      </trkpt>
      <trkpt lat="48.68596" lon="1.93589">
        <ele>127.99</ele>
        <time>2008-04-06T06:39:28Z</time>
      </trkpt>
      <trkpt lat="48.68601" lon="1.93578">
        <ele>131.84</ele>
        <time>2008-04-06T06:39:32Z</time>
      </trkpt>
      <trkpt lat="48.68607" lon="1.9357">
        <ele>135.68</ele>
        <time>2008-04-06T06:39:36Z</time>
      </trkpt>
      <trkpt lat="48.68621" lon="1.93566">
        <ele>141.93</ele>
        <time>2008-04-06T06:39:43Z</time>
      </trkpt>
      <trkpt lat="48.68622" lon="1.93564">
        <ele>143.85</ele>
        <time>2008-04-06T06:39:45Z</time>
      </trkpt>
      <trkpt lat="48.68627" lon="1.93561">
        <ele>145.78</ele>
        <time>2008-04-06T06:39:51Z</time>
      </trkpt>
      <trkpt lat="48.68634" lon="1.93562">
        <ele>141.93</ele>
        <time>2008-04-06T06:39:57Z</time>
      </trkpt>
      <trkpt lat="48.68636" lon="1.93559">
        <ele>143.37</ele>
        <time>2008-04-06T06:40:02Z</time>
      </trkpt>
      <trkpt lat="48.68641" lon="1.9356">
        <ele>139.05</ele>
        <time>2008-04-06T06:40:08Z</time>
      </trkpt>
      <trkpt lat="48.68646" lon="1.9356">
        <ele>135.2</ele>
        <time>2008-04-06T06:40:14Z</time>
      </trkpt>
      <trkpt lat="48.68644" lon="1.93556">
        <ele>136.16</ele>
        <time>2008-04-06T06:40:16Z</time>
      </trkpt>
      <trkpt lat="48.68637" lon="1.93542">
        <ele>138.09</ele>
        <time>2008-04-06T06:40:21Z</time>
      </trkpt>
      <trkpt lat="48.68629" lon="1.93524">
        <ele>137.61</ele>
        <time>2008-04-06T06:40:26Z</time>
      </trkpt>
      <trkpt lat="48.6863" lon="1.93511">
        <ele>137.61</ele>
        <time>2008-04-06T06:40:30Z</time>
      </trkpt>
      <trkpt lat="48.68633" lon="1.93497">
        <ele>137.13</ele>
        <time>2008-04-06T06:40:35Z</time>
      </trkpt>
      <trkpt lat="48.68634" lon="1.93494">
        <ele>138.57</ele>
        <time>2008-04-06T06:40:37Z</time>
      </trkpt>
      <trkpt lat="48.68639" lon="1.93487">
        <ele>143.37</ele>
        <time>2008-04-06T06:40:42Z</time>
      </trkpt>
      <trkpt lat="48.68642" lon="1.93472">
        <ele>141.45</ele>
        <time>2008-04-06T06:40:47Z</time>
      </trkpt>
      <trkpt lat="48.68648" lon="1.93463">
        <ele>135.68</ele>
        <time>2008-04-06T06:40:52Z</time>
      </trkpt>
      <trkpt lat="48.6865" lon="1.93462">
        <ele>134.72</ele>
        <time>2008-04-06T06:40:53Z</time>
      </trkpt>
      <trkpt lat="48.68658" lon="1.93455">
        <ele>130.88</ele>
        <time>2008-04-06T06:40:58Z</time>
      </trkpt>
      <trkpt lat="48.68663" lon="1.93443">
        <ele>133.28</ele>
        <time>2008-04-06T06:41:04Z</time>
      </trkpt>
      <trkpt lat="48.68671" lon="1.93441">
        <ele>132.32</ele>
        <time>2008-04-06T06:41:08Z</time>
      </trkpt>
      <trkpt lat="48.68673" lon="1.93441">
        <ele>132.32</ele>
        <time>2008-04-06T06:41:09Z</time>
      </trkpt>
      <trkpt lat="48.68678" lon="1.93436">
        <ele>136.64</ele>
        <time>2008-04-06T06:41:13Z</time>
      </trkpt>
      <trkpt lat="48.6868" lon="1.93433">
        <ele>137.61</ele>
        <time>2008-04-06T06:41:15Z</time>
      </trkpt>
      <trkpt lat="48.68686" lon="1.93422">
        <ele>136.16</ele>
        <time>2008-04-06T06:41:22Z</time>
      </trkpt>
      <trkpt lat="48.68687" lon="1.9342">
        <ele>135.68</ele>
        <time>2008-04-06T06:41:23Z</time>
      </trkpt>
      <trkpt lat="48.68692" lon="1.93409">
        <ele>132.8</ele>
        <time>2008-04-06T06:41:29Z</time>
      </trkpt>
      <trkpt lat="48.68694" lon="1.93401">
        <ele>135.68</ele>
        <time>2008-04-06T06:41:33Z</time>
      </trkpt>
      <trkpt lat="48.68702" lon="1.93393">
        <ele>142.89</ele>
        <time>2008-04-06T06:41:39Z</time>
      </trkpt>
      <trkpt lat="48.68704" lon="1.93378">
        <ele>146.26</ele>
        <time>2008-04-06T06:41:45Z</time>
      </trkpt>
      <trkpt lat="48.68707" lon="1.93368">
        <ele>146.74</ele>
        <time>2008-04-06T06:41:50Z</time>
      </trkpt>
      <trkpt lat="48.68705" lon="1.93353">
        <ele>149.62</ele>
        <time>2008-04-06T06:41:54Z</time>
      </trkpt>
      <trkpt lat="48.6871" lon="1.93349">
        <ele>146.26</ele>
        <time>2008-04-06T06:41:57Z</time>
      </trkpt>
      <trkpt lat="48.68714" lon="1.93343">
        <ele>142.89</ele>
        <time>2008-04-06T06:42:02Z</time>
      </trkpt>
      <trkpt lat="48.68721" lon="1.93337">
        <ele>145.3</ele>
        <time>2008-04-06T06:42:09Z</time>
      </trkpt>
      <trkpt lat="48.68723" lon="1.93338">
        <ele>145.78</ele>
        <time>2008-04-06T06:42:10Z</time>
      </trkpt>
      <trkpt lat="48.68728" lon="1.93334">
        <ele>146.26</ele>
        <time>2008-04-06T06:42:15Z</time>
      </trkpt>
      <trkpt lat="48.68734" lon="1.93333">
        <ele>148.66</ele>
        <time>2008-04-06T06:42:20Z</time>
      </trkpt>
      <trkpt lat="48.68735" lon="1.93333">
        <ele>148.18</ele>
        <time>2008-04-06T06:42:21Z</time>
      </trkpt>
      <trkpt lat="48.6874" lon="1.93325">
        <ele>143.37</ele>
        <time>2008-04-06T06:42:29Z</time>
      </trkpt>
      <trkpt lat="48.6874" lon="1.93312">
        <ele>142.89</ele>
        <time>2008-04-06T06:42:37Z</time>
      </trkpt>
      <trkpt lat="48.68741" lon="1.93307">
        <ele>140.01</ele>
        <time>2008-04-06T06:42:41Z</time>
      </trkpt>
      <trkpt lat="48.68736" lon="1.93303">
        <ele>143.37</ele>
        <time>2008-04-06T06:42:44Z</time>
      </trkpt>
      <trkpt lat="48.68734" lon="1.93292">
        <ele>146.74</ele>
        <time>2008-04-06T06:42:51Z</time>
      </trkpt>
      <trkpt lat="48.68735" lon="1.93285">
        <ele>151.06</ele>
        <time>2008-04-06T06:42:56Z</time>
      </trkpt>
      <trkpt lat="48.68735" lon="1.93281">
        <ele>152.03</ele>
        <time>2008-04-06T06:42:58Z</time>
      </trkpt>
      <trkpt lat="48.68735" lon="1.93269">
        <ele>152.51</ele>
        <time>2008-04-06T06:43:03Z</time>
      </trkpt>
      <trkpt lat="48.68736" lon="1.93266">
        <ele>152.51</ele>
        <time>2008-04-06T06:43:04Z</time>
      </trkpt>
      <trkpt lat="48.68738" lon="1.93259">
        <ele>151.54</ele>
        <time>2008-04-06T06:43:07Z</time>
      </trkpt>
      <trkpt lat="48.68737" lon="1.93251">
        <ele>150.58</ele>
        <time>2008-04-06T06:43:12Z</time>
      </trkpt>
      <trkpt lat="48.68737" lon="1.93249">
        <ele>151.06</ele>
        <time>2008-04-06T06:43:13Z</time>
      </trkpt>
      <trkpt lat="48.68744" lon="1.93234">
        <ele>150.1</ele>
        <time>2008-04-06T06:43:19Z</time>
      </trkpt>
      <trkpt lat="48.68752" lon="1.9322">
        <ele>143.37</ele>
        <time>2008-04-06T06:43:23Z</time>
      </trkpt>
      <trkpt lat="48.68752" lon="1.93214">
        <ele>142.89</ele>
        <time>2008-04-06T06:43:25Z</time>
      </trkpt>
      <trkpt lat="48.68752" lon="1.9319">
        <ele>144.34</ele>
        <time>2008-04-06T06:43:31Z</time>
      </trkpt>
      <trkpt lat="48.68749" lon="1.93183">
        <ele>143.85</ele>
        <time>2008-04-06T06:43:33Z</time>
      </trkpt>
      <trkpt lat="48.68752" lon="1.93155">
        <ele>134.24</ele>
        <time>2008-04-06T06:43:40Z</time>
      </trkpt>
      <trkpt lat="48.68757" lon="1.93129">
        <ele>129.43</ele>
        <time>2008-04-06T06:43:47Z</time>
      </trkpt>
      <trkpt lat="48.68761" lon="1.9311">
        <ele>127.03</ele>
        <time>2008-04-06T06:43:52Z</time>
      </trkpt>
      <trkpt lat="48.68766" lon="1.93096">
        <ele>125.59</ele>
        <time>2008-04-06T06:43:56Z</time>
      </trkpt>
      <trkpt lat="48.68767" lon="1.93093">
        <ele>127.03</ele>
        <time>2008-04-06T06:43:57Z</time>
      </trkpt>
      <trkpt lat="48.68768" lon="1.93085">
        <ele>138.57</ele>
        <time>2008-04-06T06:44:01Z</time>
      </trkpt>
      <trkpt lat="48.68774" lon="1.93078">
        <ele>143.85</ele>
        <time>2008-04-06T06:44:08Z</time>
      </trkpt>
      <trkpt lat="48.68776" lon="1.93076">
        <ele>144.82</ele>
        <time>2008-04-06T06:44:10Z</time>
      </trkpt>
      <trkpt lat="48.6878" lon="1.9307">
        <ele>151.06</ele>
        <time>2008-04-06T06:44:18Z</time>
      </trkpt>
      <trkpt lat="48.68786" lon="1.93067">
        <ele>153.95</ele>
        <time>2008-04-06T06:44:23Z</time>
      </trkpt>
      <trkpt lat="48.6879" lon="1.93059">
        <ele>157.79</ele>
        <time>2008-04-06T06:44:27Z</time>
      </trkpt>
      <trkpt lat="48.68802" lon="1.93048">
        <ele>156.35</ele>
        <time>2008-04-06T06:44:33Z</time>
      </trkpt>
      <trkpt lat="48.68806" lon="1.93032">
        <ele>151.06</ele>
        <time>2008-04-06T06:44:37Z</time>
      </trkpt>
      <trkpt lat="48.68803" lon="1.93017">
        <ele>151.54</ele>
        <time>2008-04-06T06:44:40Z</time>
      </trkpt>
      <trkpt lat="48.6881" lon="1.92986">
        <ele>143.85</ele>
        <time>2008-04-06T06:44:47Z</time>
      </trkpt>
      <trkpt lat="48.68818" lon="1.92973">
        <ele>140.01</ele>
        <time>2008-04-06T06:44:51Z</time>
      </trkpt>
      <trkpt lat="48.6882" lon="1.9296">
        <ele>147.22</ele>
        <time>2008-04-06T06:44:54Z</time>
      </trkpt>
      <trkpt lat="48.68819" lon="1.92946">
        <ele>146.26</ele>
        <time>2008-04-06T06:44:59Z</time>
      </trkpt>
      <trkpt lat="48.68821" lon="1.9294">
        <ele>143.37</ele>
        <time>2008-04-06T06:45:01Z</time>
      </trkpt>
      <trkpt lat="48.68821" lon="1.92929">
        <ele>141.45</ele>
        <time>2008-04-06T06:45:04Z</time>
      </trkpt>
      <trkpt lat="48.68807" lon="1.92911">
        <ele>137.13</ele>
        <time>2008-04-06T06:45:10Z</time>
      </trkpt>
      <trkpt lat="48.68805" lon="1.92891">
        <ele>139.05</ele>
        <time>2008-04-06T06:45:15Z</time>
      </trkpt>
      <trkpt lat="48.68811" lon="1.92879">
        <ele>140.49</ele>
        <time>2008-04-06T06:45:20Z</time>
      </trkpt>
      <trkpt lat="48.6882" lon="1.92869">
        <ele>141.93</ele>
        <time>2008-04-06T06:45:25Z</time>
      </trkpt>
      <trkpt lat="48.68829" lon="1.92847">
        <ele>151.06</ele>
        <time>2008-04-06T06:45:32Z</time>
      </trkpt>
      <trkpt lat="48.68833" lon="1.92837">
        <ele>152.51</ele>
        <time>2008-04-06T06:45:36Z</time>
      </trkpt>
      <trkpt lat="48.68833" lon="1.9283">
        <ele>152.03</ele>
        <time>2008-04-06T06:45:39Z</time>
      </trkpt>
      <trkpt lat="48.68834" lon="1.92825">
        <ele>150.58</ele>
        <time>2008-04-06T06:45:42Z</time>
      </trkpt>
      <trkpt lat="48.68834" lon="1.92816">
        <ele>145.3</ele>
        <time>2008-04-06T06:45:48Z</time>
      </trkpt>
      <trkpt lat="48.68834" lon="1.92809">
        <ele>142.89</ele>
        <time>2008-04-06T06:45:54Z</time>
      </trkpt>
      <trkpt lat="48.68834" lon="1.92801">
        <ele>140.97</ele>
        <time>2008-04-06T06:46:00Z</time>
      </trkpt>
      <trkpt lat="48.68836" lon="1.92794">
        <ele>135.68</ele>
        <time>2008-04-06T06:46:07Z</time>
      </trkpt>
      <trkpt lat="48.68848" lon="1.92783">
        <ele>134.24</ele>
        <time>2008-04-06T06:46:13Z</time>
      </trkpt>
      <trkpt lat="48.68851" lon="1.92772">
        <ele>139.05</ele>
        <time>2008-04-06T06:46:17Z</time>
      </trkpt>
      <trkpt lat="48.68854" lon="1.92768">
        <ele>140.97</ele>
        <time>2008-04-06T06:46:19Z</time>
      </trkpt>
      <trkpt lat="48.68858" lon="1.92751">
        <ele>143.37</ele>
        <time>2008-04-06T06:46:28Z</time>
      </trkpt>
      <trkpt lat="48.6886" lon="1.92741">
        <ele>146.74</ele>
        <time>2008-04-06T06:46:33Z</time>
      </trkpt>
      <trkpt lat="48.68865" lon="1.92732">
        <ele>148.18</ele>
        <time>2008-04-06T06:46:40Z</time>
      </trkpt>
      <trkpt lat="48.68868" lon="1.92724">
        <ele>151.54</ele>
        <time>2008-04-06T06:46:45Z</time>
      </trkpt>
      <trkpt lat="48.68875" lon="1.92714">
        <ele>149.14</ele>
        <time>2008-04-06T06:46:51Z</time>
      </trkpt>
      <trkpt lat="48.68882" lon="1.92706">
        <ele>145.3</ele>
        <time>2008-04-06T06:46:55Z</time>
      </trkpt>
      <trkpt lat="48.68887" lon="1.92699">
        <ele>141.45</ele>
        <time>2008-04-06T06:46:59Z</time>
      </trkpt>
      <trkpt lat="48.68886" lon="1.92687">
        <ele>142.41</ele>
        <time>2008-04-06T06:47:04Z</time>
      </trkpt>
      <trkpt lat="48.68882" lon="1.92671">
        <ele>144.34</ele>
        <time>2008-04-06T06:47:08Z</time>
      </trkpt>
      <trkpt lat="48.68883" lon="1.92646">
        <ele>152.03</ele>
        <time>2008-04-06T06:47:14Z</time>
      </trkpt>
      <trkpt lat="48.68888" lon="1.92643">
        <ele>151.06</ele>
        <time>2008-04-06T06:47:17Z</time>
      </trkpt>
      <trkpt lat="48.6889" lon="1.92638">
        <ele>152.99</ele>
        <time>2008-04-06T06:47:20Z</time>
      </trkpt>
      <trkpt lat="48.68898" lon="1.92639">
        <ele>149.14</ele>
        <time>2008-04-06T06:47:24Z</time>
      </trkpt>
      <trkpt lat="48.68902" lon="1.92638">
        <ele>147.22</ele>
        <time>2008-04-06T06:47:29Z</time>
      </trkpt>
      <trkpt lat="48.68905" lon="1.92635">
        <ele>149.14</ele>
        <time>2008-04-06T06:47:31Z</time>
      </trkpt>
      <trkpt lat="48.68913" lon="1.92636">
        <ele>152.51</ele>
        <time>2008-04-06T06:47:37Z</time>
      </trkpt>
      <trkpt lat="48.68915" lon="1.92635">
        <ele>153.47</ele>
        <time>2008-04-06T06:47:39Z</time>
      </trkpt>
      <trkpt lat="48.68921" lon="1.92635">
        <ele>152.99</ele>
        <time>2008-04-06T06:47:46Z</time>
      </trkpt>
      <trkpt lat="48.68926" lon="1.92638">
        <ele>152.03</ele>
        <time>2008-04-06T06:47:51Z</time>
      </trkpt>
      <trkpt lat="48.6893" lon="1.92635">
        <ele>149.62</ele>
        <time>2008-04-06T06:47:56Z</time>
      </trkpt>
      <trkpt lat="48.68932" lon="1.92634">
        <ele>150.1</ele>
        <time>2008-04-06T06:47:58Z</time>
      </trkpt>
      <trkpt lat="48.68937" lon="1.92628">
        <ele>150.1</ele>
        <time>2008-04-06T06:48:04Z</time>
      </trkpt>
      <trkpt lat="48.68942" lon="1.92624">
        <ele>153.47</ele>
        <time>2008-04-06T06:48:11Z</time>
      </trkpt>
      <trkpt lat="48.68943" lon="1.92618">
        <ele>159.72</ele>
        <time>2008-04-06T06:48:17Z</time>
      </trkpt>
      <trkpt lat="48.68946" lon="1.92609">
        <ele>161.64</ele>
        <time>2008-04-06T06:48:25Z</time>
      </trkpt>
      <trkpt lat="48.68949" lon="1.9261">
        <ele>161.64</ele>
        <time>2008-04-06T06:48:27Z</time>
      </trkpt>
      <trkpt lat="48.68952" lon="1.92611">
        <ele>161.16</ele>
        <time>2008-04-06T06:48:29Z</time>
      </trkpt>
      <trkpt lat="48.68956" lon="1.92609">
        <ele>160.68</ele>
        <time>2008-04-06T06:48:34Z</time>
      </trkpt>
      <trkpt lat="48.68956" lon="1.92598">
        <ele>161.16</ele>
        <time>2008-04-06T06:48:42Z</time>
      </trkpt>
      <trkpt lat="48.68956" lon="1.92588">
        <ele>162.12</ele>
        <time>2008-04-06T06:48:46Z</time>
      </trkpt>
      <trkpt lat="48.68958" lon="1.92575">
        <ele>158.75</ele>
        <time>2008-04-06T06:48:50Z</time>
      </trkpt>
      <trkpt lat="48.68953" lon="1.92557">
        <ele>153.95</ele>
        <time>2008-04-06T06:48:55Z</time>
      </trkpt>
      <trkpt lat="48.68948" lon="1.92536">
        <ele>151.06</ele>
        <time>2008-04-06T06:49:00Z</time>
      </trkpt>
      <trkpt lat="48.68949" lon="1.92518">
        <ele>151.54</ele>
        <time>2008-04-06T06:49:04Z</time>
      </trkpt>
      <trkpt lat="48.68951" lon="1.92508">
        <ele>150.1</ele>
        <time>2008-04-06T06:49:07Z</time>
      </trkpt>
      <trkpt lat="48.68957" lon="1.92494">
        <ele>152.03</ele>
        <time>2008-04-06T06:49:13Z</time>
      </trkpt>
      <trkpt lat="48.68967" lon="1.92481">
        <ele>152.51</ele>
        <time>2008-04-06T06:49:19Z</time>
      </trkpt>
      <trkpt lat="48.68978" lon="1.92473">
        <ele>152.03</ele>
        <time>2008-04-06T06:49:23Z</time>
      </trkpt>
      <trkpt lat="48.68986" lon="1.92464">
        <ele>151.06</ele>
        <time>2008-04-06T06:49:27Z</time>
      </trkpt>
      <trkpt lat="48.68995" lon="1.92452">
        <ele>152.03</ele>
        <time>2008-04-06T06:49:31Z</time>
      </trkpt>
      <trkpt lat="48.68999" lon="1.92442">
        <ele>148.66</ele>
        <time>2008-04-06T06:49:36Z</time>
      </trkpt>
      <trkpt lat="48.69" lon="1.9244">
        <ele>147.22</ele>
        <time>2008-04-06T06:49:37Z</time>
      </trkpt>
      <trkpt lat="48.69003" lon="1.92427">
        <ele>140.97</ele>
        <time>2008-04-06T06:49:43Z</time>
      </trkpt>
      <trkpt lat="48.69008" lon="1.92413">
        <ele>135.68</ele>
        <time>2008-04-06T06:49:48Z</time>
      </trkpt>
      <trkpt lat="48.69012" lon="1.92395">
        <ele>137.13</ele>
        <time>2008-04-06T06:49:54Z</time>
      </trkpt>
      <trkpt lat="48.69013" lon="1.9239">
        <ele>138.09</ele>
        <time>2008-04-06T06:49:55Z</time>
      </trkpt>
      <trkpt lat="48.69012" lon="1.92371">
        <ele>142.89</ele>
        <time>2008-04-06T06:49:59Z</time>
      </trkpt>
      <trkpt lat="48.69016" lon="1.92352">
        <ele>150.1</ele>
        <time>2008-04-06T06:50:04Z</time>
      </trkpt>
      <trkpt lat="48.69024" lon="1.92349">
        <ele>151.06</ele>
        <time>2008-04-06T06:50:09Z</time>
      </trkpt>
      <trkpt lat="48.69028" lon="1.92338">
        <ele>148.66</ele>
        <time>2008-04-06T06:50:14Z</time>
      </trkpt>
      <trkpt lat="48.69028" lon="1.92324">
        <ele>145.78</ele>
        <time>2008-04-06T06:50:19Z</time>
      </trkpt>
      <trkpt lat="48.69028" lon="1.92312">
        <ele>144.34</ele>
        <time>2008-04-06T06:50:23Z</time>
      </trkpt>
      <trkpt lat="48.69029" lon="1.92309">
        <ele>143.37</ele>
        <time>2008-04-06T06:50:24Z</time>
      </trkpt>
      <trkpt lat="48.6903" lon="1.92285">
        <ele>141.93</ele>
        <time>2008-04-06T06:50:30Z</time>
      </trkpt>
      <trkpt lat="48.69033" lon="1.92268">
        <ele>144.82</ele>
        <time>2008-04-06T06:50:34Z</time>
      </trkpt>
      <trkpt lat="48.69042" lon="1.92256">
        <ele>138.57</ele>
        <time>2008-04-06T06:50:40Z</time>
      </trkpt>
      <trkpt lat="48.69043" lon="1.92254">
        <ele>138.57</ele>
        <time>2008-04-06T06:50:41Z</time>
      </trkpt>
      <trkpt lat="48.69049" lon="1.92249">
        <ele>139.05</ele>
        <time>2008-04-06T06:50:47Z</time>
      </trkpt>
      <trkpt lat="48.69056" lon="1.92244">
        <ele>138.57</ele>
        <time>2008-04-06T06:50:53Z</time>
      </trkpt>
      <trkpt lat="48.69061" lon="1.9224">
        <ele>139.53</ele>
        <time>2008-04-06T06:50:58Z</time>
      </trkpt>
      <trkpt lat="48.69062" lon="1.92239">
        <ele>140.49</ele>
        <time>2008-04-06T06:50:59Z</time>
      </trkpt>
      <trkpt lat="48.69065" lon="1.92235">
        <ele>143.37</ele>
        <time>2008-04-06T06:51:04Z</time>
      </trkpt>
      <trkpt lat="48.69069" lon="1.9223">
        <ele>141.93</ele>
        <time>2008-04-06T06:51:08Z</time>
      </trkpt>
      <trkpt lat="48.69071" lon="1.92228">
        <ele>143.37</ele>
        <time>2008-04-06T06:51:10Z</time>
      </trkpt>
      <trkpt lat="48.69077" lon="1.92214">
        <ele>149.62</ele>
        <time>2008-04-06T06:51:18Z</time>
      </trkpt>
      <trkpt lat="48.69078" lon="1.9221">
        <ele>149.62</ele>
        <time>2008-04-06T06:51:21Z</time>
      </trkpt>
      <trkpt lat="48.69079" lon="1.92201">
        <ele>152.03</ele>
        <time>2008-04-06T06:51:26Z</time>
      </trkpt>
      <trkpt lat="48.69082" lon="1.92193">
        <ele>152.51</ele>
        <time>2008-04-06T06:51:34Z</time>
      </trkpt>
      <trkpt lat="48.69083" lon="1.92175">
        <ele>156.35</ele>
        <time>2008-04-06T06:51:44Z</time>
      </trkpt>
      <trkpt lat="48.69083" lon="1.92171">
        <ele>155.39</ele>
        <time>2008-04-06T06:51:47Z</time>
      </trkpt>
      <trkpt lat="48.69085" lon="1.92162">
        <ele>158.75</ele>
        <time>2008-04-06T06:51:54Z</time>
      </trkpt>
      <trkpt lat="48.69088" lon="1.92151">
        <ele>162.6</ele>
        <time>2008-04-06T06:52:00Z</time>
      </trkpt>
      <trkpt lat="48.69089" lon="1.92143">
        <ele>162.12</ele>
        <time>2008-04-06T06:52:04Z</time>
      </trkpt>
      <trkpt lat="48.69092" lon="1.92138">
        <ele>159.72</ele>
        <time>2008-04-06T06:52:07Z</time>
      </trkpt>
      <trkpt lat="48.6909" lon="1.92126">
        <ele>159.72</ele>
        <time>2008-04-06T06:52:12Z</time>
      </trkpt>
      <trkpt lat="48.69093" lon="1.92117">
        <ele>157.79</ele>
        <time>2008-04-06T06:52:15Z</time>
      </trkpt>
      <trkpt lat="48.69095" lon="1.92112">
        <ele>157.31</ele>
        <time>2008-04-06T06:52:17Z</time>
      </trkpt>
      <trkpt lat="48.69092" lon="1.921">
        <ele>150.1</ele>
        <time>2008-04-06T06:52:22Z</time>
      </trkpt>
      <trkpt lat="48.69092" lon="1.92094">
        <ele>148.18</ele>
        <time>2008-04-06T06:52:24Z</time>
      </trkpt>
      <trkpt lat="48.69091" lon="1.92088">
        <ele>145.78</ele>
        <time>2008-04-06T06:52:26Z</time>
      </trkpt>
      <trkpt lat="48.6909" lon="1.92069">
        <ele>142.89</ele>
        <time>2008-04-06T06:52:31Z</time>
      </trkpt>
      <trkpt lat="48.69093" lon="1.92056">
        <ele>140.49</ele>
        <time>2008-04-06T06:52:35Z</time>
      </trkpt>
      <trkpt lat="48.69096" lon="1.92052">
        <ele>140.01</ele>
        <time>2008-04-06T06:52:37Z</time>
      </trkpt>
      <trkpt lat="48.69103" lon="1.92039">
        <ele>141.93</ele>
        <time>2008-04-06T06:52:43Z</time>
      </trkpt>
      <trkpt lat="48.69107" lon="1.92029">
        <ele>140.49</ele>
        <time>2008-04-06T06:52:46Z</time>
      </trkpt>
      <trkpt lat="48.69109" lon="1.92014">
        <ele>143.37</ele>
        <time>2008-04-06T06:52:50Z</time>
      </trkpt>
      <trkpt lat="48.6911" lon="1.92004">
        <ele>141.93</ele>
        <time>2008-04-06T06:52:53Z</time>
      </trkpt>
      <trkpt lat="48.691" lon="1.91993">
        <ele>139.53</ele>
        <time>2008-04-06T06:52:58Z</time>
      </trkpt>
      <trkpt lat="48.69098" lon="1.91987">
        <ele>139.53</ele>
        <time>2008-04-06T06:53:00Z</time>
      </trkpt>
      <trkpt lat="48.69098" lon="1.91981">
        <ele>140.97</ele>
        <time>2008-04-06T06:53:03Z</time>
      </trkpt>
      <trkpt lat="48.691" lon="1.91971">
        <ele>147.22</ele>
        <time>2008-04-06T06:53:07Z</time>
      </trkpt>
      <trkpt lat="48.69102" lon="1.91967">
        <ele>146.74</ele>
        <time>2008-04-06T06:53:09Z</time>
      </trkpt>
      <trkpt lat="48.69107" lon="1.91956">
        <ele>144.82</ele>
        <time>2008-04-06T06:53:15Z</time>
      </trkpt>
      <trkpt lat="48.69114" lon="1.91947">
        <ele>145.78</ele>
        <time>2008-04-06T06:53:20Z</time>
      </trkpt>
      <trkpt lat="48.6912" lon="1.9194">
        <ele>146.26</ele>
        <time>2008-04-06T06:53:24Z</time>
      </trkpt>
      <trkpt lat="48.69129" lon="1.91938">
        <ele>145.78</ele>
        <time>2008-04-06T06:53:29Z</time>
      </trkpt>
      <trkpt lat="48.6914" lon="1.9194">
        <ele>145.78</ele>
        <time>2008-04-06T06:53:35Z</time>
      </trkpt>
      <trkpt lat="48.69142" lon="1.91941">
        <ele>145.3</ele>
        <time>2008-04-06T06:53:36Z</time>
      </trkpt>
      <trkpt lat="48.69155" lon="1.91936">
        <ele>148.18</ele>
        <time>2008-04-06T06:53:43Z</time>
      </trkpt>
      <trkpt lat="48.69166" lon="1.91941">
        <ele>147.22</ele>
        <time>2008-04-06T06:53:47Z</time>
      </trkpt>
      <trkpt lat="48.6917" lon="1.91943">
        <ele>147.22</ele>
        <time>2008-04-06T06:53:49Z</time>
      </trkpt>
      <trkpt lat="48.69173" lon="1.91938">
        <ele>147.7</ele>
        <time>2008-04-06T06:53:53Z</time>
      </trkpt>
      <trkpt lat="48.69174" lon="1.91931">
        <ele>149.14</ele>
        <time>2008-04-06T06:53:57Z</time>
      </trkpt>
      <trkpt lat="48.69171" lon="1.91912">
        <ele>155.39</ele>
        <time>2008-04-06T06:54:02Z</time>
      </trkpt>
      <trkpt lat="48.6917" lon="1.91891">
        <ele>158.27</ele>
        <time>2008-04-06T06:54:06Z</time>
      </trkpt>
      <trkpt lat="48.6918" lon="1.91866">
        <ele>160.2</ele>
        <time>2008-04-06T06:54:12Z</time>
      </trkpt>
      <trkpt lat="48.69187" lon="1.9185">
        <ele>161.64</ele>
        <time>2008-04-06T06:54:17Z</time>
      </trkpt>
      <trkpt lat="48.69198" lon="1.91835">
        <ele>156.35</ele>
        <time>2008-04-06T06:54:22Z</time>
      </trkpt>
      <trkpt lat="48.69209" lon="1.91826">
        <ele>152.03</ele>
        <time>2008-04-06T06:54:27Z</time>
      </trkpt>
      <trkpt lat="48.69213" lon="1.91821">
        <ele>150.58</ele>
        <time>2008-04-06T06:54:30Z</time>
      </trkpt>
      <trkpt lat="48.69218" lon="1.91814">
        <ele>148.66</ele>
        <time>2008-04-06T06:54:34Z</time>
      </trkpt>
      <trkpt lat="48.69227" lon="1.91808">
        <ele>150.58</ele>
        <time>2008-04-06T06:54:40Z</time>
      </trkpt>
      <trkpt lat="48.69234" lon="1.91808">
        <ele>148.66</ele>
        <time>2008-04-06T06:54:45Z</time>
      </trkpt>
      <trkpt lat="48.69241" lon="1.91802">
        <ele>148.66</ele>
        <time>2008-04-06T06:54:51Z</time>
      </trkpt>
      <trkpt lat="48.69247" lon="1.91797">
        <ele>151.06</ele>
        <time>2008-04-06T06:54:57Z</time>
      </trkpt>
      <trkpt lat="48.69249" lon="1.9179">
        <ele>152.99</ele>
        <time>2008-04-06T06:55:01Z</time>
      </trkpt>
      <trkpt lat="48.69254" lon="1.91781">
        <ele>151.54</ele>
        <time>2008-04-06T06:55:06Z</time>
      </trkpt>
      <trkpt lat="48.69254" lon="1.91762">
        <ele>146.74</ele>
        <time>2008-04-06T06:55:12Z</time>
      </trkpt>
      <trkpt lat="48.69257" lon="1.91748">
        <ele>141.93</ele>
        <time>2008-04-06T06:55:16Z</time>
      </trkpt>
      <trkpt lat="48.69262" lon="1.91733">
        <ele>139.05</ele>
        <time>2008-04-06T06:55:20Z</time>
      </trkpt>
      <trkpt lat="48.69265" lon="1.91712">
        <ele>135.2</ele>
        <time>2008-04-06T06:55:25Z</time>
      </trkpt>
      <trkpt lat="48.69268" lon="1.91702">
        <ele>133.76</ele>
        <time>2008-04-06T06:55:27Z</time>
      </trkpt>
      <trkpt lat="48.69279" lon="1.91697">
        <ele>133.28</ele>
        <time>2008-04-06T06:55:32Z</time>
      </trkpt>
      <trkpt lat="48.6928" lon="1.91691">
        <ele>138.09</ele>
        <time>2008-04-06T06:55:34Z</time>
      </trkpt>
      <trkpt lat="48.69287" lon="1.91689">
        <ele>140.97</ele>
        <time>2008-04-06T06:55:38Z</time>
      </trkpt>
      <trkpt lat="48.69294" lon="1.9168">
        <ele>143.85</ele>
        <time>2008-04-06T06:55:43Z</time>
      </trkpt>
      <trkpt lat="48.693" lon="1.91669">
        <ele>142.41</ele>
        <time>2008-04-06T06:55:47Z</time>
      </trkpt>
      <trkpt lat="48.69304" lon="1.91664">
        <ele>142.41</ele>
        <time>2008-04-06T06:55:49Z</time>
      </trkpt>
      <trkpt lat="48.6931" lon="1.91654">
        <ele>145.3</ele>
        <time>2008-04-06T06:55:55Z</time>
      </trkpt>
      <trkpt lat="48.69318" lon="1.9165">
        <ele>146.74</ele>
        <time>2008-04-06T06:56:02Z</time>
      </trkpt>
      <trkpt lat="48.69324" lon="1.91645">
        <ele>148.66</ele>
        <time>2008-04-06T06:56:07Z</time>
      </trkpt>
      <trkpt lat="48.69328" lon="1.91644">
        <ele>148.66</ele>
        <time>2008-04-06T06:56:11Z</time>
      </trkpt>
      <trkpt lat="48.69329" lon="1.91642">
        <ele>150.1</ele>
        <time>2008-04-06T06:56:13Z</time>
      </trkpt>
      <trkpt lat="48.69334" lon="1.91619">
        <ele>149.14</ele>
        <time>2008-04-06T06:56:19Z</time>
      </trkpt>
      <trkpt lat="48.69336" lon="1.91612">
        <ele>147.22</ele>
        <time>2008-04-06T06:56:21Z</time>
      </trkpt>
      <trkpt lat="48.69338" lon="1.91602">
        <ele>143.37</ele>
        <time>2008-04-06T06:56:24Z</time>
      </trkpt>
      <trkpt lat="48.69344" lon="1.91583">
        <ele>138.57</ele>
        <time>2008-04-06T06:56:30Z</time>
      </trkpt>
      <trkpt lat="48.69344" lon="1.91579">
        <ele>140.01</ele>
        <time>2008-04-06T06:56:31Z</time>
      </trkpt>
      <trkpt lat="48.69346" lon="1.91568">
        <ele>140.49</ele>
        <time>2008-04-06T06:56:34Z</time>
      </trkpt>
      <trkpt lat="48.69346" lon="1.9155">
        <ele>133.28</ele>
        <time>2008-04-06T06:56:40Z</time>
      </trkpt>
      <trkpt lat="48.69345" lon="1.91542">
        <ele>135.2</ele>
        <time>2008-04-06T06:56:42Z</time>
      </trkpt>
      <trkpt lat="48.69346" lon="1.91527">
        <ele>137.13</ele>
        <time>2008-04-06T06:56:47Z</time>
      </trkpt>
      <trkpt lat="48.69351" lon="1.91524">
        <ele>133.76</ele>
        <time>2008-04-06T06:56:50Z</time>
      </trkpt>
      <trkpt lat="48.69354" lon="1.91515">
        <ele>134.72</ele>
        <time>2008-04-06T06:56:54Z</time>
      </trkpt>
      <trkpt lat="48.69361" lon="1.91504">
        <ele>133.76</ele>
        <time>2008-04-06T06:56:59Z</time>
      </trkpt>
      <trkpt lat="48.69361" lon="1.91499">
        <ele>129.43</ele>
        <time>2008-04-06T06:57:03Z</time>
      </trkpt>
      <trkpt lat="48.69352" lon="1.91482">
        <ele>129.92</ele>
        <time>2008-04-06T06:57:08Z</time>
      </trkpt>
      <trkpt lat="48.69345" lon="1.91469">
        <ele>128.95</ele>
        <time>2008-04-06T06:57:12Z</time>
      </trkpt>
      <trkpt lat="48.69339" lon="1.91452">
        <ele>129.92</ele>
        <time>2008-04-06T06:57:16Z</time>
      </trkpt>
      <trkpt lat="48.69331" lon="1.9143">
        <ele>132.32</ele>
        <time>2008-04-06T06:57:21Z</time>
      </trkpt>
      <trkpt lat="48.69326" lon="1.91412">
        <ele>130.88</ele>
        <time>2008-04-06T06:57:25Z</time>
      </trkpt>
      <trkpt lat="48.69321" lon="1.91392">
        <ele>127.51</ele>
        <time>2008-04-06T06:57:30Z</time>
      </trkpt>
      <trkpt lat="48.69318" lon="1.91367">
        <ele>128.47</ele>
        <time>2008-04-06T06:57:36Z</time>
      </trkpt>
      <trkpt lat="48.69319" lon="1.91352">
        <ele>130.4</ele>
        <time>2008-04-06T06:57:40Z</time>
      </trkpt>
      <trkpt lat="48.69322" lon="1.9135">
        <ele>130.4</ele>
        <time>2008-04-06T06:57:42Z</time>
      </trkpt>
      <trkpt lat="48.69331" lon="1.91339">
        <ele>131.36</ele>
        <time>2008-04-06T06:57:47Z</time>
      </trkpt>
      <trkpt lat="48.69333" lon="1.91338">
        <ele>131.36</ele>
        <time>2008-04-06T06:57:48Z</time>
      </trkpt>
      <trkpt lat="48.69339" lon="1.91325">
        <ele>132.32</ele>
        <time>2008-04-06T06:57:54Z</time>
      </trkpt>
      <trkpt lat="48.69345" lon="1.91315">
        <ele>130.4</ele>
        <time>2008-04-06T06:57:58Z</time>
      </trkpt>
      <trkpt lat="48.6935" lon="1.91299">
        <ele>134.24</ele>
        <time>2008-04-06T06:58:04Z</time>
      </trkpt>
      <trkpt lat="48.69356" lon="1.91289">
        <ele>138.09</ele>
        <time>2008-04-06T06:58:08Z</time>
      </trkpt>
      <trkpt lat="48.69366" lon="1.91276">
        <ele>140.97</ele>
        <time>2008-04-06T06:58:14Z</time>
      </trkpt>
      <trkpt lat="48.69372" lon="1.91272">
        <ele>141.93</ele>
        <time>2008-04-06T06:58:17Z</time>
      </trkpt>
      <trkpt lat="48.69382" lon="1.9125">
        <ele>144.34</ele>
        <time>2008-04-06T06:58:24Z</time>
      </trkpt>
      <trkpt lat="48.69387" lon="1.9124">
        <ele>143.37</ele>
        <time>2008-04-06T06:58:27Z</time>
      </trkpt>
      <trkpt lat="48.69389" lon="1.91213">
        <ele>147.22</ele>
        <time>2008-04-06T06:58:33Z</time>
      </trkpt>
      <trkpt lat="48.69391" lon="1.91197">
        <ele>150.1</ele>
        <time>2008-04-06T06:58:36Z</time>
      </trkpt>
      <trkpt lat="48.69397" lon="1.91173">
        <ele>151.54</ele>
        <time>2008-04-06T06:58:43Z</time>
      </trkpt>
      <trkpt lat="48.69399" lon="1.91164">
        <ele>153.47</ele>
        <time>2008-04-06T06:58:45Z</time>
      </trkpt>
      <trkpt lat="48.69405" lon="1.91138">
        <ele>154.91</ele>
        <time>2008-04-06T06:58:51Z</time>
      </trkpt>
      <trkpt lat="48.69408" lon="1.91127">
        <ele>153.95</ele>
        <time>2008-04-06T06:58:54Z</time>
      </trkpt>
      <trkpt lat="48.69417" lon="1.91113">
        <ele>152.99</ele>
        <time>2008-04-06T06:58:59Z</time>
      </trkpt>
      <trkpt lat="48.69426" lon="1.91091">
        <ele>149.14</ele>
        <time>2008-04-06T06:59:05Z</time>
      </trkpt>
      <trkpt lat="48.69432" lon="1.91075">
        <ele>145.3</ele>
        <time>2008-04-06T06:59:09Z</time>
      </trkpt>
      <trkpt lat="48.6944" lon="1.91056">
        <ele>139.05</ele>
        <time>2008-04-06T06:59:14Z</time>
      </trkpt>
      <trkpt lat="48.69447" lon="1.91038">
        <ele>136.64</ele>
        <time>2008-04-06T06:59:19Z</time>
      </trkpt>
      <trkpt lat="48.6945" lon="1.91032">
        <ele>135.68</ele>
        <time>2008-04-06T06:59:21Z</time>
      </trkpt>
      <trkpt lat="48.69456" lon="1.9101">
        <ele>134.24</ele>
        <time>2008-04-06T06:59:27Z</time>
      </trkpt>
      <trkpt lat="48.69458" lon="1.91001">
        <ele>133.28</ele>
        <time>2008-04-06T06:59:30Z</time>
      </trkpt>
      <trkpt lat="48.69461" lon="1.90979">
        <ele>135.2</ele>
        <time>2008-04-06T06:59:35Z</time>
      </trkpt>
      <trkpt lat="48.69466" lon="1.90953">
        <ele>136.64</ele>
        <time>2008-04-06T06:59:42Z</time>
      </trkpt>
      <trkpt lat="48.69467" lon="1.90936">
        <ele>139.05</ele>
        <time>2008-04-06T06:59:46Z</time>
      </trkpt>
      <trkpt lat="48.69464" lon="1.90918">
        <ele>145.78</ele>
        <time>2008-04-06T06:59:50Z</time>
      </trkpt>
      <trkpt lat="48.69462" lon="1.90892">
        <ele>150.58</ele>
        <time>2008-04-06T06:59:55Z</time>
      </trkpt>
      <trkpt lat="48.69466" lon="1.90875">
        <ele>155.87</ele>
        <time>2008-04-06T06:59:59Z</time>
      </trkpt>
      <trkpt lat="48.69468" lon="1.90872">
        <ele>156.35</ele>
        <time>2008-04-06T07:00:00Z</time>
      </trkpt>
      <trkpt lat="48.69482" lon="1.90858">
        <ele>152.03</ele>
        <time>2008-04-06T07:00:06Z</time>
      </trkpt>
      <trkpt lat="48.69497" lon="1.90849">
        <ele>146.74</ele>
        <time>2008-04-06T07:00:11Z</time>
      </trkpt>
      <trkpt lat="48.69508" lon="1.9084">
        <ele>144.82</ele>
        <time>2008-04-06T07:00:15Z</time>
      </trkpt>
      <trkpt lat="48.69527" lon="1.90835">
        <ele>140.97</ele>
        <time>2008-04-06T07:00:21Z</time>
      </trkpt>
      <trkpt lat="48.69542" lon="1.90835">
        <ele>137.61</ele>
        <time>2008-04-06T07:00:26Z</time>
      </trkpt>
      <trkpt lat="48.6955" lon="1.90831">
        <ele>136.64</ele>
        <time>2008-04-06T07:00:30Z</time>
      </trkpt>
      <trkpt lat="48.69562" lon="1.90821">
        <ele>136.16</ele>
        <time>2008-04-06T07:00:35Z</time>
      </trkpt>
      <trkpt lat="48.6957" lon="1.90819">
        <ele>133.76</ele>
        <time>2008-04-06T07:00:38Z</time>
      </trkpt>
      <trkpt lat="48.69586" lon="1.90808">
        <ele>137.61</ele>
        <time>2008-04-06T07:00:44Z</time>
      </trkpt>
      <trkpt lat="48.69596" lon="1.90806">
        <ele>137.61</ele>
        <time>2008-04-06T07:00:48Z</time>
      </trkpt>
      <trkpt lat="48.69605" lon="1.90806">
        <ele>136.16</ele>
        <time>2008-04-06T07:00:52Z</time>
      </trkpt>
      <trkpt lat="48.69606" lon="1.90789">
        <ele>138.57</ele>
        <time>2008-04-06T07:00:57Z</time>
      </trkpt>
      <trkpt lat="48.69604" lon="1.90776">
        <ele>142.41</ele>
        <time>2008-04-06T07:01:00Z</time>
      </trkpt>
      <trkpt lat="48.69604" lon="1.90753">
        <ele>149.62</ele>
        <time>2008-04-06T07:01:06Z</time>
      </trkpt>
      <trkpt lat="48.69604" lon="1.90745">
        <ele>151.54</ele>
        <time>2008-04-06T07:01:08Z</time>
      </trkpt>
      <trkpt lat="48.69608" lon="1.90717">
        <ele>154.91</ele>
        <time>2008-04-06T07:01:14Z</time>
      </trkpt>
      <trkpt lat="48.69609" lon="1.90706">
        <ele>151.54</ele>
        <time>2008-04-06T07:01:18Z</time>
      </trkpt>
      <trkpt lat="48.69608" lon="1.90703">
        <ele>151.54</ele>
        <time>2008-04-06T07:01:19Z</time>
      </trkpt>
      <trkpt lat="48.69608" lon="1.9069">
        <ele>149.62</ele>
        <time>2008-04-06T07:01:24Z</time>
      </trkpt>
      <trkpt lat="48.6961" lon="1.90666">
        <ele>152.03</ele>
        <time>2008-04-06T07:01:30Z</time>
      </trkpt>
      <trkpt lat="48.69613" lon="1.90651">
        <ele>152.51</ele>
        <time>2008-04-06T07:01:34Z</time>
      </trkpt>
      <trkpt lat="48.69617" lon="1.90639">
        <ele>153.47</ele>
        <time>2008-04-06T07:01:38Z</time>
      </trkpt>
      <trkpt lat="48.6962" lon="1.90628">
        <ele>153.47</ele>
        <time>2008-04-06T07:01:41Z</time>
      </trkpt>
      <trkpt lat="48.69621" lon="1.90616">
        <ele>155.87</ele>
        <time>2008-04-06T07:01:44Z</time>
      </trkpt>
      <trkpt lat="48.69629" lon="1.90602">
        <ele>152.99</ele>
        <time>2008-04-06T07:01:49Z</time>
      </trkpt>
      <trkpt lat="48.69635" lon="1.90585">
        <ele>151.06</ele>
        <time>2008-04-06T07:01:54Z</time>
      </trkpt>
      <trkpt lat="48.69646" lon="1.90571">
        <ele>149.14</ele>
        <time>2008-04-06T07:02:00Z</time>
      </trkpt>
      <trkpt lat="48.6965" lon="1.90566">
        <ele>150.58</ele>
        <time>2008-04-06T07:02:02Z</time>
      </trkpt>
      <trkpt lat="48.69659" lon="1.90555">
        <ele>152.99</ele>
        <time>2008-04-06T07:02:07Z</time>
      </trkpt>
      <trkpt lat="48.69666" lon="1.90547">
        <ele>152.51</ele>
        <time>2008-04-06T07:02:10Z</time>
      </trkpt>
      <trkpt lat="48.69679" lon="1.90536">
        <ele>150.58</ele>
        <time>2008-04-06T07:02:15Z</time>
      </trkpt>
      <trkpt lat="48.6969" lon="1.90527">
        <ele>149.62</ele>
        <time>2008-04-06T07:02:20Z</time>
      </trkpt>
      <trkpt lat="48.69698" lon="1.90516">
        <ele>147.7</ele>
        <time>2008-04-06T07:02:24Z</time>
      </trkpt>
      <trkpt lat="48.69709" lon="1.90503">
        <ele>146.74</ele>
        <time>2008-04-06T07:02:29Z</time>
      </trkpt>
      <trkpt lat="48.69717" lon="1.90487">
        <ele>150.1</ele>
        <time>2008-04-06T07:02:34Z</time>
      </trkpt>
      <trkpt lat="48.69719" lon="1.90484">
        <ele>149.62</ele>
        <time>2008-04-06T07:02:35Z</time>
      </trkpt>
      <trkpt lat="48.69724" lon="1.90482">
        <ele>148.18</ele>
        <time>2008-04-06T07:02:37Z</time>
      </trkpt>
      <trkpt lat="48.69735" lon="1.90475">
        <ele>147.22</ele>
        <time>2008-04-06T07:02:42Z</time>
      </trkpt>
      <trkpt lat="48.6975" lon="1.90468">
        <ele>144.34</ele>
        <time>2008-04-06T07:02:47Z</time>
      </trkpt>
      <trkpt lat="48.69753" lon="1.90468">
        <ele>144.82</ele>
        <time>2008-04-06T07:02:48Z</time>
      </trkpt>
      <trkpt lat="48.69761" lon="1.90463">
        <ele>146.74</ele>
        <time>2008-04-06T07:02:52Z</time>
      </trkpt>
      <trkpt lat="48.69779" lon="1.9046">
        <ele>144.82</ele>
        <time>2008-04-06T07:02:58Z</time>
      </trkpt>
      <trkpt lat="48.69785" lon="1.9046">
        <ele>145.3</ele>
        <time>2008-04-06T07:03:00Z</time>
      </trkpt>
      <trkpt lat="48.69808" lon="1.90459">
        <ele>141.93</ele>
        <time>2008-04-06T07:03:07Z</time>
      </trkpt>
      <trkpt lat="48.69821" lon="1.90462">
        <ele>140.49</ele>
        <time>2008-04-06T07:03:12Z</time>
      </trkpt>
      <trkpt lat="48.69835" lon="1.9047">
        <ele>143.85</ele>
        <time>2008-04-06T07:03:18Z</time>
      </trkpt>
      <trkpt lat="48.6985" lon="1.90473">
        <ele>145.3</ele>
        <time>2008-04-06T07:03:23Z</time>
      </trkpt>
      <trkpt lat="48.69865" lon="1.90479">
        <ele>144.82</ele>
        <time>2008-04-06T07:03:28Z</time>
      </trkpt>
      <trkpt lat="48.69881" lon="1.90486">
        <ele>146.26</ele>
        <time>2008-04-06T07:03:33Z</time>
      </trkpt>
      <trkpt lat="48.69885" lon="1.90487">
        <ele>147.22</ele>
        <time>2008-04-06T07:03:34Z</time>
      </trkpt>
      <trkpt lat="48.699" lon="1.9049">
        <ele>139.05</ele>
        <time>2008-04-06T07:03:39Z</time>
      </trkpt>
      <trkpt lat="48.69904" lon="1.90498">
        <ele>144.34</ele>
        <time>2008-04-06T07:04:06Z</time>
      </trkpt>
      <trkpt lat="48.69912" lon="1.90503">
        <ele>147.7</ele>
        <time>2008-04-06T07:04:11Z</time>
      </trkpt>
      <trkpt lat="48.69915" lon="1.90506">
        <ele>147.22</ele>
        <time>2008-04-06T07:04:13Z</time>
      </trkpt>
      <trkpt lat="48.69928" lon="1.90513">
        <ele>143.85</ele>
        <time>2008-04-06T07:04:18Z</time>
      </trkpt>
      <trkpt lat="48.69941" lon="1.90516">
        <ele>142.89</ele>
        <time>2008-04-06T07:04:22Z</time>
      </trkpt>
      <trkpt lat="48.69947" lon="1.9052">
        <ele>144.82</ele>
        <time>2008-04-06T07:04:24Z</time>
      </trkpt>
      <trkpt lat="48.69971" lon="1.9053">
        <ele>150.58</ele>
        <time>2008-04-06T07:04:30Z</time>
      </trkpt>
      <trkpt lat="48.69981" lon="1.90542">
        <ele>153.47</ele>
        <time>2008-04-06T07:04:34Z</time>
      </trkpt>
      <trkpt lat="48.6999" lon="1.90554">
        <ele>150.58</ele>
        <time>2008-04-06T07:04:39Z</time>
      </trkpt>
      <trkpt lat="48.69996" lon="1.90557">
        <ele>146.26</ele>
        <time>2008-04-06T07:04:42Z</time>
      </trkpt>
      <trkpt lat="48.70006" lon="1.90555">
        <ele>138.57</ele>
        <time>2008-04-06T07:04:47Z</time>
      </trkpt>
      <trkpt lat="48.70019" lon="1.90555">
        <ele>133.76</ele>
        <time>2008-04-06T07:04:52Z</time>
      </trkpt>
      <trkpt lat="48.70026" lon="1.90554">
        <ele>130.88</ele>
        <time>2008-04-06T07:04:56Z</time>
      </trkpt>
      <trkpt lat="48.70037" lon="1.90558">
        <ele>131.84</ele>
        <time>2008-04-06T07:05:01Z</time>
      </trkpt>
      <trkpt lat="48.70036" lon="1.90545">
        <ele>135.2</ele>
        <time>2008-04-06T07:05:05Z</time>
      </trkpt>
      <trkpt lat="48.70031" lon="1.90532">
        <ele>139.05</ele>
        <time>2008-04-06T07:05:09Z</time>
      </trkpt>
      <trkpt lat="48.70031" lon="1.90514">
        <ele>140.97</ele>
        <time>2008-04-06T07:05:13Z</time>
      </trkpt>
      <trkpt lat="48.70029" lon="1.90502">
        <ele>140.49</ele>
        <time>2008-04-06T07:05:16Z</time>
      </trkpt>
      <trkpt lat="48.70024" lon="1.9049">
        <ele>142.41</ele>
        <time>2008-04-06T07:05:21Z</time>
      </trkpt>
      <trkpt lat="48.70023" lon="1.90466">
        <ele>147.7</ele>
        <time>2008-04-06T07:05:27Z</time>
      </trkpt>
      <trkpt lat="48.7002" lon="1.90461">
        <ele>149.62</ele>
        <time>2008-04-06T07:05:29Z</time>
      </trkpt>
      <trkpt lat="48.70018" lon="1.90447">
        <ele>152.99</ele>
        <time>2008-04-06T07:05:33Z</time>
      </trkpt>
      <trkpt lat="48.70016" lon="1.90427">
        <ele>150.1</ele>
        <time>2008-04-06T07:05:39Z</time>
      </trkpt>
      <trkpt lat="48.70012" lon="1.90408">
        <ele>146.26</ele>
        <time>2008-04-06T07:05:44Z</time>
      </trkpt>
      <trkpt lat="48.70006" lon="1.9039">
        <ele>144.82</ele>
        <time>2008-04-06T07:05:49Z</time>
      </trkpt>
      <trkpt lat="48.7" lon="1.90371">
        <ele>149.62</ele>
        <time>2008-04-06T07:05:53Z</time>
      </trkpt>
      <trkpt lat="48.69997" lon="1.90349">
        <ele>153.95</ele>
        <time>2008-04-06T07:05:57Z</time>
      </trkpt>
      <trkpt lat="48.69995" lon="1.90339">
        <ele>155.87</ele>
        <time>2008-04-06T07:06:00Z</time>
      </trkpt>
      <trkpt lat="48.69992" lon="1.90324">
        <ele>158.27</ele>
        <time>2008-04-06T07:06:04Z</time>
      </trkpt>
      <trkpt lat="48.69991" lon="1.90283">
        <ele>157.79</ele>
        <time>2008-04-06T07:06:12Z</time>
      </trkpt>
      <trkpt lat="48.69991" lon="1.90269">
        <ele>157.31</ele>
        <time>2008-04-06T07:06:15Z</time>
      </trkpt>
      <trkpt lat="48.69994" lon="1.90255">
        <ele>155.87</ele>
        <time>2008-04-06T07:06:19Z</time>
      </trkpt>
      <trkpt lat="48.69998" lon="1.90233">
        <ele>158.27</ele>
        <time>2008-04-06T07:06:25Z</time>
      </trkpt>
      <trkpt lat="48.69999" lon="1.90228">
        <ele>157.79</ele>
        <time>2008-04-06T07:06:26Z</time>
      </trkpt>
      <trkpt lat="48.70002" lon="1.902">
        <ele>160.2</ele>
        <time>2008-04-06T07:06:32Z</time>
      </trkpt>
      <trkpt lat="48.70003" lon="1.90195">
        <ele>159.72</ele>
        <time>2008-04-06T07:06:33Z</time>
      </trkpt>
      <trkpt lat="48.70002" lon="1.90169">
        <ele>161.64</ele>
        <time>2008-04-06T07:06:39Z</time>
      </trkpt>
      <trkpt lat="48.70004" lon="1.90153">
        <ele>159.24</ele>
        <time>2008-04-06T07:06:43Z</time>
      </trkpt>
      <trkpt lat="48.70006" lon="1.90141">
        <ele>156.35</ele>
        <time>2008-04-06T07:06:46Z</time>
      </trkpt>
      <trkpt lat="48.70007" lon="1.90112">
        <ele>152.99</ele>
        <time>2008-04-06T07:06:52Z</time>
      </trkpt>
      <trkpt lat="48.70007" lon="1.90096">
        <ele>148.66</ele>
        <time>2008-04-06T07:06:57Z</time>
      </trkpt>
      <trkpt lat="48.70009" lon="1.90077">
        <ele>142.89</ele>
        <time>2008-04-06T07:07:02Z</time>
      </trkpt>
      <trkpt lat="48.70011" lon="1.90053">
        <ele>137.13</ele>
        <time>2008-04-06T07:07:07Z</time>
      </trkpt>
      <trkpt lat="48.70009" lon="1.90035">
        <ele>135.68</ele>
        <time>2008-04-06T07:07:11Z</time>
      </trkpt>
      <trkpt lat="48.70009" lon="1.9002">
        <ele>135.2</ele>
        <time>2008-04-06T07:07:15Z</time>
      </trkpt>
      <trkpt lat="48.70009" lon="1.90001">
        <ele>137.13</ele>
        <time>2008-04-06T07:07:20Z</time>
      </trkpt>
      <trkpt lat="48.70009" lon="1.89985">
        <ele>136.64</ele>
        <time>2008-04-06T07:07:24Z</time>
      </trkpt>
      <trkpt lat="48.70003" lon="1.89961">
        <ele>150.1</ele>
        <time>2008-04-06T07:07:29Z</time>
      </trkpt>
      <trkpt lat="48.70004" lon="1.89941">
        <ele>154.91</ele>
        <time>2008-04-06T07:07:33Z</time>
      </trkpt>
      <trkpt lat="48.70004" lon="1.89922">
        <ele>156.35</ele>
        <time>2008-04-06T07:07:38Z</time>
      </trkpt>
      <trkpt lat="48.70004" lon="1.8992">
        <ele>154.91</ele>
        <time>2008-04-06T07:07:39Z</time>
      </trkpt>
      <trkpt lat="48.70007" lon="1.899">
        <ele>154.91</ele>
        <time>2008-04-06T07:07:44Z</time>
      </trkpt>
      <trkpt lat="48.70008" lon="1.89896">
        <ele>154.91</ele>
        <time>2008-04-06T07:07:45Z</time>
      </trkpt>
      <trkpt lat="48.70026" lon="1.89887">
        <ele>143.37</ele>
        <time>2008-04-06T07:07:50Z</time>
      </trkpt>
      <trkpt lat="48.70029" lon="1.89886">
        <ele>141.93</ele>
        <time>2008-04-06T07:07:51Z</time>
      </trkpt>
      <trkpt lat="48.70045" lon="1.89876">
        <ele>141.93</ele>
        <time>2008-04-06T07:07:57Z</time>
      </trkpt>
      <trkpt lat="48.70056" lon="1.89865">
        <ele>141.45</ele>
        <time>2008-04-06T07:08:02Z</time>
      </trkpt>
      <trkpt lat="48.70068" lon="1.89848">
        <ele>140.01</ele>
        <time>2008-04-06T07:08:07Z</time>
      </trkpt>
      <trkpt lat="48.70077" lon="1.89839">
        <ele>142.41</ele>
        <time>2008-04-06T07:08:11Z</time>
      </trkpt>
      <trkpt lat="48.70083" lon="1.8983">
        <ele>145.3</ele>
        <time>2008-04-06T07:08:14Z</time>
      </trkpt>
      <trkpt lat="48.70085" lon="1.89813">
        <ele>152.51</ele>
        <time>2008-04-06T07:08:19Z</time>
      </trkpt>
      <trkpt lat="48.70086" lon="1.89792">
        <ele>157.79</ele>
        <time>2008-04-06T07:08:24Z</time>
      </trkpt>
      <trkpt lat="48.70088" lon="1.89775">
        <ele>157.79</ele>
        <time>2008-04-06T07:08:28Z</time>
      </trkpt>
      <trkpt lat="48.70092" lon="1.89764">
        <ele>158.75</ele>
        <time>2008-04-06T07:08:32Z</time>
      </trkpt>
      <trkpt lat="48.70105" lon="1.89749">
        <ele>150.58</ele>
        <time>2008-04-06T07:08:38Z</time>
      </trkpt>
      <trkpt lat="48.70114" lon="1.8974">
        <ele>147.22</ele>
        <time>2008-04-06T07:08:42Z</time>
      </trkpt>
      <trkpt lat="48.7012" lon="1.89737">
        <ele>143.85</ele>
        <time>2008-04-06T07:08:44Z</time>
      </trkpt>
      <trkpt lat="48.70134" lon="1.89734">
        <ele>141.93</ele>
        <time>2008-04-06T07:08:49Z</time>
      </trkpt>
      <trkpt lat="48.70145" lon="1.89735">
        <ele>137.61</ele>
        <time>2008-04-06T07:08:52Z</time>
      </trkpt>
      <trkpt lat="48.70163" lon="1.89733">
        <ele>132.32</ele>
        <time>2008-04-06T07:08:58Z</time>
      </trkpt>
      <trkpt lat="48.70175" lon="1.89723">
        <ele>128.95</ele>
        <time>2008-04-06T07:09:03Z</time>
      </trkpt>
      <trkpt lat="48.70187" lon="1.89709">
        <ele>128.95</ele>
        <time>2008-04-06T07:09:08Z</time>
      </trkpt>
      <trkpt lat="48.70195" lon="1.89703">
        <ele>132.8</ele>
        <time>2008-04-06T07:09:12Z</time>
      </trkpt>
      <trkpt lat="48.702" lon="1.89697">
        <ele>142.89</ele>
        <time>2008-04-06T07:09:15Z</time>
      </trkpt>
      <trkpt lat="48.70211" lon="1.8968">
        <ele>153.95</ele>
        <time>2008-04-06T07:09:21Z</time>
      </trkpt>
      <trkpt lat="48.70216" lon="1.89666">
        <ele>159.72</ele>
        <time>2008-04-06T07:09:24Z</time>
      </trkpt>
      <trkpt lat="48.70227" lon="1.89646">
        <ele>167.41</ele>
        <time>2008-04-06T07:09:29Z</time>
      </trkpt>
      <trkpt lat="48.70238" lon="1.89628">
        <ele>168.37</ele>
        <time>2008-04-06T07:09:35Z</time>
      </trkpt>
      <trkpt lat="48.70243" lon="1.8962">
        <ele>167.41</ele>
        <time>2008-04-06T07:09:38Z</time>
      </trkpt>
      <trkpt lat="48.70252" lon="1.89601">
        <ele>165.96</ele>
        <time>2008-04-06T07:09:44Z</time>
      </trkpt>
      <trkpt lat="48.70254" lon="1.896">
        <ele>166.45</ele>
        <time>2008-04-06T07:09:45Z</time>
      </trkpt>
      <trkpt lat="48.70256" lon="1.89594">
        <ele>168.85</ele>
        <time>2008-04-06T07:09:49Z</time>
      </trkpt>
      <trkpt lat="48.70267" lon="1.89582">
        <ele>166.45</ele>
        <time>2008-04-06T07:09:53Z</time>
      </trkpt>
      <trkpt lat="48.70285" lon="1.89573">
        <ele>165</ele>
        <time>2008-04-06T07:09:58Z</time>
      </trkpt>
      <trkpt lat="48.70298" lon="1.89569">
        <ele>162.6</ele>
        <time>2008-04-06T07:10:02Z</time>
      </trkpt>
      <trkpt lat="48.7031" lon="1.8956">
        <ele>162.12</ele>
        <time>2008-04-06T07:10:07Z</time>
      </trkpt>
      <trkpt lat="48.70319" lon="1.89546">
        <ele>161.16</ele>
        <time>2008-04-06T07:10:11Z</time>
      </trkpt>
      <trkpt lat="48.70329" lon="1.89522">
        <ele>159.24</ele>
        <time>2008-04-06T07:10:16Z</time>
      </trkpt>
      <trkpt lat="48.70334" lon="1.89502">
        <ele>160.2</ele>
        <time>2008-04-06T07:10:21Z</time>
      </trkpt>
      <trkpt lat="48.70333" lon="1.8949">
        <ele>163.08</ele>
        <time>2008-04-06T07:10:26Z</time>
      </trkpt>
      <trkpt lat="48.70324" lon="1.89474">
        <ele>164.52</ele>
        <time>2008-04-06T07:10:31Z</time>
      </trkpt>
      <trkpt lat="48.70318" lon="1.8946">
        <ele>153.95</ele>
        <time>2008-04-06T07:10:37Z</time>
      </trkpt>
      <trkpt lat="48.7031" lon="1.89444">
        <ele>150.1</ele>
        <time>2008-04-06T07:10:42Z</time>
      </trkpt>
      <trkpt lat="48.70307" lon="1.89437">
        <ele>147.7</ele>
        <time>2008-04-06T07:10:44Z</time>
      </trkpt>
      <trkpt lat="48.70299" lon="1.89423">
        <ele>147.7</ele>
        <time>2008-04-06T07:10:49Z</time>
      </trkpt>
      <trkpt lat="48.70296" lon="1.89389">
        <ele>145.3</ele>
        <time>2008-04-06T07:10:56Z</time>
      </trkpt>
      <trkpt lat="48.70293" lon="1.89362">
        <ele>146.74</ele>
        <time>2008-04-06T07:11:02Z</time>
      </trkpt>
      <trkpt lat="48.70288" lon="1.89342">
        <ele>148.66</ele>
        <time>2008-04-06T07:11:07Z</time>
      </trkpt>
      <trkpt lat="48.70283" lon="1.89325">
        <ele>143.37</ele>
        <time>2008-04-06T07:11:12Z</time>
      </trkpt>
      <trkpt lat="48.70272" lon="1.89312">
        <ele>141.93</ele>
        <time>2008-04-06T07:11:17Z</time>
      </trkpt>
      <trkpt lat="48.70263" lon="1.89302">
        <ele>140.49</ele>
        <time>2008-04-06T07:11:21Z</time>
      </trkpt>
      <trkpt lat="48.70257" lon="1.89291">
        <ele>139.53</ele>
        <time>2008-04-06T07:11:25Z</time>
      </trkpt>
      <trkpt lat="48.70255" lon="1.89287">
        <ele>140.01</ele>
        <time>2008-04-06T07:11:30Z</time>
      </trkpt>
      <trkpt lat="48.70254" lon="1.89285">
        <ele>140.01</ele>
        <time>2008-04-06T07:11:32Z</time>
      </trkpt>
      <trkpt lat="48.70246" lon="1.89274">
        <ele>137.61</ele>
        <time>2008-04-06T07:11:39Z</time>
      </trkpt>
    </trkseg>
  </trk>
</gpx>